<?xml version="1.0" encoding="UTF-8"?>
<gpx version="1.1" creator="2bulu-scraper" xmlns="http://www.topografix.com/GPX/1/1">
  <metadata><name>徒步大瓦山</name><desc>source: 2bulu.com trackId=84755814; exported 2026-09-01T16:06:34.095Z</desc>
    <bounds minlat="29.3429925" minlon="103.0158236" maxlat="29.3739453" maxlon="103.0343347"/>
    <link href="https://www.2bulu.com/track/t-iZhMlsoUlw7p%252FR2KBg5Tzw%253D%253D.htm"><text>2bulu 源页面</text></link>
  </metadata>
  <wpt lat="29.3739426" lon="103.0343347"><ele>1843</ele><name>
        </name></wpt>
  <wpt lat="29.373385" lon="103.0329963"><ele>1837</ele><name>
        </name></wpt>
  <wpt lat="29.3729786" lon="103.0317361"><ele>1838</ele><name>
        </name></wpt>
  <wpt lat="29.3702434" lon="103.0308983"><ele>1858</ele><name>
        </name></wpt>
  <wpt lat="29.3699471" lon="103.0306782"><ele>1865</ele><name>右转
        </name></wpt>
  <wpt lat="29.3699139" lon="103.0305792"><ele>1866</ele><name>左转
        </name></wpt>
  <wpt lat="29.3674064" lon="103.0254616"><ele>1993</ele><name>
        </name></wpt>
  <wpt lat="29.3682094" lon="103.022177"><ele>2054</ele><name>
        </name></wpt>
  <wpt lat="29.3682563" lon="103.0212208"><ele>2094</ele><name>
        </name></wpt>
  <wpt lat="29.3666578" lon="103.0170252"><ele>2327</ele><name>
        </name></wpt>
  <wpt lat="29.3667243" lon="103.0158727"><ele>2405</ele><name>上顶左转
        </name></wpt>
  <wpt lat="29.3644135" lon="103.017768"><ele>2429</ele><name>
        </name></wpt>
  <wpt lat="29.3630872" lon="103.0189245"><ele>2446</ele><name>左转
        </name></wpt>
  <wpt lat="29.3594324" lon="103.0198753"><ele>2575</ele><name>
        </name></wpt>
  <wpt lat="29.3582818" lon="103.0197905"><ele>2680</ele><name>海拔2681
        </name></wpt>
  <wpt lat="29.3585225" lon="103.0194795"><ele>2696</ele><name>弯道
        </name></wpt>
  <wpt lat="29.3581698" lon="103.0185275"><ele>2798</ele><name>铁梯起点
        </name></wpt>
  <wpt lat="29.3571018" lon="103.018858"><ele>2909</ele><name>佛
        </name></wpt>
  <wpt lat="29.3560305" lon="103.0200644"><ele>2955</ele><name>滚龙岗
        </name></wpt>
  <wpt lat="29.3549245" lon="103.0203372"><ele>2975</ele><name>右转上梯（第4个）
        </name></wpt>
  <wpt lat="29.3547026" lon="103.0202737"><ele>2982</ele><name>
        </name></wpt>
  <wpt lat="29.3547026" lon="103.0202759"><ele>2982</ele><name>远眺大瓦山
        </name></wpt>
  <wpt lat="29.3542314" lon="103.0202421"><ele>2990</ele><name>6
        </name></wpt>
  <wpt lat="29.3538228" lon="103.019968"><ele>3005</ele><name>铁梯
        </name></wpt>
  <wpt lat="29.3533241" lon="103.0195016"><ele>3049</ele><name>铁梯最险
        </name></wpt>
  <wpt lat="29.3528463" lon="103.0192675"><ele>3103</ele><name>海拔3106米，爬升1245米
        </name></wpt>
  <wpt lat="29.3526923" lon="103.0192641"><ele>3120</ele><name>
        </name></wpt>
  <wpt lat="29.352153" lon="103.0194924"><ele>3156</ele><name>
        </name></wpt>
  <wpt lat="29.3517848" lon="103.0196893"><ele>3171</ele><name>神庙1
        </name></wpt>
  <wpt lat="29.3496918" lon="103.0221971"><ele>3175</ele><name>
        </name></wpt>
  <wpt lat="29.3483265" lon="103.022612"><ele>3170</ele><name>
        </name></wpt>
  <wpt lat="29.3480706" lon="103.0220137"><ele>3180</ele><name>
        </name></wpt>
  <wpt lat="29.3475674" lon="103.0219193"><ele>3177</ele><name>
        </name></wpt>
  <wpt lat="29.345886" lon="103.021858"><ele>3155</ele><name>
        </name></wpt>
  <wpt lat="29.3433475" lon="103.0244201"><ele>3160</ele><name>右转
        </name></wpt>
  <wpt lat="29.3429925" lon="103.0247612"><ele>3168</ele><name>通灵宝殿
        </name></wpt>
  <wpt lat="29.346954" lon="103.021509"><ele>3169</ele><name>
        </name></wpt>
  <wpt lat="29.3483972" lon="103.0219907"><ele>3181</ele><name>
        </name></wpt>
  <wpt lat="29.3494322" lon="103.0217261"><ele>3179</ele><name>
        </name></wpt>
  <wpt lat="29.3546817" lon="103.0202644"><ele>2985</ele><name>
        </name></wpt>
  <wpt lat="29.3734033" lon="103.0329771"><ele>1839</ele><name>
        </name></wpt>
  <trk><name>徒步大瓦山</name>
      <trkseg>
        <trkpt lat="29.3739426" lon="103.0343347"><ele>1842.93</ele><time>2026-05-23T14:07:25.000Z</time></trkpt>
        <trkpt lat="29.3739453" lon="103.034218"><ele>1842.93</ele><time>2026-05-23T14:09:16.000Z</time></trkpt>
        <trkpt lat="29.3739153" lon="103.0340962"><ele>1841.39</ele><time>2026-05-23T14:09:24.000Z</time></trkpt>
        <trkpt lat="29.373879" lon="103.033978"><ele>1840.31</ele><time>2026-05-23T14:09:32.000Z</time></trkpt>
        <trkpt lat="29.3738209" lon="103.0338644"><ele>1838.68</ele><time>2026-05-23T14:09:40.000Z</time></trkpt>
        <trkpt lat="29.3737675" lon="103.0337513"><ele>1837.24</ele><time>2026-05-23T14:09:48.000Z</time></trkpt>
        <trkpt lat="29.3737176" lon="103.0336519"><ele>1836.77</ele><time>2026-05-23T14:09:54.000Z</time></trkpt>
        <trkpt lat="29.3736606" lon="103.0335547"><ele>1837.19</ele><time>2026-05-23T14:10:00.000Z</time></trkpt>
        <trkpt lat="29.3736027" lon="103.0334467"><ele>1836.36</ele><time>2026-05-23T14:10:08.000Z</time></trkpt>
        <trkpt lat="29.3735477" lon="103.033332"><ele>1836.55</ele><time>2026-05-23T14:10:16.000Z</time></trkpt>
        <trkpt lat="29.3734971" lon="103.0332203"><ele>1837.4</ele><time>2026-05-23T14:10:24.000Z</time></trkpt>
        <trkpt lat="29.3734433" lon="103.0331073"><ele>1837.26</ele><time>2026-05-23T14:10:32.000Z</time></trkpt>
        <trkpt lat="29.373385" lon="103.0329963"><ele>1837.29</ele><time>2026-05-23T14:10:40.000Z</time></trkpt>
        <trkpt lat="29.3733302" lon="103.0328874"><ele>1837.31</ele><time>2026-05-23T14:10:48.000Z</time></trkpt>
        <trkpt lat="29.3732822" lon="103.0327706"><ele>1837.03</ele><time>2026-05-23T14:10:56.000Z</time></trkpt>
        <trkpt lat="29.3732281" lon="103.0326594"><ele>1836.89</ele><time>2026-05-23T14:11:04.000Z</time></trkpt>
        <trkpt lat="29.3731819" lon="103.0325419"><ele>1837.03</ele><time>2026-05-23T14:11:12.000Z</time></trkpt>
        <trkpt lat="29.3731296" lon="103.032432"><ele>1836.52</ele><time>2026-05-23T14:11:20.000Z</time></trkpt>
        <trkpt lat="29.3731216" lon="103.032308"><ele>1835.5</ele><time>2026-05-23T14:11:28.000Z</time></trkpt>
        <trkpt lat="29.3731366" lon="103.0321773"><ele>1835.16</ele><time>2026-05-23T14:11:36.000Z</time></trkpt>
        <trkpt lat="29.3731373" lon="103.0320432"><ele>1834.87</ele><time>2026-05-23T14:11:44.000Z</time></trkpt>
        <trkpt lat="29.3731081" lon="103.0319176"><ele>1834.65</ele><time>2026-05-23T14:11:52.000Z</time></trkpt>
        <trkpt lat="29.3730611" lon="103.0318218"><ele>1834.86</ele><time>2026-05-23T14:11:58.000Z</time></trkpt>
        <trkpt lat="29.3729786" lon="103.0317361"><ele>1835.48</ele><time>2026-05-23T14:12:06.000Z</time></trkpt>
        <trkpt lat="29.3728853" lon="103.0316634"><ele>1836.5</ele><time>2026-05-23T14:12:14.000Z</time></trkpt>
        <trkpt lat="29.3727941" lon="103.0315897"><ele>1836.93</ele><time>2026-05-23T14:12:22.000Z</time></trkpt>
        <trkpt lat="29.3727008" lon="103.0315173"><ele>1838.43</ele><time>2026-05-23T14:12:30.000Z</time></trkpt>
        <trkpt lat="29.3725884" lon="103.031497"><ele>1838.82</ele><time>2026-05-23T14:12:38.000Z</time></trkpt>
        <trkpt lat="29.3724705" lon="103.031512"><ele>1838.69</ele><time>2026-05-23T14:12:46.000Z</time></trkpt>
        <trkpt lat="29.3723584" lon="103.031557"><ele>1838.44</ele><time>2026-05-23T14:12:52.000Z</time></trkpt>
        <trkpt lat="29.3722534" lon="103.0316027"><ele>1839.95</ele><time>2026-05-23T14:13:00.000Z</time></trkpt>
        <trkpt lat="29.3721609" lon="103.0316587"><ele>1841.99</ele><time>2026-05-23T14:13:08.000Z</time></trkpt>
        <trkpt lat="29.3720818" lon="103.0317196"><ele>1844.94</ele><time>2026-05-23T14:13:16.000Z</time></trkpt>
        <trkpt lat="29.3720006" lon="103.0318019"><ele>1844.6</ele><time>2026-05-23T14:13:24.000Z</time></trkpt>
        <trkpt lat="29.3719144" lon="103.0318742"><ele>1844.44</ele><time>2026-05-23T14:13:32.000Z</time></trkpt>
        <trkpt lat="29.3718252" lon="103.0319075"><ele>1845.09</ele><time>2026-05-23T14:13:38.000Z</time></trkpt>
        <trkpt lat="29.3717197" lon="103.0319081"><ele>1845.81</ele><time>2026-05-23T14:13:46.000Z</time></trkpt>
        <trkpt lat="29.3716429" lon="103.0318436"><ele>1848.66</ele><time>2026-05-23T14:13:52.000Z</time></trkpt>
        <trkpt lat="29.371598" lon="103.0317454"><ele>1849.98</ele><time>2026-05-23T14:13:58.000Z</time></trkpt>
        <trkpt lat="29.3715525" lon="103.0316423"><ele>1850.34</ele><time>2026-05-23T14:14:04.000Z</time></trkpt>
        <trkpt lat="29.3714693" lon="103.0315727"><ele>1850.87</ele><time>2026-05-23T14:14:14.000Z</time></trkpt>
        <trkpt lat="29.3713956" lon="103.0315031"><ele>1850.19</ele><time>2026-05-23T14:14:20.000Z</time></trkpt>
        <trkpt lat="29.3713261" lon="103.0314163"><ele>1850.12</ele><time>2026-05-23T14:14:28.000Z</time></trkpt>
        <trkpt lat="29.3712558" lon="103.0313235"><ele>1850.06</ele><time>2026-05-23T14:14:36.000Z</time></trkpt>
        <trkpt lat="29.3711949" lon="103.0312225"><ele>1850.51</ele><time>2026-05-23T14:14:44.000Z</time></trkpt>
        <trkpt lat="29.3711302" lon="103.0311409"><ele>1851.07</ele><time>2026-05-23T14:14:52.000Z</time></trkpt>
        <trkpt lat="29.3710511" lon="103.0310715"><ele>1850.81</ele><time>2026-05-23T14:15:00.000Z</time></trkpt>
        <trkpt lat="29.3709546" lon="103.0310643"><ele>1850.57</ele><time>2026-05-23T14:15:08.000Z</time></trkpt>
        <trkpt lat="29.3708477" lon="103.0310457"><ele>1852.04</ele><time>2026-05-23T14:15:16.000Z</time></trkpt>
        <trkpt lat="29.3707477" lon="103.0310273"><ele>1852.88</ele><time>2026-05-23T14:15:24.000Z</time></trkpt>
        <trkpt lat="29.3706585" lon="103.0309836"><ele>1854</ele><time>2026-05-23T14:15:32.000Z</time></trkpt>
        <trkpt lat="29.3705741" lon="103.0309385"><ele>1853.78</ele><time>2026-05-23T14:15:40.000Z</time></trkpt>
        <trkpt lat="29.3704899" lon="103.0308999"><ele>1853.98</ele><time>2026-05-23T14:15:48.000Z</time></trkpt>
        <trkpt lat="29.3703998" lon="103.0308835"><ele>1854.24</ele><time>2026-05-23T14:15:56.000Z</time></trkpt>
        <trkpt lat="29.370298" lon="103.0308752"><ele>1855.17</ele><time>2026-05-23T14:16:06.000Z</time></trkpt>
        <trkpt lat="29.3702434" lon="103.0308983"><ele>1855.9</ele><time>2026-05-23T14:16:18.000Z</time></trkpt>
        <trkpt lat="29.3701756" lon="103.0308704"><ele>1857.01</ele><time>2026-05-23T14:17:08.000Z</time></trkpt>
        <trkpt lat="29.3701039" lon="103.0308047"><ele>1857.57</ele><time>2026-05-23T14:17:18.000Z</time></trkpt>
        <trkpt lat="29.3700255" lon="103.0307425"><ele>1858.78</ele><time>2026-05-23T14:17:30.000Z</time></trkpt>
        <trkpt lat="29.3699471" lon="103.0306782"><ele>1861.9</ele><time>2026-05-23T14:17:44.000Z</time></trkpt>
        <trkpt lat="29.3699139" lon="103.0305792"><ele>1863.21</ele><time>2026-05-23T14:17:56.000Z</time></trkpt>
        <trkpt lat="29.3698768" lon="103.0304796"><ele>1864.28</ele><time>2026-05-23T14:18:38.000Z</time></trkpt>
        <trkpt lat="29.3698027" lon="103.0303987"><ele>1865.92</ele><time>2026-05-23T14:18:54.000Z</time></trkpt>
        <trkpt lat="29.3697738" lon="103.0303849"><ele>1866.11</ele><time>2026-05-23T14:18:58.000Z</time></trkpt>
        <trkpt lat="29.3697386" lon="103.0303186"><ele>1868.24</ele><time>2026-05-23T14:19:17.000Z</time></trkpt>
        <trkpt lat="29.3696923" lon="103.0302257"><ele>1868.35</ele><time>2026-05-23T14:19:27.000Z</time></trkpt>
        <trkpt lat="29.3696516" lon="103.0301276"><ele>1869.67</ele><time>2026-05-23T14:19:39.000Z</time></trkpt>
        <trkpt lat="29.3695831" lon="103.0300468"><ele>1873.42</ele><time>2026-05-23T14:19:55.000Z</time></trkpt>
        <trkpt lat="29.3695238" lon="103.0299543"><ele>1876.93</ele><time>2026-05-23T14:20:05.000Z</time></trkpt>
        <trkpt lat="29.3695045" lon="103.0299205"><ele>1878.43</ele><time>2026-05-23T14:20:11.000Z</time></trkpt>
        <trkpt lat="29.3694322" lon="103.0298791"><ele>1880.24</ele><time>2026-05-23T14:20:29.000Z</time></trkpt>
        <trkpt lat="29.3693655" lon="103.0298041"><ele>1883.81</ele><time>2026-05-23T14:20:41.000Z</time></trkpt>
        <trkpt lat="29.3693075" lon="103.0297112"><ele>1884.78</ele><time>2026-05-23T14:20:53.000Z</time></trkpt>
        <trkpt lat="29.3692931" lon="103.0296057"><ele>1886.31</ele><time>2026-05-23T14:21:11.000Z</time></trkpt>
        <trkpt lat="29.3692411" lon="103.0295237"><ele>1887.89</ele><time>2026-05-23T14:21:33.000Z</time></trkpt>
        <trkpt lat="29.3691833" lon="103.0294365"><ele>1889.32</ele><time>2026-05-23T14:21:49.000Z</time></trkpt>
        <trkpt lat="29.3690998" lon="103.0294212"><ele>1891.19</ele><time>2026-05-23T14:22:03.000Z</time></trkpt>
        <trkpt lat="29.3690472" lon="103.0293429"><ele>1893.62</ele><time>2026-05-23T14:22:15.000Z</time></trkpt>
        <trkpt lat="29.3689752" lon="103.0292826"><ele>1896.33</ele><time>2026-05-23T14:22:37.000Z</time></trkpt>
        <trkpt lat="29.368916" lon="103.0292013"><ele>1897.58</ele><time>2026-05-23T14:22:55.000Z</time></trkpt>
        <trkpt lat="29.3688292" lon="103.0291548"><ele>1898.2</ele><time>2026-05-23T14:23:09.000Z</time></trkpt>
        <trkpt lat="29.3687726" lon="103.0290672"><ele>1900.61</ele><time>2026-05-23T14:23:27.000Z</time></trkpt>
        <trkpt lat="29.368779" lon="103.0289492"><ele>1900.19</ele><time>2026-05-23T14:27:01.000Z</time></trkpt>
        <trkpt lat="29.3688361" lon="103.0288564"><ele>1901.71</ele><time>2026-05-23T14:27:23.000Z</time></trkpt>
        <trkpt lat="29.3688242" lon="103.0287472"><ele>1904.27</ele><time>2026-05-23T14:27:37.000Z</time></trkpt>
        <trkpt lat="29.3687999" lon="103.0286436"><ele>1907.78</ele><time>2026-05-23T14:27:49.000Z</time></trkpt>
        <trkpt lat="29.368766" lon="103.0286018"><ele>1909.77</ele><time>2026-05-23T14:27:53.000Z</time></trkpt>
        <trkpt lat="29.3687276" lon="103.0285123"><ele>1910.79</ele><time>2026-05-23T14:28:27.000Z</time></trkpt>
        <trkpt lat="29.3686732" lon="103.0284173"><ele>1913.6</ele><time>2026-05-23T14:28:43.000Z</time></trkpt>
        <trkpt lat="29.3686264" lon="103.0283179"><ele>1916.12</ele><time>2026-05-23T14:29:21.000Z</time></trkpt>
        <trkpt lat="29.368631" lon="103.0282098"><ele>1917.66</ele><time>2026-05-23T14:29:33.000Z</time></trkpt>
        <trkpt lat="29.3685914" lon="103.0281115"><ele>1918.89</ele><time>2026-05-23T14:29:49.000Z</time></trkpt>
        <trkpt lat="29.3685323" lon="103.0280151"><ele>1921.61</ele><time>2026-05-23T14:30:01.000Z</time></trkpt>
        <trkpt lat="29.3684753" lon="103.0279157"><ele>1924.23</ele><time>2026-05-23T14:30:13.000Z</time></trkpt>
        <trkpt lat="29.3684541" lon="103.0278038"><ele>1926.68</ele><time>2026-05-23T14:30:25.000Z</time></trkpt>
        <trkpt lat="29.3684405" lon="103.0276953"><ele>1928</ele><time>2026-05-23T14:30:37.000Z</time></trkpt>
        <trkpt lat="29.3684149" lon="103.0275949"><ele>1929.05</ele><time>2026-05-23T14:30:49.000Z</time></trkpt>
        <trkpt lat="29.3683652" lon="103.0275104"><ele>1930.67</ele><time>2026-05-23T14:31:23.000Z</time></trkpt>
        <trkpt lat="29.3683119" lon="103.0274192"><ele>1932.19</ele><time>2026-05-23T14:31:41.000Z</time></trkpt>
        <trkpt lat="29.3682776" lon="103.0273094"><ele>1934.09</ele><time>2026-05-23T14:32:03.000Z</time></trkpt>
        <trkpt lat="29.3682496" lon="103.0271998"><ele>1936.54</ele><time>2026-05-23T14:32:15.000Z</time></trkpt>
        <trkpt lat="29.3682081" lon="103.0271059"><ele>1937.89</ele><time>2026-05-23T14:32:31.000Z</time></trkpt>
        <trkpt lat="29.368154" lon="103.0270192"><ele>1941.42</ele><time>2026-05-23T14:32:47.000Z</time></trkpt>
        <trkpt lat="29.3680706" lon="103.0270008"><ele>1944.69</ele><time>2026-05-23T14:32:59.000Z</time></trkpt>
        <trkpt lat="29.3679796" lon="103.0269639"><ele>1947.35</ele><time>2026-05-23T14:33:47.000Z</time></trkpt>
        <trkpt lat="29.3678968" lon="103.0269105"><ele>1949.99</ele><time>2026-05-23T14:33:59.000Z</time></trkpt>
        <trkpt lat="29.3678453" lon="103.0268149"><ele>1952.56</ele><time>2026-05-23T14:34:15.000Z</time></trkpt>
        <trkpt lat="29.3678221" lon="103.0267047"><ele>1954.48</ele><time>2026-05-23T14:34:31.000Z</time></trkpt>
        <trkpt lat="29.3677921" lon="103.0265985"><ele>1955.79</ele><time>2026-05-23T14:34:45.000Z</time></trkpt>
        <trkpt lat="29.3677628" lon="103.0264908"><ele>1957.77</ele><time>2026-05-23T14:35:01.000Z</time></trkpt>
        <trkpt lat="29.3677373" lon="103.0263863"><ele>1959.54</ele><time>2026-05-23T14:35:19.000Z</time></trkpt>
        <trkpt lat="29.3677038" lon="103.0262836"><ele>1962.2</ele><time>2026-05-23T14:35:35.000Z</time></trkpt>
        <trkpt lat="29.3677038" lon="103.0262836"><ele>1962.2</ele><time>2026-05-23T14:35:35.000Z</time></trkpt>
        <trkpt lat="29.3675941" lon="103.0260862"><ele>1973.79</ele><time>2026-05-23T14:36:12.000Z</time></trkpt>
        <trkpt lat="29.3675941" lon="103.0260862"><ele>1973.79</ele><time>2026-05-23T14:36:14.000Z</time></trkpt>
        <trkpt lat="29.367525" lon="103.0260156"><ele>1973.79</ele><time>2026-05-23T14:36:26.000Z</time></trkpt>
        <trkpt lat="29.3674686" lon="103.0259238"><ele>1976.29</ele><time>2026-05-23T14:36:40.000Z</time></trkpt>
        <trkpt lat="29.3674093" lon="103.0258394"><ele>1978.68</ele><time>2026-05-23T14:36:54.000Z</time></trkpt>
        <trkpt lat="29.3673968" lon="103.0258136"><ele>1981.3</ele><time>2026-05-23T14:36:58.000Z</time></trkpt>
        <trkpt lat="29.3673497" lon="103.025758"><ele>1983</ele><time>2026-05-23T14:37:21.000Z</time></trkpt>
        <trkpt lat="29.3673017" lon="103.025676"><ele>1984.61</ele><time>2026-05-23T14:37:31.000Z</time></trkpt>
        <trkpt lat="29.3672381" lon="103.025584"><ele>1986.16</ele><time>2026-05-23T14:37:45.000Z</time></trkpt>
        <trkpt lat="29.3672724" lon="103.0255075"><ele>1988.28</ele><time>2026-05-23T14:37:59.000Z</time></trkpt>
        <trkpt lat="29.3672517" lon="103.0254167"><ele>1990.43</ele><time>2026-05-23T14:38:19.000Z</time></trkpt>
        <trkpt lat="29.3673064" lon="103.0254611"><ele>1992.31</ele><time>2026-05-23T14:38:45.000Z</time></trkpt>
        <trkpt lat="29.3674064" lon="103.0254616"><ele>1992.37</ele><time>2026-05-23T14:38:51.000Z</time></trkpt>
        <trkpt lat="29.3675087" lon="103.025433"><ele>1992.52</ele><time>2026-05-23T14:38:59.000Z</time></trkpt>
        <trkpt lat="29.3676048" lon="103.0253658"><ele>1993.53</ele><time>2026-05-23T14:39:09.000Z</time></trkpt>
        <trkpt lat="29.3676737" lon="103.0252805"><ele>1994.04</ele><time>2026-05-23T14:39:17.000Z</time></trkpt>
        <trkpt lat="29.3677321" lon="103.0251851"><ele>1994.42</ele><time>2026-05-23T14:39:25.000Z</time></trkpt>
        <trkpt lat="29.3677873" lon="103.0250915"><ele>1995.32</ele><time>2026-05-23T14:39:33.000Z</time></trkpt>
        <trkpt lat="29.3678324" lon="103.0249921"><ele>1995.53</ele><time>2026-05-23T14:39:41.000Z</time></trkpt>
        <trkpt lat="29.3678714" lon="103.024891"><ele>1995.8</ele><time>2026-05-23T14:39:49.000Z</time></trkpt>
        <trkpt lat="29.3678931" lon="103.0248195"><ele>1996</ele><time>2026-05-23T14:39:58.000Z</time></trkpt>
        <trkpt lat="29.3679143" lon="103.024729"><ele>1996.85</ele><time>2026-05-23T14:40:12.000Z</time></trkpt>
        <trkpt lat="29.3679112" lon="103.0246109"><ele>1997.6</ele><time>2026-05-23T14:40:22.000Z</time></trkpt>
        <trkpt lat="29.3679067" lon="103.0244986"><ele>1997.82</ele><time>2026-05-23T14:40:30.000Z</time></trkpt>
        <trkpt lat="29.3679471" lon="103.024409"><ele>1997.37</ele><time>2026-05-23T14:40:38.000Z</time></trkpt>
        <trkpt lat="29.3679928" lon="103.0243021"><ele>1998.13</ele><time>2026-05-23T14:40:48.000Z</time></trkpt>
        <trkpt lat="29.3680199" lon="103.0241966"><ele>1999.13</ele><time>2026-05-23T14:40:56.000Z</time></trkpt>
        <trkpt lat="29.3680072" lon="103.0240773"><ele>2000.14</ele><time>2026-05-23T14:41:06.000Z</time></trkpt>
        <trkpt lat="29.3679887" lon="103.0239633"><ele>2001.27</ele><time>2026-05-23T14:41:14.000Z</time></trkpt>
        <trkpt lat="29.3679992" lon="103.0238397"><ele>2001.92</ele><time>2026-05-23T14:41:24.000Z</time></trkpt>
        <trkpt lat="29.3680377" lon="103.0237312"><ele>2002.44</ele><time>2026-05-23T14:41:32.000Z</time></trkpt>
        <trkpt lat="29.3681176" lon="103.0236652"><ele>2003.7</ele><time>2026-05-23T14:41:40.000Z</time></trkpt>
        <trkpt lat="29.368222" lon="103.0236379"><ele>2006.36</ele><time>2026-05-23T14:41:50.000Z</time></trkpt>
        <trkpt lat="29.3682973" lon="103.0236268"><ele>2007.7</ele><time>2026-05-23T14:41:58.000Z</time></trkpt>
        <trkpt lat="29.368336" lon="103.0235524"><ele>2009.11</ele><time>2026-05-23T14:42:56.000Z</time></trkpt>
        <trkpt lat="29.3684094" lon="103.0234899"><ele>2009.27</ele><time>2026-05-23T14:43:06.000Z</time></trkpt>
        <trkpt lat="29.3684926" lon="103.0234371"><ele>2008.8</ele><time>2026-05-23T14:43:18.000Z</time></trkpt>
        <trkpt lat="29.3685755" lon="103.0233772"><ele>2008.4</ele><time>2026-05-23T14:43:28.000Z</time></trkpt>
        <trkpt lat="29.3686553" lon="103.0233187"><ele>2008.34</ele><time>2026-05-23T14:43:36.000Z</time></trkpt>
        <trkpt lat="29.3686971" lon="103.0233214"><ele>2009.05</ele><time>2026-05-23T14:43:42.000Z</time></trkpt>
        <trkpt lat="29.368656" lon="103.0232733"><ele>2010.07</ele><time>2026-05-23T14:44:18.000Z</time></trkpt>
        <trkpt lat="29.3685676" lon="103.0232367"><ele>2011.86</ele><time>2026-05-23T14:44:32.000Z</time></trkpt>
        <trkpt lat="29.3684823" lon="103.0231682"><ele>2014.09</ele><time>2026-05-23T14:44:48.000Z</time></trkpt>
        <trkpt lat="29.3683895" lon="103.0230873"><ele>2016.36</ele><time>2026-05-23T14:45:00.000Z</time></trkpt>
        <trkpt lat="29.3683581" lon="103.0229894"><ele>2017.98</ele><time>2026-05-23T14:45:22.000Z</time></trkpt>
        <trkpt lat="29.3683553" lon="103.0228771"><ele>2020.2</ele><time>2026-05-23T14:45:40.000Z</time></trkpt>
        <trkpt lat="29.368363" lon="103.0227621"><ele>2022.69</ele><time>2026-05-23T14:46:14.000Z</time></trkpt>
        <trkpt lat="29.3683301" lon="103.0226647"><ele>2025.29</ele><time>2026-05-23T14:46:44.000Z</time></trkpt>
        <trkpt lat="29.3683142" lon="103.0225562"><ele>2028.24</ele><time>2026-05-23T14:47:08.000Z</time></trkpt>
        <trkpt lat="29.3682514" lon="103.0224831"><ele>2031.24</ele><time>2026-05-23T14:47:26.000Z</time></trkpt>
        <trkpt lat="29.3681982" lon="103.0223971"><ele>2034.35</ele><time>2026-05-23T14:47:40.000Z</time></trkpt>
        <trkpt lat="29.3681938" lon="103.0222845"><ele>2036.91</ele><time>2026-05-23T14:48:44.000Z</time></trkpt>
        <trkpt lat="29.3682094" lon="103.022177"><ele>2040.44</ele><time>2026-05-23T14:48:58.000Z</time></trkpt>
        <trkpt lat="29.368217" lon="103.022067"><ele>2046.17</ele><time>2026-05-23T14:49:38.000Z</time></trkpt>
        <trkpt lat="29.3682271" lon="103.0219511"><ele>2051.73</ele><time>2026-05-23T14:50:35.000Z</time></trkpt>
        <trkpt lat="29.3682564" lon="103.0218475"><ele>2056.01</ele><time>2026-05-23T14:51:11.000Z</time></trkpt>
        <trkpt lat="29.3682413" lon="103.021743"><ele>2059.66</ele><time>2026-05-23T14:51:43.000Z</time></trkpt>
        <trkpt lat="29.3682822" lon="103.0216572"><ele>2064.78</ele><time>2026-05-23T14:52:25.000Z</time></trkpt>
        <trkpt lat="29.3682811" lon="103.0215602"><ele>2067.78</ele><time>2026-05-23T14:52:45.000Z</time></trkpt>
        <trkpt lat="29.3682387" lon="103.0214684"><ele>2071.09</ele><time>2026-05-23T14:53:09.000Z</time></trkpt>
        <trkpt lat="29.3682317" lon="103.021443"><ele>2074.06</ele><time>2026-05-23T14:53:19.000Z</time></trkpt>
        <trkpt lat="29.3682932" lon="103.0214135"><ele>2075.71</ele><time>2026-05-23T14:53:47.000Z</time></trkpt>
        <trkpt lat="29.3682676" lon="103.0213318"><ele>2079.08</ele><time>2026-05-23T14:55:11.000Z</time></trkpt>
        <trkpt lat="29.3682563" lon="103.0212208"><ele>2083.96</ele><time>2026-05-23T14:55:29.000Z</time></trkpt>
        <trkpt lat="29.3681798" lon="103.0211689"><ele>2088.43</ele><time>2026-05-23T14:56:17.000Z</time></trkpt>
        <trkpt lat="29.3681039" lon="103.0211047"><ele>2091.4</ele><time>2026-05-23T14:57:01.000Z</time></trkpt>
        <trkpt lat="29.3680414" lon="103.0210242"><ele>2096.71</ele><time>2026-05-23T14:57:39.000Z</time></trkpt>
        <trkpt lat="29.3679895" lon="103.020934"><ele>2101.18</ele><time>2026-05-23T14:58:09.000Z</time></trkpt>
        <trkpt lat="29.3679878" lon="103.0208247"><ele>2104.54</ele><time>2026-05-23T14:58:47.000Z</time></trkpt>
        <trkpt lat="29.3679638" lon="103.0207236"><ele>2108.46</ele><time>2026-05-23T14:59:27.000Z</time></trkpt>
        <trkpt lat="29.367924" lon="103.0206288"><ele>2112.26</ele><time>2026-05-23T14:59:49.000Z</time></trkpt>
        <trkpt lat="29.3678537" lon="103.0205652"><ele>2116.26</ele><time>2026-05-23T15:00:47.000Z</time></trkpt>
        <trkpt lat="29.3677733" lon="103.0205062"><ele>2122.11</ele><time>2026-05-23T15:01:25.000Z</time></trkpt>
        <trkpt lat="29.3677232" lon="103.0204172"><ele>2126.07</ele><time>2026-05-23T15:01:43.000Z</time></trkpt>
        <trkpt lat="29.3676504" lon="103.0203394"><ele>2127.38</ele><time>2026-05-23T15:02:33.000Z</time></trkpt>
        <trkpt lat="29.3675633" lon="103.0203299"><ele>2131.78</ele><time>2026-05-23T15:03:05.000Z</time></trkpt>
        <trkpt lat="29.3675003" lon="103.0202633"><ele>2136.86</ele><time>2026-05-23T15:03:35.000Z</time></trkpt>
        <trkpt lat="29.3674987" lon="103.0201667"><ele>2140.46</ele><time>2026-05-23T15:04:03.000Z</time></trkpt>
        <trkpt lat="29.3675044" lon="103.0201407"><ele>2145.91</ele><time>2026-05-23T15:04:05.000Z</time></trkpt>
        <trkpt lat="29.367433" lon="103.0201027"><ele>2149.05</ele><time>2026-05-23T15:05:47.000Z</time></trkpt>
        <trkpt lat="29.3673715" lon="103.020023"><ele>2151.04</ele><time>2026-05-23T15:06:03.000Z</time></trkpt>
        <trkpt lat="29.3673096" lon="103.0199473"><ele>2153.63</ele><time>2026-05-23T15:06:29.000Z</time></trkpt>
        <trkpt lat="29.3672454" lon="103.0198651"><ele>2158.22</ele><time>2026-05-23T15:07:47.000Z</time></trkpt>
        <trkpt lat="29.3672366" lon="103.0198566"><ele>2162.19</ele><time>2026-05-23T15:07:53.000Z</time></trkpt>
        <trkpt lat="29.3671852" lon="103.019772"><ele>2164.63</ele><time>2026-05-23T15:08:43.000Z</time></trkpt>
        <trkpt lat="29.367137" lon="103.0196581"><ele>2169.38</ele><time>2026-05-23T15:09:55.000Z</time></trkpt>
        <trkpt lat="29.3670775" lon="103.0195774"><ele>2173.4</ele><time>2026-05-23T15:10:31.000Z</time></trkpt>
        <trkpt lat="29.3669957" lon="103.0195321"><ele>2177.14</ele><time>2026-05-23T15:11:11.000Z</time></trkpt>
        <trkpt lat="29.3669559" lon="103.0195349"><ele>2181.81</ele><time>2026-05-23T15:11:19.000Z</time></trkpt>
        <trkpt lat="29.3669276" lon="103.0194593"><ele>2185.34</ele><time>2026-05-23T15:11:37.000Z</time></trkpt>
        <trkpt lat="29.3669452" lon="103.0193608"><ele>2188.09</ele><time>2026-05-23T15:12:15.000Z</time></trkpt>
        <trkpt lat="29.366942" lon="103.0192505"><ele>2190.63</ele><time>2026-05-23T15:13:01.000Z</time></trkpt>
        <trkpt lat="29.3669061" lon="103.0191437"><ele>2195.74</ele><time>2026-05-23T15:13:45.000Z</time></trkpt>
        <trkpt lat="29.3668734" lon="103.0190349"><ele>2201.4</ele><time>2026-05-23T15:14:31.000Z</time></trkpt>
        <trkpt lat="29.3668665" lon="103.0189245"><ele>2206.67</ele><time>2026-05-23T15:15:39.000Z</time></trkpt>
        <trkpt lat="29.3668792" lon="103.0188214"><ele>2211.46</ele><time>2026-05-23T15:17:07.000Z</time></trkpt>
        <trkpt lat="29.366809" lon="103.0187511"><ele>2217.41</ele><time>2026-05-23T15:18:15.000Z</time></trkpt>
        <trkpt lat="29.3667754" lon="103.0186495"><ele>2221.8</ele><time>2026-05-23T15:18:53.000Z</time></trkpt>
        <trkpt lat="29.3667417" lon="103.0185479"><ele>2226.09</ele><time>2026-05-23T15:19:17.000Z</time></trkpt>
        <trkpt lat="29.3667188" lon="103.0184459"><ele>2229.72</ele><time>2026-05-23T15:19:35.000Z</time></trkpt>
        <trkpt lat="29.3666962" lon="103.0183451"><ele>2234.46</ele><time>2026-05-23T15:20:07.000Z</time></trkpt>
        <trkpt lat="29.366669" lon="103.0182451"><ele>2239.58</ele><time>2026-05-23T15:20:41.000Z</time></trkpt>
        <trkpt lat="29.3666295" lon="103.0181479"><ele>2244</ele><time>2026-05-23T15:21:05.000Z</time></trkpt>
        <trkpt lat="29.3666143" lon="103.0180445"><ele>2249.14</ele><time>2026-05-23T15:21:41.000Z</time></trkpt>
        <trkpt lat="29.3666524" lon="103.0179547"><ele>2254.97</ele><time>2026-05-23T15:22:07.000Z</time></trkpt>
        <trkpt lat="29.3666265" lon="103.0179182"><ele>2258.33</ele><time>2026-05-23T15:22:21.000Z</time></trkpt>
        <trkpt lat="29.3666006" lon="103.0178362"><ele>2262.1</ele><time>2026-05-23T15:24:01.000Z</time></trkpt>
        <trkpt lat="29.366554" lon="103.0177475"><ele>2265.97</ele><time>2026-05-23T15:24:27.000Z</time></trkpt>
        <trkpt lat="29.3664781" lon="103.0176886"><ele>2271.52</ele><time>2026-05-23T15:25:15.000Z</time></trkpt>
        <trkpt lat="29.3664671" lon="103.0175954"><ele>2277.63</ele><time>2026-05-23T15:25:41.000Z</time></trkpt>
        <trkpt lat="29.3665759" lon="103.0176294"><ele>2281.48</ele><time>2026-05-23T15:37:43.000Z</time></trkpt>
        <trkpt lat="29.366658" lon="103.0176672"><ele>2284.74</ele><time>2026-05-23T15:37:51.000Z</time></trkpt>
        <trkpt lat="29.3665941" lon="103.0176264"><ele>2286.84</ele><time>2026-05-23T15:38:01.000Z</time></trkpt>
        <trkpt lat="29.3665444" lon="103.0176173"><ele>2288.17</ele><time>2026-05-23T15:38:07.000Z</time></trkpt>
        <trkpt lat="29.3664628" lon="103.0175671"><ele>2287.69</ele><time>2026-05-23T15:38:43.000Z</time></trkpt>
        <trkpt lat="29.3665024" lon="103.0175345"><ele>2288.69</ele><time>2026-05-23T15:38:51.000Z</time></trkpt>
        <trkpt lat="29.3665552" lon="103.0174482"><ele>2289.85</ele><time>2026-05-23T15:39:09.000Z</time></trkpt>
        <trkpt lat="29.3665844" lon="103.0173226"><ele>2292.12</ele><time>2026-05-23T15:40:39.000Z</time></trkpt>
        <trkpt lat="29.3665689" lon="103.0172182"><ele>2296.66</ele><time>2026-05-23T15:41:43.000Z</time></trkpt>
        <trkpt lat="29.3665983" lon="103.0171118"><ele>2302.71</ele><time>2026-05-23T15:43:15.000Z</time></trkpt>
        <trkpt lat="29.3666015" lon="103.0171066"><ele>2309.36</ele><time>2026-05-23T15:43:21.000Z</time></trkpt>
        <trkpt lat="29.3666578" lon="103.0170252"><ele>2313.37</ele><time>2026-05-23T15:44:49.000Z</time></trkpt>
        <trkpt lat="29.3666298" lon="103.0169269"><ele>2319.22</ele><time>2026-05-23T15:46:17.000Z</time></trkpt>
        <trkpt lat="29.366671" lon="103.0168244"><ele>2324.7</ele><time>2026-05-23T15:47:17.000Z</time></trkpt>
        <trkpt lat="29.3667307" lon="103.0167381"><ele>2329.7</ele><time>2026-05-23T15:47:51.000Z</time></trkpt>
        <trkpt lat="29.366823" lon="103.0167216"><ele>2334.12</ele><time>2026-05-23T15:48:53.000Z</time></trkpt>
        <trkpt lat="29.3668877" lon="103.0166381"><ele>2340.29</ele><time>2026-05-23T15:49:29.000Z</time></trkpt>
        <trkpt lat="29.3669548" lon="103.0165637"><ele>2345.21</ele><time>2026-05-23T15:49:53.000Z</time></trkpt>
        <trkpt lat="29.3670069" lon="103.0164767"><ele>2349.42</ele><time>2026-05-23T15:50:05.000Z</time></trkpt>
        <trkpt lat="29.367033" lon="103.0163761"><ele>2354.06</ele><time>2026-05-23T15:50:25.000Z</time></trkpt>
        <trkpt lat="29.3670816" lon="103.0162889"><ele>2358.27</ele><time>2026-05-23T15:51:25.000Z</time></trkpt>
        <trkpt lat="29.3670951" lon="103.0161894"><ele>2366.13</ele><time>2026-05-23T15:51:59.000Z</time></trkpt>
        <trkpt lat="29.3671222" lon="103.0160918"><ele>2371.97</ele><time>2026-05-23T15:53:15.000Z</time></trkpt>
        <trkpt lat="29.3671766" lon="103.0160091"><ele>2380.26</ele><time>2026-05-23T15:54:27.000Z</time></trkpt>
        <trkpt lat="29.3671089" lon="103.0159129"><ele>2387.72</ele><time>2026-05-23T15:55:07.000Z</time></trkpt>
        <trkpt lat="29.3670186" lon="103.0158471"><ele>2395.37</ele><time>2026-05-23T15:55:17.000Z</time></trkpt>
        <trkpt lat="29.3669184" lon="103.0158236"><ele>2400.07</ele><time>2026-05-23T15:55:25.000Z</time></trkpt>
        <trkpt lat="29.3668176" lon="103.0158405"><ele>2403.34</ele><time>2026-05-23T15:55:33.000Z</time></trkpt>
        <trkpt lat="29.3667243" lon="103.0158727"><ele>2404.6</ele><time>2026-05-23T15:55:45.000Z</time></trkpt>
        <trkpt lat="29.3666339" lon="103.0158909"><ele>2404.77</ele><time>2026-05-23T15:55:55.000Z</time></trkpt>
        <trkpt lat="29.3665387" lon="103.0158744"><ele>2404.83</ele><time>2026-05-23T15:56:05.000Z</time></trkpt>
        <trkpt lat="29.3664326" lon="103.0158815"><ele>2404.86</ele><time>2026-05-23T15:56:15.000Z</time></trkpt>
        <trkpt lat="29.3663331" lon="103.0159121"><ele>2404.8</ele><time>2026-05-23T15:56:23.000Z</time></trkpt>
        <trkpt lat="29.3662356" lon="103.0159447"><ele>2403.59</ele><time>2026-05-23T15:56:31.000Z</time></trkpt>
        <trkpt lat="29.3661767" lon="103.0159821"><ele>2402.95</ele><time>2026-05-23T15:56:37.000Z</time></trkpt>
        <trkpt lat="29.3661075" lon="103.0160281"><ele>2403.23</ele><time>2026-05-23T15:57:49.000Z</time></trkpt>
        <trkpt lat="29.3660135" lon="103.0161128"><ele>2403.73</ele><time>2026-05-23T15:57:55.000Z</time></trkpt>
        <trkpt lat="29.3659057" lon="103.0161824"><ele>2405.17</ele><time>2026-05-23T15:58:01.000Z</time></trkpt>
        <trkpt lat="29.3658137" lon="103.0162485"><ele>2406.22</ele><time>2026-05-23T15:58:07.000Z</time></trkpt>
        <trkpt lat="29.3657275" lon="103.0163042"><ele>2406.73</ele><time>2026-05-23T15:58:13.000Z</time></trkpt>
        <trkpt lat="29.3656361" lon="103.0163742"><ele>2406.79</ele><time>2026-05-23T15:58:21.000Z</time></trkpt>
        <trkpt lat="29.3656361" lon="103.0163742"><ele>2406.79</ele><time>2026-05-23T15:58:21.000Z</time></trkpt>
        <trkpt lat="29.3654194" lon="103.0165726"><ele>2422.91</ele><time>2026-05-23T15:58:47.000Z</time></trkpt>
        <trkpt lat="29.3654194" lon="103.0165726"><ele>2422.91</ele><time>2026-05-23T15:58:48.000Z</time></trkpt>
        <trkpt lat="29.365336" lon="103.0166376"><ele>2422.91</ele><time>2026-05-23T15:59:02.000Z</time></trkpt>
        <trkpt lat="29.3652596" lon="103.0167274"><ele>2421.53</ele><time>2026-05-23T15:59:14.000Z</time></trkpt>
        <trkpt lat="29.3652048" lon="103.0168227"><ele>2420.9</ele><time>2026-05-23T15:59:22.000Z</time></trkpt>
        <trkpt lat="29.3651551" lon="103.0169341"><ele>2421.06</ele><time>2026-05-23T15:59:32.000Z</time></trkpt>
        <trkpt lat="29.3650954" lon="103.0170278"><ele>2420.64</ele><time>2026-05-23T15:59:40.000Z</time></trkpt>
        <trkpt lat="29.365031" lon="103.0171269"><ele>2420.69</ele><time>2026-05-23T15:59:50.000Z</time></trkpt>
        <trkpt lat="29.3649683" lon="103.0172233"><ele>2420.62</ele><time>2026-05-23T16:00:00.000Z</time></trkpt>
        <trkpt lat="29.3648975" lon="103.0173108"><ele>2420.5</ele><time>2026-05-23T16:00:10.000Z</time></trkpt>
        <trkpt lat="29.3648313" lon="103.0174049"><ele>2421.15</ele><time>2026-05-23T16:00:22.000Z</time></trkpt>
        <trkpt lat="29.3647649" lon="103.0174833"><ele>2422.74</ele><time>2026-05-23T16:00:32.000Z</time></trkpt>
        <trkpt lat="29.3647649" lon="103.0174833"><ele>2422.74</ele><time>2026-05-23T16:00:32.000Z</time></trkpt>
        <trkpt lat="29.3644141" lon="103.017659"><ele>2415.27</ele><time>2026-05-23T16:01:28.000Z</time></trkpt>
        <trkpt lat="29.3644141" lon="103.017659"><ele>2415.27</ele><time>2026-05-23T16:01:31.000Z</time></trkpt>
        <trkpt lat="29.3644135" lon="103.017768"><ele>2415.27</ele><time>2026-05-23T16:01:44.000Z</time></trkpt>
        <trkpt lat="29.3643604" lon="103.0178658"><ele>2421.3</ele><time>2026-05-23T16:02:12.000Z</time></trkpt>
        <trkpt lat="29.3642774" lon="103.0179416"><ele>2424.07</ele><time>2026-05-23T16:02:24.000Z</time></trkpt>
        <trkpt lat="29.3642044" lon="103.0180133"><ele>2426.55</ele><time>2026-05-23T16:02:34.000Z</time></trkpt>
        <trkpt lat="29.3641322" lon="103.0180885"><ele>2428.37</ele><time>2026-05-23T16:02:44.000Z</time></trkpt>
        <trkpt lat="29.3640761" lon="103.0181851"><ele>2429.72</ele><time>2026-05-23T16:02:56.000Z</time></trkpt>
        <trkpt lat="29.3640322" lon="103.0182369"><ele>2430.47</ele><time>2026-05-23T16:03:04.000Z</time></trkpt>
        <trkpt lat="29.3639848" lon="103.0183152"><ele>2431.21</ele><time>2026-05-23T16:03:20.000Z</time></trkpt>
        <trkpt lat="29.3639728" lon="103.01842"><ele>2432.52</ele><time>2026-05-23T16:03:32.000Z</time></trkpt>
        <trkpt lat="29.3639552" lon="103.0185362"><ele>2433.81</ele><time>2026-05-23T16:03:46.000Z</time></trkpt>
        <trkpt lat="29.3639418" lon="103.0186477"><ele>2435.43</ele><time>2026-05-23T16:03:56.000Z</time></trkpt>
        <trkpt lat="29.3639106" lon="103.0187601"><ele>2436.15</ele><time>2026-05-23T16:04:06.000Z</time></trkpt>
        <trkpt lat="29.3638734" lon="103.0188604"><ele>2437.24</ele><time>2026-05-23T16:04:14.000Z</time></trkpt>
        <trkpt lat="29.3638595" lon="103.0189666"><ele>2437.92</ele><time>2026-05-23T16:04:26.000Z</time></trkpt>
        <trkpt lat="29.3638529" lon="103.0190812"><ele>2438.42</ele><time>2026-05-23T16:04:56.000Z</time></trkpt>
        <trkpt lat="29.3638207" lon="103.0191792"><ele>2438.65</ele><time>2026-05-23T16:05:06.000Z</time></trkpt>
        <trkpt lat="29.3637891" lon="103.0192769"><ele>2438.82</ele><time>2026-05-23T16:05:16.000Z</time></trkpt>
        <trkpt lat="29.3637513" lon="103.0193909"><ele>2439.03</ele><time>2026-05-23T16:05:26.000Z</time></trkpt>
        <trkpt lat="29.3636983" lon="103.0194927"><ele>2438.57</ele><time>2026-05-23T16:05:36.000Z</time></trkpt>
        <trkpt lat="29.3636398" lon="103.0195883"><ele>2438.1</ele><time>2026-05-23T16:05:44.000Z</time></trkpt>
        <trkpt lat="29.3635696" lon="103.0196763"><ele>2438.03</ele><time>2026-05-23T16:05:54.000Z</time></trkpt>
        <trkpt lat="29.3634845" lon="103.0197571"><ele>2438.36</ele><time>2026-05-23T16:06:04.000Z</time></trkpt>
        <trkpt lat="29.363376" lon="103.0197777"><ele>2438.78</ele><time>2026-05-23T16:06:14.000Z</time></trkpt>
        <trkpt lat="29.3632653" lon="103.0197585"><ele>2438.92</ele><time>2026-05-23T16:06:24.000Z</time></trkpt>
        <trkpt lat="29.3631673" lon="103.0197047"><ele>2438.49</ele><time>2026-05-23T16:06:34.000Z</time></trkpt>
        <trkpt lat="29.3631208" lon="103.0196063"><ele>2438.71</ele><time>2026-05-23T16:06:45.000Z</time></trkpt>
        <trkpt lat="29.3631239" lon="103.019487"><ele>2439.96</ele><time>2026-05-23T16:06:59.000Z</time></trkpt>
        <trkpt lat="29.3631389" lon="103.0193592"><ele>2440.21</ele><time>2026-05-23T16:07:07.000Z</time></trkpt>
        <trkpt lat="29.3631571" lon="103.0192398"><ele>2440.74</ele><time>2026-05-23T16:07:15.000Z</time></trkpt>
        <trkpt lat="29.3631589" lon="103.0191277"><ele>2441.37</ele><time>2026-05-23T16:07:23.000Z</time></trkpt>
        <trkpt lat="29.363133" lon="103.019016"><ele>2441.82</ele><time>2026-05-23T16:07:35.000Z</time></trkpt>
        <trkpt lat="29.3630872" lon="103.0189245"><ele>2442.97</ele><time>2026-05-23T16:07:49.000Z</time></trkpt>
        <trkpt lat="29.3629935" lon="103.0188889"><ele>2444.06</ele><time>2026-05-23T16:08:07.000Z</time></trkpt>
        <trkpt lat="29.3629266" lon="103.0188832"><ele>2444.64</ele><time>2026-05-23T16:08:17.000Z</time></trkpt>
        <trkpt lat="29.3628517" lon="103.0189386"><ele>2445.23</ele><time>2026-05-23T16:09:11.000Z</time></trkpt>
        <trkpt lat="29.3628296" lon="103.0189606"><ele>2444.78</ele><time>2026-05-23T16:09:13.000Z</time></trkpt>
        <trkpt lat="29.3627882" lon="103.01903"><ele>2444.5</ele><time>2026-05-23T16:09:41.000Z</time></trkpt>
        <trkpt lat="29.3627192" lon="103.0189991"><ele>2443.69</ele><time>2026-05-23T16:09:59.000Z</time></trkpt>
        <trkpt lat="29.362631" lon="103.0190233"><ele>2444.82</ele><time>2026-05-23T16:10:13.000Z</time></trkpt>
        <trkpt lat="29.3625956" lon="103.0190426"><ele>2443.98</ele><time>2026-05-23T16:10:17.000Z</time></trkpt>
        <trkpt lat="29.3625409" lon="103.0190999"><ele>2444.23</ele><time>2026-05-23T16:10:29.000Z</time></trkpt>
        <trkpt lat="29.3625166" lon="103.0191309"><ele>2444.77</ele><time>2026-05-23T16:10:33.000Z</time></trkpt>
        <trkpt lat="29.3624474" lon="103.019114"><ele>2445.1</ele><time>2026-05-23T16:10:53.000Z</time></trkpt>
        <trkpt lat="29.3623967" lon="103.0190926"><ele>2446.03</ele><time>2026-05-23T16:11:03.000Z</time></trkpt>
        <trkpt lat="29.3623288" lon="103.0191306"><ele>2445.9</ele><time>2026-05-23T16:11:23.000Z</time></trkpt>
        <trkpt lat="29.3622352" lon="103.0191567"><ele>2444.71</ele><time>2026-05-23T16:11:39.000Z</time></trkpt>
        <trkpt lat="29.3621426" lon="103.0192095"><ele>2444.65</ele><time>2026-05-23T16:11:59.000Z</time></trkpt>
        <trkpt lat="29.3620485" lon="103.0192311"><ele>2443.2</ele><time>2026-05-23T16:12:23.000Z</time></trkpt>
        <trkpt lat="29.361979" lon="103.0192928"><ele>2445.01</ele><time>2026-05-23T16:12:43.000Z</time></trkpt>
        <trkpt lat="29.3619156" lon="103.01937"><ele>2446.59</ele><time>2026-05-23T16:13:01.000Z</time></trkpt>
        <trkpt lat="29.3618387" lon="103.0193522"><ele>2448.07</ele><time>2026-05-23T16:13:29.000Z</time></trkpt>
        <trkpt lat="29.3617473" lon="103.0193513"><ele>2451.38</ele><time>2026-05-23T16:13:53.000Z</time></trkpt>
        <trkpt lat="29.3616539" lon="103.0193327"><ele>2453.97</ele><time>2026-05-23T16:14:19.000Z</time></trkpt>
        <trkpt lat="29.3615614" lon="103.0193059"><ele>2458.29</ele><time>2026-05-23T16:14:51.000Z</time></trkpt>
        <trkpt lat="29.3614693" lon="103.0192982"><ele>2461.2</ele><time>2026-05-23T16:15:17.000Z</time></trkpt>
        <trkpt lat="29.3613803" lon="103.0193202"><ele>2464.83</ele><time>2026-05-23T16:15:53.000Z</time></trkpt>
        <trkpt lat="29.3612951" lon="103.0193022"><ele>2468.33</ele><time>2026-05-23T16:16:51.000Z</time></trkpt>
        <trkpt lat="29.3612037" lon="103.0193087"><ele>2474.06</ele><time>2026-05-23T16:17:15.000Z</time></trkpt>
        <trkpt lat="29.3611112" lon="103.0193176"><ele>2477.84</ele><time>2026-05-23T16:18:11.000Z</time></trkpt>
        <trkpt lat="29.3610182" lon="103.0193446"><ele>2481.84</ele><time>2026-05-23T16:18:49.000Z</time></trkpt>
        <trkpt lat="29.3609237" lon="103.0193696"><ele>2486.9</ele><time>2026-05-23T16:19:17.000Z</time></trkpt>
        <trkpt lat="29.3608316" lon="103.0193983"><ele>2492.16</ele><time>2026-05-23T16:19:33.000Z</time></trkpt>
        <trkpt lat="29.3607351" lon="103.0194245"><ele>2495.17</ele><time>2026-05-23T16:19:59.000Z</time></trkpt>
        <trkpt lat="29.3606349" lon="103.0194528"><ele>2498.16</ele><time>2026-05-23T16:20:17.000Z</time></trkpt>
        <trkpt lat="29.3605497" lon="103.0195007"><ele>2502.2</ele><time>2026-05-23T16:20:31.000Z</time></trkpt>
        <trkpt lat="29.360498" lon="103.0195906"><ele>2505.92</ele><time>2026-05-23T16:20:47.000Z</time></trkpt>
        <trkpt lat="29.3604252" lon="103.0196434"><ele>2509.51</ele><time>2026-05-23T16:21:03.000Z</time></trkpt>
        <trkpt lat="29.3603318" lon="103.0196505"><ele>2512.5</ele><time>2026-05-23T16:21:41.000Z</time></trkpt>
        <trkpt lat="29.3602487" lon="103.0195946"><ele>2516.13</ele><time>2026-05-23T16:22:07.000Z</time></trkpt>
        <trkpt lat="29.3601646" lon="103.019506"><ele>2520.28</ele><time>2026-05-23T16:23:25.000Z</time></trkpt>
        <trkpt lat="29.3600717" lon="103.0194949"><ele>2525.25</ele><time>2026-05-23T16:23:53.000Z</time></trkpt>
        <trkpt lat="29.3599824" lon="103.0195312"><ele>2531.96</ele><time>2026-05-23T16:24:13.000Z</time></trkpt>
        <trkpt lat="29.3598903" lon="103.0195261"><ele>2536.37</ele><time>2026-05-23T16:25:21.000Z</time></trkpt>
        <trkpt lat="29.35981" lon="103.0195759"><ele>2540.83</ele><time>2026-05-23T16:26:43.000Z</time></trkpt>
        <trkpt lat="29.3597434" lon="103.0196643"><ele>2546.96</ele><time>2026-05-23T16:27:23.000Z</time></trkpt>
        <trkpt lat="29.3596602" lon="103.0197029"><ele>2552.33</ele><time>2026-05-23T16:28:03.000Z</time></trkpt>
        <trkpt lat="29.3595807" lon="103.019762"><ele>2557.89</ele><time>2026-05-23T16:28:33.000Z</time></trkpt>
        <trkpt lat="29.3595162" lon="103.0198428"><ele>2563.35</ele><time>2026-05-23T16:28:55.000Z</time></trkpt>
        <trkpt lat="29.3594324" lon="103.0198753"><ele>2567.03</ele><time>2026-05-23T16:30:05.000Z</time></trkpt>
        <trkpt lat="29.3593531" lon="103.0198088"><ele>2570.56</ele><time>2026-05-23T16:31:57.000Z</time></trkpt>
        <trkpt lat="29.3592969" lon="103.0197283"><ele>2577.05</ele><time>2026-05-23T16:32:53.000Z</time></trkpt>
        <trkpt lat="29.3593114" lon="103.0196253"><ele>2581.88</ele><time>2026-05-23T16:35:47.000Z</time></trkpt>
        <trkpt lat="29.3592065" lon="103.0196224"><ele>2590.56</ele><time>2026-05-23T16:36:03.000Z</time></trkpt>
        <trkpt lat="29.3591263" lon="103.0196865"><ele>2596.05</ele><time>2026-05-23T16:36:19.000Z</time></trkpt>
        <trkpt lat="29.3590319" lon="103.019718"><ele>2598.22</ele><time>2026-05-23T16:36:51.000Z</time></trkpt>
        <trkpt lat="29.3589407" lon="103.0197327"><ele>2602.75</ele><time>2026-05-23T16:37:25.000Z</time></trkpt>
        <trkpt lat="29.3588437" lon="103.0197327"><ele>2607.93</ele><time>2026-05-23T16:38:11.000Z</time></trkpt>
        <trkpt lat="29.3587537" lon="103.019768"><ele>2611.39</ele><time>2026-05-23T16:38:39.000Z</time></trkpt>
        <trkpt lat="29.3586656" lon="103.0197642"><ele>2616.08</ele><time>2026-05-23T16:39:45.000Z</time></trkpt>
        <trkpt lat="29.3586325" lon="103.0197987"><ele>2621.75</ele><time>2026-05-23T16:39:55.000Z</time></trkpt>
        <trkpt lat="29.3585799" lon="103.0198904"><ele>2626.4</ele><time>2026-05-23T16:41:17.000Z</time></trkpt>
        <trkpt lat="29.3584828" lon="103.0198971"><ele>2632.92</ele><time>2026-05-23T16:41:39.000Z</time></trkpt>
        <trkpt lat="29.3584129" lon="103.0198328"><ele>2637.41</ele><time>2026-05-23T16:42:07.000Z</time></trkpt>
        <trkpt lat="29.3583537" lon="103.0198814"><ele>2643.37</ele><time>2026-05-23T16:42:43.000Z</time></trkpt>
        <trkpt lat="29.3582831" lon="103.019944"><ele>2648.81</ele><time>2026-05-23T16:43:23.000Z</time></trkpt>
        <trkpt lat="29.3582217" lon="103.0198688"><ele>2653.2</ele><time>2026-05-23T16:44:33.000Z</time></trkpt>
        <trkpt lat="29.3582818" lon="103.0197905"><ele>2660.05</ele><time>2026-05-23T16:48:03.000Z</time></trkpt>
        <trkpt lat="29.358328" lon="103.0196924"><ele>2668.51</ele><time>2026-05-23T16:49:25.000Z</time></trkpt>
        <trkpt lat="29.3583117" lon="103.0195862"><ele>2674.51</ele><time>2026-05-23T16:50:29.000Z</time></trkpt>
        <trkpt lat="29.3583162" lon="103.0195853"><ele>2681.04</ele><time>2026-05-23T16:50:31.000Z</time></trkpt>
        <trkpt lat="29.3583661" lon="103.019509"><ele>2684.99</ele><time>2026-05-23T16:50:59.000Z</time></trkpt>
        <trkpt lat="29.3583867" lon="103.0194765"><ele>2687.85</ele><time>2026-05-23T16:51:03.000Z</time></trkpt>
        <trkpt lat="29.358464" lon="103.0194797"><ele>2690.22</ele><time>2026-05-23T16:51:21.000Z</time></trkpt>
        <trkpt lat="29.3585225" lon="103.0194795"><ele>2692.18</ele><time>2026-05-23T16:51:29.000Z</time></trkpt>
        <trkpt lat="29.3585971" lon="103.0194106"><ele>2693.86</ele><time>2026-05-23T16:52:31.000Z</time></trkpt>
        <trkpt lat="29.3586048" lon="103.0193046"><ele>2694.33</ele><time>2026-05-23T16:52:49.000Z</time></trkpt>
        <trkpt lat="29.3586128" lon="103.0191978"><ele>2695.98</ele><time>2026-05-23T16:53:39.000Z</time></trkpt>
        <trkpt lat="29.3585449" lon="103.0191732"><ele>2699</ele><time>2026-05-23T16:54:35.000Z</time></trkpt>
        <trkpt lat="29.3584871" lon="103.0192437"><ele>2702.3</ele><time>2026-05-23T16:54:51.000Z</time></trkpt>
        <trkpt lat="29.3584596" lon="103.0191838"><ele>2705.88</ele><time>2026-05-23T16:57:03.000Z</time></trkpt>
        <trkpt lat="29.358426" lon="103.0191844"><ele>2711.33</ele><time>2026-05-23T16:57:31.000Z</time></trkpt>
        <trkpt lat="29.3583826" lon="103.0190935"><ele>2716.63</ele><time>2026-05-23T16:58:51.000Z</time></trkpt>
        <trkpt lat="29.3582893" lon="103.0190952"><ele>2723.59</ele><time>2026-05-23T17:00:03.000Z</time></trkpt>
        <trkpt lat="29.3582332" lon="103.0190017"><ele>2731.83</ele><time>2026-05-23T17:02:09.000Z</time></trkpt>
        <trkpt lat="29.3581464" lon="103.0190526"><ele>2738.07</ele><time>2026-05-23T17:03:57.000Z</time></trkpt>
        <trkpt lat="29.3581769" lon="103.0189467"><ele>2744.78</ele><time>2026-05-23T17:05:15.000Z</time></trkpt>
        <trkpt lat="29.3582495" lon="103.0188585"><ele>2749.75</ele><time>2026-05-23T17:05:53.000Z</time></trkpt>
        <trkpt lat="29.3583145" lon="103.0187775"><ele>2754.69</ele><time>2026-05-23T17:06:25.000Z</time></trkpt>
        <trkpt lat="29.3583618" lon="103.0186861"><ele>2760.37</ele><time>2026-05-23T17:06:53.000Z</time></trkpt>
        <trkpt lat="29.3583875" lon="103.0185771"><ele>2764.05</ele><time>2026-05-23T17:08:15.000Z</time></trkpt>
        <trkpt lat="29.3584039" lon="103.0184747"><ele>2767.71</ele><time>2026-05-23T17:09:31.000Z</time></trkpt>
        <trkpt lat="29.3583061" lon="103.01851"><ele>2772.08</ele><time>2026-05-23T17:09:59.000Z</time></trkpt>
        <trkpt lat="29.3582107" lon="103.0185087"><ele>2778.7</ele><time>2026-05-23T17:10:47.000Z</time></trkpt>
        <trkpt lat="29.3581255" lon="103.01854"><ele>2783.41</ele><time>2026-05-23T17:17:26.000Z</time></trkpt>
        <trkpt lat="29.3580327" lon="103.0185085"><ele>2790.89</ele><time>2026-05-23T17:18:04.000Z</time></trkpt>
        <trkpt lat="29.3579707" lon="103.018586"><ele>2795.96</ele><time>2026-05-23T17:18:28.000Z</time></trkpt>
        <trkpt lat="29.3578956" lon="103.018655"><ele>2800.6</ele><time>2026-05-23T17:19:38.000Z</time></trkpt>
        <trkpt lat="29.3578416" lon="103.0187468"><ele>2806.74</ele><time>2026-05-23T17:20:32.000Z</time></trkpt>
        <trkpt lat="29.3577571" lon="103.0187092"><ele>2814.7</ele><time>2026-05-23T17:21:34.000Z</time></trkpt>
        <trkpt lat="29.3577695" lon="103.0185989"><ele>2819.8</ele><time>2026-05-23T17:22:04.000Z</time></trkpt>
        <trkpt lat="29.3576938" lon="103.0185404"><ele>2824.87</ele><time>2026-05-23T17:23:26.000Z</time></trkpt>
        <trkpt lat="29.3576259" lon="103.0186324"><ele>2832.66</ele><time>2026-05-23T17:24:24.000Z</time></trkpt>
        <trkpt lat="29.3576089" lon="103.0185296"><ele>2837.8</ele><time>2026-05-23T17:31:29.000Z</time></trkpt>
        <trkpt lat="29.3575281" lon="103.0185826"><ele>2846.08</ele><time>2026-05-23T17:32:17.000Z</time></trkpt>
        <trkpt lat="29.3574355" lon="103.0185955"><ele>2853.65</ele><time>2026-05-23T17:33:49.000Z</time></trkpt>
        <trkpt lat="29.3573518" lon="103.01864"><ele>2861.08</ele><time>2026-05-23T17:34:37.000Z</time></trkpt>
        <trkpt lat="29.3572757" lon="103.0186254"><ele>2866.34</ele><time>2026-05-23T17:35:19.000Z</time></trkpt>
        <trkpt lat="29.3572258" lon="103.018701"><ele>2873.7</ele><time>2026-05-23T17:36:33.000Z</time></trkpt>
        <trkpt lat="29.3571438" lon="103.018754"><ele>2882.33</ele><time>2026-05-23T17:38:07.000Z</time></trkpt>
        <trkpt lat="29.3571018" lon="103.018858"><ele>2890.74</ele><time>2026-05-23T17:39:23.000Z</time></trkpt>
        <trkpt lat="29.3570096" lon="103.0188775"><ele>2898.57</ele><time>2026-05-23T17:44:33.000Z</time></trkpt>
        <trkpt lat="29.3570263" lon="103.0189013"><ele>2903.87</ele><time>2026-05-23T17:44:37.000Z</time></trkpt>
        <trkpt lat="29.3569866" lon="103.019003"><ele>2906.03</ele><time>2026-05-23T17:45:53.000Z</time></trkpt>
        <trkpt lat="29.3568951" lon="103.019006"><ele>2905.11</ele><time>2026-05-23T17:46:49.000Z</time></trkpt>
        <trkpt lat="29.3569007" lon="103.0190921"><ele>2910.83</ele><time>2026-05-23T17:47:15.000Z</time></trkpt>
        <trkpt lat="29.356874" lon="103.0191895"><ele>2915.41</ele><time>2026-05-23T17:47:49.000Z</time></trkpt>
        <trkpt lat="29.3568067" lon="103.019268"><ele>2918.5</ele><time>2026-05-23T17:48:19.000Z</time></trkpt>
        <trkpt lat="29.356733" lon="103.0193528"><ele>2921.96</ele><time>2026-05-23T17:48:47.000Z</time></trkpt>
        <trkpt lat="29.3566833" lon="103.019447"><ele>2925.1</ele><time>2026-05-23T17:49:01.000Z</time></trkpt>
        <trkpt lat="29.3566445" lon="103.0195433"><ele>2926.68</ele><time>2026-05-23T17:49:15.000Z</time></trkpt>
        <trkpt lat="29.3565776" lon="103.0196305"><ele>2928.23</ele><time>2026-05-23T17:50:09.000Z</time></trkpt>
        <trkpt lat="29.3565538" lon="103.0197353"><ele>2931.95</ele><time>2026-05-23T17:51:11.000Z</time></trkpt>
        <trkpt lat="29.3564949" lon="103.0198271"><ele>2935.44</ele><time>2026-05-23T18:00:41.000Z</time></trkpt>
        <trkpt lat="29.3564898" lon="103.0198273"><ele>2935.94</ele><time>2026-05-23T18:00:43.000Z</time></trkpt>
        <trkpt lat="29.356452" lon="103.0199246"><ele>2936.32</ele><time>2026-05-23T18:02:01.000Z</time></trkpt>
        <trkpt lat="29.3563655" lon="103.0199554"><ele>2942.24</ele><time>2026-05-23T18:02:21.000Z</time></trkpt>
        <trkpt lat="29.3563242" lon="103.0199719"><ele>2946.18</ele><time>2026-05-23T18:02:27.000Z</time></trkpt>
        <trkpt lat="29.3562545" lon="103.0200165"><ele>2948.95</ele><time>2026-05-23T18:02:49.000Z</time></trkpt>
        <trkpt lat="29.3561625" lon="103.0200697"><ele>2951.3</ele><time>2026-05-23T18:04:31.000Z</time></trkpt>
        <trkpt lat="29.3560648" lon="103.0200568"><ele>2952.02</ele><time>2026-05-23T18:04:41.000Z</time></trkpt>
        <trkpt lat="29.3560455" lon="103.0200552"><ele>2952.62</ele><time>2026-05-23T18:04:43.000Z</time></trkpt>
        <trkpt lat="29.3559917" lon="103.0201385"><ele>2952.97</ele><time>2026-05-23T18:11:34.000Z</time></trkpt>
        <trkpt lat="29.3558956" lon="103.0201814"><ele>2952.24</ele><time>2026-05-23T18:11:44.000Z</time></trkpt>
        <trkpt lat="29.3557953" lon="103.0202248"><ele>2951.36</ele><time>2026-05-23T18:12:00.000Z</time></trkpt>
        <trkpt lat="29.3556991" lon="103.0202412"><ele>2951.58</ele><time>2026-05-23T18:12:26.000Z</time></trkpt>
        <trkpt lat="29.3556458" lon="103.0203134"><ele>2954.43</ele><time>2026-05-23T18:12:44.000Z</time></trkpt>
        <trkpt lat="29.3555702" lon="103.0203247"><ele>2957.18</ele><time>2026-05-23T18:13:12.000Z</time></trkpt>
        <trkpt lat="29.3554983" lon="103.0203707"><ele>2960.83</ele><time>2026-05-23T18:13:40.000Z</time></trkpt>
        <trkpt lat="29.3554175" lon="103.0203473"><ele>2965.18</ele><time>2026-05-23T18:14:16.000Z</time></trkpt>
        <trkpt lat="29.3553276" lon="103.0203205"><ele>2968.11</ele><time>2026-05-23T18:14:28.000Z</time></trkpt>
        <trkpt lat="29.3552292" lon="103.0202935"><ele>2968.47</ele><time>2026-05-23T18:14:42.000Z</time></trkpt>
        <trkpt lat="29.3551449" lon="103.0202834"><ele>2968.9</ele><time>2026-05-23T18:14:56.000Z</time></trkpt>
        <trkpt lat="29.355086" lon="103.0203524"><ele>2969.28</ele><time>2026-05-23T18:15:54.000Z</time></trkpt>
        <trkpt lat="29.355069" lon="103.0203807"><ele>2970.58</ele><time>2026-05-23T18:15:56.000Z</time></trkpt>
        <trkpt lat="29.3550052" lon="103.0203727"><ele>2971.29</ele><time>2026-05-23T18:16:06.000Z</time></trkpt>
        <trkpt lat="29.3549245" lon="103.0203372"><ele>2972.3</ele><time>2026-05-23T18:16:26.000Z</time></trkpt>
        <trkpt lat="29.3549371" lon="103.0202217"><ele>2973.34</ele><time>2026-05-23T18:18:20.000Z</time></trkpt>
        <trkpt lat="29.3548437" lon="103.0202494"><ele>2971.23</ele><time>2026-05-23T18:18:42.000Z</time></trkpt>
        <trkpt lat="29.3547442" lon="103.020262"><ele>2971.84</ele><time>2026-05-23T18:19:20.000Z</time></trkpt>
        <trkpt lat="29.3546406" lon="103.0202249"><ele>2974.41</ele><time>2026-05-23T18:25:06.000Z</time></trkpt>
        <trkpt lat="29.3545458" lon="103.0202176"><ele>2976.9</ele><time>2026-05-23T18:25:14.000Z</time></trkpt>
        <trkpt lat="29.3544552" lon="103.020193"><ele>2978.76</ele><time>2026-05-23T18:25:28.000Z</time></trkpt>
        <trkpt lat="29.3543933" lon="103.0201881"><ele>2980.73</ele><time>2026-05-23T18:25:36.000Z</time></trkpt>
        <trkpt lat="29.3543192" lon="103.0202289"><ele>2981.49</ele><time>2026-05-23T18:26:28.000Z</time></trkpt>
        <trkpt lat="29.3543051" lon="103.0202409"><ele>2980.72</ele><time>2026-05-23T18:26:32.000Z</time></trkpt>
        <trkpt lat="29.3542314" lon="103.0202421"><ele>2980.88</ele><time>2026-05-23T18:26:56.000Z</time></trkpt>
        <trkpt lat="29.3541336" lon="103.0202636"><ele>2984.91</ele><time>2026-05-23T18:27:57.000Z</time></trkpt>
        <trkpt lat="29.3540432" lon="103.020219"><ele>2989.72</ele><time>2026-05-23T18:28:11.000Z</time></trkpt>
        <trkpt lat="29.3539613" lon="103.0201713"><ele>2993.55</ele><time>2026-05-23T18:28:25.000Z</time></trkpt>
        <trkpt lat="29.3539076" lon="103.0200738"><ele>2996.22</ele><time>2026-05-23T18:28:51.000Z</time></trkpt>
        <trkpt lat="29.3538543" lon="103.019984"><ele>2998.39</ele><time>2026-05-23T18:29:09.000Z</time></trkpt>
        <trkpt lat="29.3538228" lon="103.019968"><ele>3000.77</ele><time>2026-05-23T18:29:15.000Z</time></trkpt>
        <trkpt lat="29.3537457" lon="103.0199523"><ele>3002.78</ele><time>2026-05-23T18:30:51.000Z</time></trkpt>
        <trkpt lat="29.3536845" lon="103.0198712"><ele>3005.5</ele><time>2026-05-23T18:31:13.000Z</time></trkpt>
        <trkpt lat="29.3536037" lon="103.0198172"><ele>3008.9</ele><time>2026-05-23T18:31:39.000Z</time></trkpt>
        <trkpt lat="29.3535062" lon="103.0198137"><ele>3012.11</ele><time>2026-05-23T18:32:05.000Z</time></trkpt>
        <trkpt lat="29.3534538" lon="103.0198115"><ele>3016.1</ele><time>2026-05-23T18:32:13.000Z</time></trkpt>
        <trkpt lat="29.3534204" lon="103.0197392"><ele>3018.42</ele><time>2026-05-23T18:33:11.000Z</time></trkpt>
        <trkpt lat="29.353412" lon="103.0196135"><ele>3023.15</ele><time>2026-05-23T18:34:54.000Z</time></trkpt>
        <trkpt lat="29.353404" lon="103.0195907"><ele>3029.87</ele><time>2026-05-23T18:35:02.000Z</time></trkpt>
        <trkpt lat="29.3533526" lon="103.0195049"><ele>3034.66</ele><time>2026-05-23T18:36:54.000Z</time></trkpt>
        <trkpt lat="29.3532624" lon="103.0194711"><ele>3040.77</ele><time>2026-05-23T18:45:04.000Z</time></trkpt>
        <trkpt lat="29.3532336" lon="103.0195734"><ele>3046.6</ele><time>2026-05-23T18:47:30.000Z</time></trkpt>
        <trkpt lat="29.3531739" lon="103.0196539"><ele>3052.29</ele><time>2026-05-23T18:47:47.000Z</time></trkpt>
        <trkpt lat="29.3531145" lon="103.0195998"><ele>3058.39</ele><time>2026-05-23T18:48:07.000Z</time></trkpt>
        <trkpt lat="29.3530259" lon="103.0195482"><ele>3062.19</ele><time>2026-05-23T18:49:45.000Z</time></trkpt>
        <trkpt lat="29.3530531" lon="103.0194451"><ele>3068.12</ele><time>2026-05-23T18:50:33.000Z</time></trkpt>
        <trkpt lat="29.3530178" lon="103.0193517"><ele>3074.01</ele><time>2026-05-23T18:51:17.000Z</time></trkpt>
        <trkpt lat="29.3529345" lon="103.0193205"><ele>3080.22</ele><time>2026-05-23T18:51:49.000Z</time></trkpt>
        <trkpt lat="29.3528463" lon="103.0192675"><ele>3085.51</ele><time>2026-05-23T18:53:23.000Z</time></trkpt>
        <trkpt lat="29.3527503" lon="103.0192781"><ele>3092.89</ele><time>2026-05-23T18:56:39.000Z</time></trkpt>
        <trkpt lat="29.352652" lon="103.0192597"><ele>3100.24</ele><time>2026-05-23T19:03:32.000Z</time></trkpt>
        <trkpt lat="29.352564" lon="103.0192905"><ele>3110.24</ele><time>2026-05-23T19:04:24.000Z</time></trkpt>
        <trkpt lat="29.3525034" lon="103.0192547"><ele>3120.88</ele><time>2026-05-23T19:04:46.000Z</time></trkpt>
        <trkpt lat="29.3524204" lon="103.019249"><ele>3128.28</ele><time>2026-05-23T19:05:34.000Z</time></trkpt>
        <trkpt lat="29.3523475" lon="103.0193414"><ele>3134.82</ele><time>2026-05-23T19:06:58.000Z</time></trkpt>
        <trkpt lat="29.3522865" lon="103.0194206"><ele>3141.34</ele><time>2026-05-23T19:07:06.000Z</time></trkpt>
        <trkpt lat="29.3522042" lon="103.019474"><ele>3145.17</ele><time>2026-05-23T19:07:20.000Z</time></trkpt>
        <trkpt lat="29.352153" lon="103.0194924"><ele>3148.7</ele><time>2026-05-23T19:07:28.000Z</time></trkpt>
        <trkpt lat="29.3520746" lon="103.0195349"><ele>3151.91</ele><time>2026-05-23T19:08:22.000Z</time></trkpt>
        <trkpt lat="29.3520412" lon="103.0195842"><ele>3154.13</ele><time>2026-05-23T19:08:30.000Z</time></trkpt>
        <trkpt lat="29.3519655" lon="103.0196101"><ele>3157.47</ele><time>2026-05-23T19:09:06.000Z</time></trkpt>
        <trkpt lat="29.3518838" lon="103.019665"><ele>3159.63</ele><time>2026-05-23T19:09:26.000Z</time></trkpt>
        <trkpt lat="29.3517848" lon="103.0196893"><ele>3162.76</ele><time>2026-05-23T19:09:40.000Z</time></trkpt>
        <trkpt lat="29.3516892" lon="103.0196851"><ele>3166.3</ele><time>2026-05-23T19:10:14.000Z</time></trkpt>
        <trkpt lat="29.351593" lon="103.0196919"><ele>3168.84</ele><time>2026-05-23T19:11:56.000Z</time></trkpt>
        <trkpt lat="29.351497" lon="103.0197355"><ele>3170.92</ele><time>2026-05-23T19:12:19.000Z</time></trkpt>
        <trkpt lat="29.3513159" lon="103.0198139"><ele>3170.75</ele><time>2026-05-23T19:12:31.000Z</time></trkpt>
        <trkpt lat="29.3512144" lon="103.0198852"><ele>3171.1</ele><time>2026-05-23T19:12:43.000Z</time></trkpt>
        <trkpt lat="29.3511296" lon="103.0199687"><ele>3172.4</ele><time>2026-05-23T19:13:03.000Z</time></trkpt>
        <trkpt lat="29.3510554" lon="103.0200499"><ele>3172.64</ele><time>2026-05-23T19:13:09.000Z</time></trkpt>
        <trkpt lat="29.350988" lon="103.0201225"><ele>3172.2</ele><time>2026-05-23T19:13:19.000Z</time></trkpt>
        <trkpt lat="29.3509074" lon="103.0201773"><ele>3172.84</ele><time>2026-05-23T19:13:29.000Z</time></trkpt>
        <trkpt lat="29.3508183" lon="103.0202306"><ele>3172.74</ele><time>2026-05-23T19:13:39.000Z</time></trkpt>
        <trkpt lat="29.3507533" lon="103.0203115"><ele>3173.07</ele><time>2026-05-23T19:13:47.000Z</time></trkpt>
        <trkpt lat="29.3507108" lon="103.0204064"><ele>3173.43</ele><time>2026-05-23T19:14:01.000Z</time></trkpt>
        <trkpt lat="29.3506805" lon="103.020517"><ele>3172.26</ele><time>2026-05-23T19:14:13.000Z</time></trkpt>
        <trkpt lat="29.350644" lon="103.0206272"><ele>3171.76</ele><time>2026-05-23T19:14:21.000Z</time></trkpt>
        <trkpt lat="29.3505664" lon="103.0206853"><ele>3172.22</ele><time>2026-05-23T19:14:29.000Z</time></trkpt>
        <trkpt lat="29.3504681" lon="103.020737"><ele>3172.22</ele><time>2026-05-23T19:14:39.000Z</time></trkpt>
        <trkpt lat="29.3503677" lon="103.0207759"><ele>3172</ele><time>2026-05-23T19:14:47.000Z</time></trkpt>
        <trkpt lat="29.3502871" lon="103.0208325"><ele>3171.28</ele><time>2026-05-23T19:14:55.000Z</time></trkpt>
        <trkpt lat="29.3502368" lon="103.0209193"><ele>3170.66</ele><time>2026-05-23T19:15:03.000Z</time></trkpt>
        <trkpt lat="29.3501944" lon="103.0210308"><ele>3169.68</ele><time>2026-05-23T19:15:13.000Z</time></trkpt>
        <trkpt lat="29.3501449" lon="103.0211318"><ele>3168.99</ele><time>2026-05-23T19:15:23.000Z</time></trkpt>
        <trkpt lat="29.3500538" lon="103.0212188"><ele>3169.72</ele><time>2026-05-23T19:15:31.000Z</time></trkpt>
        <trkpt lat="29.3500424" lon="103.0213341"><ele>3170.42</ele><time>2026-05-23T19:15:37.000Z</time></trkpt>
        <trkpt lat="29.3501019" lon="103.0214441"><ele>3169.91</ele><time>2026-05-23T19:15:43.000Z</time></trkpt>
        <trkpt lat="29.3501472" lon="103.0215616"><ele>3168.85</ele><time>2026-05-23T19:15:51.000Z</time></trkpt>
        <trkpt lat="29.3502253" lon="103.0216413"><ele>3168</ele><time>2026-05-23T19:16:01.000Z</time></trkpt>
        <trkpt lat="29.3502424" lon="103.0216316"><ele>3167.29</ele><time>2026-05-23T19:16:05.000Z</time></trkpt>
        <trkpt lat="29.3501507" lon="103.021645"><ele>3166.97</ele><time>2026-05-23T19:20:10.000Z</time></trkpt>
        <trkpt lat="29.3500602" lon="103.0216303"><ele>3166.67</ele><time>2026-05-23T19:20:32.000Z</time></trkpt>
        <trkpt lat="29.3499716" lon="103.0216545"><ele>3166.84</ele><time>2026-05-23T19:20:38.000Z</time></trkpt>
        <trkpt lat="29.3498803" lon="103.0216862"><ele>3167.57</ele><time>2026-05-23T19:20:44.000Z</time></trkpt>
        <trkpt lat="29.3498074" lon="103.021769"><ele>3168.06</ele><time>2026-05-23T19:20:54.000Z</time></trkpt>
        <trkpt lat="29.3497645" lon="103.0218821"><ele>3168.72</ele><time>2026-05-23T19:21:04.000Z</time></trkpt>
        <trkpt lat="29.3497412" lon="103.0220073"><ele>3170.36</ele><time>2026-05-23T19:21:16.000Z</time></trkpt>
        <trkpt lat="29.3496949" lon="103.0221196"><ele>3171.2</ele><time>2026-05-23T19:21:26.000Z</time></trkpt>
        <trkpt lat="29.3496918" lon="103.0221971"><ele>3172.53</ele><time>2026-05-23T19:21:34.000Z</time></trkpt>
        <trkpt lat="29.3497067" lon="103.0222966"><ele>3173.46</ele><time>2026-05-23T19:22:20.000Z</time></trkpt>
        <trkpt lat="29.3496477" lon="103.0223692"><ele>3172.66</ele><time>2026-05-23T19:23:16.000Z</time></trkpt>
        <trkpt lat="29.34954" lon="103.0223762"><ele>3171.49</ele><time>2026-05-23T19:24:26.000Z</time></trkpt>
        <trkpt lat="29.3494441" lon="103.0224211"><ele>3172.88</ele><time>2026-05-23T19:24:36.000Z</time></trkpt>
        <trkpt lat="29.3493534" lon="103.0224517"><ele>3174.44</ele><time>2026-05-23T19:24:48.000Z</time></trkpt>
        <trkpt lat="29.3492622" lon="103.0224551"><ele>3175.86</ele><time>2026-05-23T19:24:58.000Z</time></trkpt>
        <trkpt lat="29.3491598" lon="103.0224533"><ele>3176.43</ele><time>2026-05-23T19:25:08.000Z</time></trkpt>
        <trkpt lat="29.349059" lon="103.0224731"><ele>3176.07</ele><time>2026-05-23T19:25:20.000Z</time></trkpt>
        <trkpt lat="29.3489666" lon="103.0225097"><ele>3175.07</ele><time>2026-05-23T19:25:32.000Z</time></trkpt>
        <trkpt lat="29.348874" lon="103.0225362"><ele>3174.48</ele><time>2026-05-23T19:25:44.000Z</time></trkpt>
        <trkpt lat="29.3487977" lon="103.022595"><ele>3175.57</ele><time>2026-05-23T19:25:54.000Z</time></trkpt>
        <trkpt lat="29.3487361" lon="103.0226912"><ele>3175.98</ele><time>2026-05-23T19:26:08.000Z</time></trkpt>
        <trkpt lat="29.3486546" lon="103.0226915"><ele>3176.3</ele><time>2026-05-23T19:26:16.000Z</time></trkpt>
        <trkpt lat="29.3485686" lon="103.022738"><ele>3176.27</ele><time>2026-05-23T19:26:32.000Z</time></trkpt>
        <trkpt lat="29.3484696" lon="103.0227597"><ele>3174.1</ele><time>2026-05-23T19:26:40.000Z</time></trkpt>
        <trkpt lat="29.3483925" lon="103.0226965"><ele>3173.4</ele><time>2026-05-23T19:26:54.000Z</time></trkpt>
        <trkpt lat="29.3483265" lon="103.022612"><ele>3171.78</ele><time>2026-05-23T19:27:06.000Z</time></trkpt>
        <trkpt lat="29.3482462" lon="103.0225446"><ele>3170.8</ele><time>2026-05-23T19:27:30.000Z</time></trkpt>
        <trkpt lat="29.3481593" lon="103.0224994"><ele>3172.34</ele><time>2026-05-23T19:27:44.000Z</time></trkpt>
        <trkpt lat="29.3481041" lon="103.0224595"><ele>3175.53</ele><time>2026-05-23T19:27:52.000Z</time></trkpt>
        <trkpt lat="29.3480574" lon="103.0223721"><ele>3177.62</ele><time>2026-05-23T19:28:08.000Z</time></trkpt>
        <trkpt lat="29.3480844" lon="103.0222761"><ele>3177.91</ele><time>2026-05-23T19:28:18.000Z</time></trkpt>
        <trkpt lat="29.3480892" lon="103.0221652"><ele>3178.24</ele><time>2026-05-23T19:28:36.000Z</time></trkpt>
        <trkpt lat="29.3480963" lon="103.0220554"><ele>3178.78</ele><time>2026-05-23T19:29:00.000Z</time></trkpt>
        <trkpt lat="29.3480706" lon="103.0220137"><ele>3179.25</ele><time>2026-05-23T19:29:06.000Z</time></trkpt>
        <trkpt lat="29.347985" lon="103.0220003"><ele>3179.5</ele><time>2026-05-23T19:29:16.000Z</time></trkpt>
        <trkpt lat="29.3478784" lon="103.0219979"><ele>3180.12</ele><time>2026-05-23T19:29:26.000Z</time></trkpt>
        <trkpt lat="29.3477587" lon="103.0219956"><ele>3181.23</ele><time>2026-05-23T19:29:40.000Z</time></trkpt>
        <trkpt lat="29.3476565" lon="103.0219826"><ele>3180.86</ele><time>2026-05-23T19:29:46.000Z</time></trkpt>
        <trkpt lat="29.3475674" lon="103.0219193"><ele>3179.8</ele><time>2026-05-23T19:29:56.000Z</time></trkpt>
        <trkpt lat="29.3474989" lon="103.0218349"><ele>3178.41</ele><time>2026-05-23T19:30:06.000Z</time></trkpt>
        <trkpt lat="29.3474429" lon="103.0217321"><ele>3177.26</ele><time>2026-05-23T19:30:16.000Z</time></trkpt>
        <trkpt lat="29.3473669" lon="103.0216506"><ele>3175.06</ele><time>2026-05-23T19:30:28.000Z</time></trkpt>
        <trkpt lat="29.3472823" lon="103.0215879"><ele>3172.33</ele><time>2026-05-23T19:30:40.000Z</time></trkpt>
        <trkpt lat="29.3471826" lon="103.021587"><ele>3171.35</ele><time>2026-05-23T19:30:50.000Z</time></trkpt>
        <trkpt lat="29.3470874" lon="103.0215878"><ele>3169.99</ele><time>2026-05-23T19:31:00.000Z</time></trkpt>
        <trkpt lat="29.3469903" lon="103.0215675"><ele>3170.5</ele><time>2026-05-23T19:31:10.000Z</time></trkpt>
        <trkpt lat="29.3468873" lon="103.0215421"><ele>3171.31</ele><time>2026-05-23T19:31:20.000Z</time></trkpt>
        <trkpt lat="29.3467763" lon="103.0215271"><ele>3171.61</ele><time>2026-05-23T19:31:30.000Z</time></trkpt>
        <trkpt lat="29.3466714" lon="103.0215482"><ele>3171.84</ele><time>2026-05-23T19:31:40.000Z</time></trkpt>
        <trkpt lat="29.3465749" lon="103.0215932"><ele>3171.55</ele><time>2026-05-23T19:31:50.000Z</time></trkpt>
        <trkpt lat="29.3465002" lon="103.0216632"><ele>3171.26</ele><time>2026-05-23T19:32:00.000Z</time></trkpt>
        <trkpt lat="29.3464198" lon="103.0217258"><ele>3169.75</ele><time>2026-05-23T19:32:10.000Z</time></trkpt>
        <trkpt lat="29.3463352" lon="103.021766"><ele>3167.78</ele><time>2026-05-23T19:32:20.000Z</time></trkpt>
        <trkpt lat="29.3462375" lon="103.0217977"><ele>3168.11</ele><time>2026-05-23T19:32:32.000Z</time></trkpt>
        <trkpt lat="29.3461415" lon="103.0217894"><ele>3166.77</ele><time>2026-05-23T19:32:42.000Z</time></trkpt>
        <trkpt lat="29.3460444" lon="103.0217657"><ele>3164.23</ele><time>2026-05-23T19:32:54.000Z</time></trkpt>
        <trkpt lat="29.3459609" lon="103.0217978"><ele>3162.2</ele><time>2026-05-23T19:33:06.000Z</time></trkpt>
        <trkpt lat="29.345886" lon="103.021858"><ele>3158.98</ele><time>2026-05-23T19:33:20.000Z</time></trkpt>
        <trkpt lat="29.3458288" lon="103.0219678"><ele>3157.36</ele><time>2026-05-23T19:33:34.000Z</time></trkpt>
        <trkpt lat="29.3457721" lon="103.0220727"><ele>3155.26</ele><time>2026-05-23T19:33:42.000Z</time></trkpt>
        <trkpt lat="29.3456961" lon="103.0221479"><ele>3153.29</ele><time>2026-05-23T19:33:52.000Z</time></trkpt>
        <trkpt lat="29.3456108" lon="103.0222241"><ele>3151.85</ele><time>2026-05-23T19:34:02.000Z</time></trkpt>
        <trkpt lat="29.3455216" lon="103.0222689"><ele>3151.67</ele><time>2026-05-23T19:34:12.000Z</time></trkpt>
        <trkpt lat="29.3454261" lon="103.0223023"><ele>3151.69</ele><time>2026-05-23T19:34:24.000Z</time></trkpt>
        <trkpt lat="29.3453326" lon="103.0223272"><ele>3152.04</ele><time>2026-05-23T19:34:38.000Z</time></trkpt>
        <trkpt lat="29.3452444" lon="103.0223902"><ele>3152.82</ele><time>2026-05-23T19:34:50.000Z</time></trkpt>
        <trkpt lat="29.3451552" lon="103.0224464"><ele>3154.56</ele><time>2026-05-23T19:35:02.000Z</time></trkpt>
        <trkpt lat="29.3450595" lon="103.0224889"><ele>3156.8</ele><time>2026-05-23T19:35:12.000Z</time></trkpt>
        <trkpt lat="29.3449754" lon="103.0225541"><ele>3156.06</ele><time>2026-05-23T19:35:22.000Z</time></trkpt>
        <trkpt lat="29.3449319" lon="103.0226491"><ele>3156.2</ele><time>2026-05-23T19:35:32.000Z</time></trkpt>
        <trkpt lat="29.3448801" lon="103.0227443"><ele>3156.29</ele><time>2026-05-23T19:35:44.000Z</time></trkpt>
        <trkpt lat="29.3448023" lon="103.0228012"><ele>3155.61</ele><time>2026-05-23T19:35:52.000Z</time></trkpt>
        <trkpt lat="29.3447033" lon="103.0228029"><ele>3154.66</ele><time>2026-05-23T19:36:00.000Z</time></trkpt>
        <trkpt lat="29.3445975" lon="103.0228086"><ele>3155.22</ele><time>2026-05-23T19:36:08.000Z</time></trkpt>
        <trkpt lat="29.3445259" lon="103.022867"><ele>3156.33</ele><time>2026-05-23T19:36:16.000Z</time></trkpt>
        <trkpt lat="29.3444364" lon="103.0229157"><ele>3156.72</ele><time>2026-05-23T19:36:26.000Z</time></trkpt>
        <trkpt lat="29.3443412" lon="103.0229333"><ele>3155.52</ele><time>2026-05-23T19:36:34.000Z</time></trkpt>
        <trkpt lat="29.3442411" lon="103.0229138"><ele>3153.63</ele><time>2026-05-23T19:36:42.000Z</time></trkpt>
        <trkpt lat="29.3441389" lon="103.0228912"><ele>3152.05</ele><time>2026-05-23T19:36:50.000Z</time></trkpt>
        <trkpt lat="29.3440765" lon="103.0229609"><ele>3151.81</ele><time>2026-05-23T19:37:00.000Z</time></trkpt>
        <trkpt lat="29.3439961" lon="103.0230375"><ele>3152.33</ele><time>2026-05-23T19:37:12.000Z</time></trkpt>
        <trkpt lat="29.3438991" lon="103.023066"><ele>3152.2</ele><time>2026-05-23T19:37:22.000Z</time></trkpt>
        <trkpt lat="29.3437997" lon="103.023102"><ele>3151.79</ele><time>2026-05-23T19:37:30.000Z</time></trkpt>
        <trkpt lat="29.343696" lon="103.0231457"><ele>3153.16</ele><time>2026-05-23T19:37:40.000Z</time></trkpt>
        <trkpt lat="29.3436027" lon="103.0231936"><ele>3153.97</ele><time>2026-05-23T19:37:50.000Z</time></trkpt>
        <trkpt lat="29.3435411" lon="103.0232819"><ele>3153.64</ele><time>2026-05-23T19:37:58.000Z</time></trkpt>
        <trkpt lat="29.3434935" lon="103.0233762"><ele>3152.22</ele><time>2026-05-23T19:38:06.000Z</time></trkpt>
        <trkpt lat="29.3434207" lon="103.023463"><ele>3151.08</ele><time>2026-05-23T19:38:16.000Z</time></trkpt>
        <trkpt lat="29.3433738" lon="103.0235588"><ele>3151.28</ele><time>2026-05-23T19:38:26.000Z</time></trkpt>
        <trkpt lat="29.3433061" lon="103.0236349"><ele>3151.26</ele><time>2026-05-23T19:38:46.000Z</time></trkpt>
        <trkpt lat="29.3432227" lon="103.023693"><ele>3151.02</ele><time>2026-05-23T19:38:58.000Z</time></trkpt>
        <trkpt lat="29.3432078" lon="103.0237837"><ele>3151.55</ele><time>2026-05-23T19:39:12.000Z</time></trkpt>
        <trkpt lat="29.3432332" lon="103.0238169"><ele>3150.71</ele><time>2026-05-23T19:39:18.000Z</time></trkpt>
        <trkpt lat="29.3432923" lon="103.0238834"><ele>3151</ele><time>2026-05-23T19:39:34.000Z</time></trkpt>
        <trkpt lat="29.3433072" lon="103.0239816"><ele>3152.71</ele><time>2026-05-23T19:39:44.000Z</time></trkpt>
        <trkpt lat="29.3433125" lon="103.0240937"><ele>3154.88</ele><time>2026-05-23T19:39:54.000Z</time></trkpt>
        <trkpt lat="29.3433259" lon="103.0242035"><ele>3156.55</ele><time>2026-05-23T19:40:06.000Z</time></trkpt>
        <trkpt lat="29.3433476" lon="103.0243097"><ele>3157.25</ele><time>2026-05-23T19:40:18.000Z</time></trkpt>
        <trkpt lat="29.3433475" lon="103.0244201"><ele>3157.29</ele><time>2026-05-23T19:40:30.000Z</time></trkpt>
        <trkpt lat="29.3432537" lon="103.0244836"><ele>3158.43</ele><time>2026-05-23T19:41:42.000Z</time></trkpt>
        <trkpt lat="29.3431583" lon="103.0245141"><ele>3159.44</ele><time>2026-05-23T19:41:54.000Z</time></trkpt>
        <trkpt lat="29.3431041" lon="103.0245995"><ele>3161.11</ele><time>2026-05-23T19:42:08.000Z</time></trkpt>
        <trkpt lat="29.3430711" lon="103.0247041"><ele>3162.65</ele><time>2026-05-23T19:42:24.000Z</time></trkpt>
        <trkpt lat="29.3429925" lon="103.0247612"><ele>3164.23</ele><time>2026-05-23T19:42:34.000Z</time></trkpt>
        <trkpt lat="29.3430619" lon="103.02469"><ele>3165.79</ele><time>2026-05-23T19:46:24.000Z</time></trkpt>
        <trkpt lat="29.3431258" lon="103.0246055"><ele>3166.84</ele><time>2026-05-23T19:47:01.000Z</time></trkpt>
        <trkpt lat="29.3431737" lon="103.0245025"><ele>3166.36</ele><time>2026-05-23T19:47:23.000Z</time></trkpt>
        <trkpt lat="29.3432468" lon="103.0244339"><ele>3164.27</ele><time>2026-05-23T19:47:35.000Z</time></trkpt>
        <trkpt lat="29.3433424" lon="103.024403"><ele>3162.97</ele><time>2026-05-23T19:47:49.000Z</time></trkpt>
        <trkpt lat="29.3433365" lon="103.0243281"><ele>3161.7</ele><time>2026-05-23T19:47:57.000Z</time></trkpt>
        <trkpt lat="29.3433181" lon="103.024241"><ele>3159.45</ele><time>2026-05-23T19:48:07.000Z</time></trkpt>
        <trkpt lat="29.3433004" lon="103.0241288"><ele>3157.42</ele><time>2026-05-23T19:48:19.000Z</time></trkpt>
        <trkpt lat="29.3432982" lon="103.024017"><ele>3156.57</ele><time>2026-05-23T19:48:29.000Z</time></trkpt>
        <trkpt lat="29.3433072" lon="103.023908"><ele>3154.46</ele><time>2026-05-23T19:48:39.000Z</time></trkpt>
        <trkpt lat="29.3432439" lon="103.0238208"><ele>3153.48</ele><time>2026-05-23T19:49:03.000Z</time></trkpt>
        <trkpt lat="29.3432202" lon="103.0237457"><ele>3151.44</ele><time>2026-05-23T19:49:11.000Z</time></trkpt>
        <trkpt lat="29.3432337" lon="103.023646"><ele>3150.45</ele><time>2026-05-23T19:49:21.000Z</time></trkpt>
        <trkpt lat="29.3432812" lon="103.0235847"><ele>3150.2</ele><time>2026-05-23T19:49:31.000Z</time></trkpt>
        <trkpt lat="29.3433575" lon="103.0235275"><ele>3152.22</ele><time>2026-05-23T19:49:47.000Z</time></trkpt>
        <trkpt lat="29.3434174" lon="103.0234377"><ele>3150</ele><time>2026-05-23T19:50:01.000Z</time></trkpt>
        <trkpt lat="29.3435022" lon="103.0233844"><ele>3148.82</ele><time>2026-05-23T19:50:11.000Z</time></trkpt>
        <trkpt lat="29.3435697" lon="103.0233065"><ele>3147.99</ele><time>2026-05-23T19:50:19.000Z</time></trkpt>
        <trkpt lat="29.3436098" lon="103.0232089"><ele>3147.71</ele><time>2026-05-23T19:50:29.000Z</time></trkpt>
        <trkpt lat="29.3436766" lon="103.0231188"><ele>3148.89</ele><time>2026-05-23T19:50:41.000Z</time></trkpt>
        <trkpt lat="29.3437735" lon="103.0230933"><ele>3149.24</ele><time>2026-05-23T19:50:53.000Z</time></trkpt>
        <trkpt lat="29.3438678" lon="103.0230724"><ele>3148.56</ele><time>2026-05-23T19:51:03.000Z</time></trkpt>
        <trkpt lat="29.3439633" lon="103.0230781"><ele>3148.54</ele><time>2026-05-23T19:51:15.000Z</time></trkpt>
        <trkpt lat="29.3440459" lon="103.0230352"><ele>3148.05</ele><time>2026-05-23T19:51:25.000Z</time></trkpt>
        <trkpt lat="29.3441305" lon="103.0229755"><ele>3147.89</ele><time>2026-05-23T19:51:37.000Z</time></trkpt>
        <trkpt lat="29.3442078" lon="103.0229086"><ele>3147.97</ele><time>2026-05-23T19:51:49.000Z</time></trkpt>
        <trkpt lat="29.344301" lon="103.0228822"><ele>3148.37</ele><time>2026-05-23T19:51:59.000Z</time></trkpt>
        <trkpt lat="29.3443831" lon="103.0229247"><ele>3146.44</ele><time>2026-05-23T19:52:11.000Z</time></trkpt>
        <trkpt lat="29.3444741" lon="103.0229207"><ele>3146.1</ele><time>2026-05-23T19:52:25.000Z</time></trkpt>
        <trkpt lat="29.3445553" lon="103.022863"><ele>3148.05</ele><time>2026-05-23T19:52:39.000Z</time></trkpt>
        <trkpt lat="29.3446216" lon="103.0227771"><ele>3150.1</ele><time>2026-05-23T19:52:49.000Z</time></trkpt>
        <trkpt lat="29.3447146" lon="103.0227498"><ele>3153.07</ele><time>2026-05-23T19:53:01.000Z</time></trkpt>
        <trkpt lat="29.3448096" lon="103.0227576"><ele>3155.66</ele><time>2026-05-23T19:53:13.000Z</time></trkpt>
        <trkpt lat="29.3449037" lon="103.0227167"><ele>3157.4</ele><time>2026-05-23T19:53:25.000Z</time></trkpt>
        <trkpt lat="29.344963" lon="103.0226318"><ele>3157.09</ele><time>2026-05-23T19:53:35.000Z</time></trkpt>
        <trkpt lat="29.3450055" lon="103.0225308"><ele>3156</ele><time>2026-05-23T19:53:47.000Z</time></trkpt>
        <trkpt lat="29.3450712" lon="103.0224439"><ele>3155.67</ele><time>2026-05-23T19:53:57.000Z</time></trkpt>
        <trkpt lat="29.3451595" lon="103.0223938"><ele>3156.68</ele><time>2026-05-23T19:54:07.000Z</time></trkpt>
        <trkpt lat="29.3452513" lon="103.0223618"><ele>3157.37</ele><time>2026-05-23T19:54:17.000Z</time></trkpt>
        <trkpt lat="29.3453437" lon="103.022319"><ele>3157.28</ele><time>2026-05-23T19:54:29.000Z</time></trkpt>
        <trkpt lat="29.3454477" lon="103.022281"><ele>3157.82</ele><time>2026-05-23T19:54:41.000Z</time></trkpt>
        <trkpt lat="29.3455506" lon="103.0222564"><ele>3157.65</ele><time>2026-05-23T19:54:53.000Z</time></trkpt>
        <trkpt lat="29.3455867" lon="103.0222084"><ele>3156</ele><time>2026-05-23T19:55:01.000Z</time></trkpt>
        <trkpt lat="29.3456041" lon="103.0221152"><ele>3154.14</ele><time>2026-05-23T19:55:05.000Z</time></trkpt>
        <trkpt lat="29.3456506" lon="103.0221541"><ele>3153.51</ele><time>2026-05-23T19:55:09.000Z</time></trkpt>
        <trkpt lat="29.3457127" lon="103.0221104"><ele>3153.34</ele><time>2026-05-23T19:55:23.000Z</time></trkpt>
        <trkpt lat="29.345795" lon="103.0220513"><ele>3152.12</ele><time>2026-05-23T19:55:33.000Z</time></trkpt>
        <trkpt lat="29.3458636" lon="103.0219581"><ele>3151.12</ele><time>2026-05-23T19:55:43.000Z</time></trkpt>
        <trkpt lat="29.345913" lon="103.0218531"><ele>3152.25</ele><time>2026-05-23T19:56:05.000Z</time></trkpt>
        <trkpt lat="29.3459606" lon="103.0217857"><ele>3151.52</ele><time>2026-05-23T19:56:15.000Z</time></trkpt>
        <trkpt lat="29.346042" lon="103.0217397"><ele>3150.73</ele><time>2026-05-23T19:56:29.000Z</time></trkpt>
        <trkpt lat="29.3461323" lon="103.0217132"><ele>3150.14</ele><time>2026-05-23T19:56:45.000Z</time></trkpt>
        <trkpt lat="29.3462186" lon="103.0217476"><ele>3150.9</ele><time>2026-05-23T19:57:01.000Z</time></trkpt>
        <trkpt lat="29.3463113" lon="103.021746"><ele>3152.62</ele><time>2026-05-23T19:57:27.000Z</time></trkpt>
        <trkpt lat="29.3464015" lon="103.0216958"><ele>3155.35</ele><time>2026-05-23T19:57:45.000Z</time></trkpt>
        <trkpt lat="29.3465009" lon="103.021673"><ele>3158.51</ele><time>2026-05-23T19:57:57.000Z</time></trkpt>
        <trkpt lat="29.3465781" lon="103.0215955"><ele>3160.61</ele><time>2026-05-23T19:58:11.000Z</time></trkpt>
        <trkpt lat="29.34667" lon="103.0215665"><ele>3161.44</ele><time>2026-05-23T19:58:23.000Z</time></trkpt>
        <trkpt lat="29.3467654" lon="103.0215367"><ele>3162.2</ele><time>2026-05-23T19:58:33.000Z</time></trkpt>
        <trkpt lat="29.3468587" lon="103.0215156"><ele>3163.59</ele><time>2026-05-23T19:58:45.000Z</time></trkpt>
        <trkpt lat="29.346954" lon="103.021509"><ele>3164.68</ele><time>2026-05-23T19:58:59.000Z</time></trkpt>
        <trkpt lat="29.3470467" lon="103.0215382"><ele>3166.46</ele><time>2026-05-23T19:59:13.000Z</time></trkpt>
        <trkpt lat="29.3471468" lon="103.0215745"><ele>3168.01</ele><time>2026-05-23T19:59:25.000Z</time></trkpt>
        <trkpt lat="29.3472433" lon="103.0215781"><ele>3169.2</ele><time>2026-05-23T19:59:35.000Z</time></trkpt>
        <trkpt lat="29.347337" lon="103.0216261"><ele>3169.99</ele><time>2026-05-23T19:59:47.000Z</time></trkpt>
        <trkpt lat="29.3474399" lon="103.0216565"><ele>3170.71</ele><time>2026-05-23T20:00:03.000Z</time></trkpt>
        <trkpt lat="29.347513" lon="103.0217288"><ele>3169.87</ele><time>2026-05-23T20:00:17.000Z</time></trkpt>
        <trkpt lat="29.3475681" lon="103.0218232"><ele>3170.83</ele><time>2026-05-23T20:00:31.000Z</time></trkpt>
        <trkpt lat="29.3476417" lon="103.021887"><ele>3171.22</ele><time>2026-05-23T20:01:09.000Z</time></trkpt>
        <trkpt lat="29.3477217" lon="103.0219617"><ele>3171.69</ele><time>2026-05-23T20:01:21.000Z</time></trkpt>
        <trkpt lat="29.3478149" lon="103.022004"><ele>3172.68</ele><time>2026-05-23T20:01:35.000Z</time></trkpt>
        <trkpt lat="29.3479136" lon="103.0219966"><ele>3174.86</ele><time>2026-05-23T20:01:49.000Z</time></trkpt>
        <trkpt lat="29.3480014" lon="103.0220241"><ele>3176.55</ele><time>2026-05-23T20:02:01.000Z</time></trkpt>
        <trkpt lat="29.3480949" lon="103.0220275"><ele>3176.86</ele><time>2026-05-23T20:02:11.000Z</time></trkpt>
        <trkpt lat="29.3481967" lon="103.022024"><ele>3177.15</ele><time>2026-05-23T20:02:21.000Z</time></trkpt>
        <trkpt lat="29.3482965" lon="103.0220054"><ele>3178.15</ele><time>2026-05-23T20:02:31.000Z</time></trkpt>
        <trkpt lat="29.3483972" lon="103.0219907"><ele>3179.09</ele><time>2026-05-23T20:02:41.000Z</time></trkpt>
        <trkpt lat="29.3484915" lon="103.0219734"><ele>3179.82</ele><time>2026-05-23T20:02:51.000Z</time></trkpt>
        <trkpt lat="29.348593" lon="103.0219751"><ele>3179.16</ele><time>2026-05-23T20:03:01.000Z</time></trkpt>
        <trkpt lat="29.3487034" lon="103.0219619"><ele>3178.78</ele><time>2026-05-23T20:03:13.000Z</time></trkpt>
        <trkpt lat="29.3488156" lon="103.0219509"><ele>3178.64</ele><time>2026-05-23T20:03:23.000Z</time></trkpt>
        <trkpt lat="29.3488952" lon="103.0218932"><ele>3177.95</ele><time>2026-05-23T20:03:33.000Z</time></trkpt>
        <trkpt lat="29.3489791" lon="103.0218548"><ele>3178.27</ele><time>2026-05-23T20:03:41.000Z</time></trkpt>
        <trkpt lat="29.3490654" lon="103.021823"><ele>3179.38</ele><time>2026-05-23T20:03:51.000Z</time></trkpt>
        <trkpt lat="29.3491567" lon="103.0217865"><ele>3180.44</ele><time>2026-05-23T20:04:03.000Z</time></trkpt>
        <trkpt lat="29.3492499" lon="103.0217942"><ele>3181.49</ele><time>2026-05-23T20:04:13.000Z</time></trkpt>
        <trkpt lat="29.3493304" lon="103.0217417"><ele>3181.21</ele><time>2026-05-23T20:04:25.000Z</time></trkpt>
        <trkpt lat="29.3494322" lon="103.0217261"><ele>3180.37</ele><time>2026-05-23T20:04:33.000Z</time></trkpt>
        <trkpt lat="29.3495305" lon="103.0217076"><ele>3179.61</ele><time>2026-05-23T20:04:47.000Z</time></trkpt>
        <trkpt lat="29.349621" lon="103.0216548"><ele>3179.1</ele><time>2026-05-23T20:04:57.000Z</time></trkpt>
        <trkpt lat="29.3497135" lon="103.0215998"><ele>3177.68</ele><time>2026-05-23T20:05:07.000Z</time></trkpt>
        <trkpt lat="29.3498033" lon="103.0216149"><ele>3175.77</ele><time>2026-05-23T20:05:19.000Z</time></trkpt>
        <trkpt lat="29.3498224" lon="103.0217431"><ele>3173.32</ele><time>2026-05-23T20:08:58.000Z</time></trkpt>
        <trkpt lat="29.349731" lon="103.0217117"><ele>3170.62</ele><time>2026-05-23T20:09:46.000Z</time></trkpt>
        <trkpt lat="29.3497857" lon="103.021655"><ele>3170.6</ele><time>2026-05-23T20:10:06.000Z</time></trkpt>
        <trkpt lat="29.3499033" lon="103.0216518"><ele>3170.03</ele><time>2026-05-23T20:11:22.000Z</time></trkpt>
        <trkpt lat="29.3499037" lon="103.021634"><ele>3169.18</ele><time>2026-05-23T20:11:26.000Z</time></trkpt>
        <trkpt lat="29.3499975" lon="103.0216399"><ele>3168.56</ele><time>2026-05-23T20:14:16.000Z</time></trkpt>
        <trkpt lat="29.3500867" lon="103.0216547"><ele>3168.47</ele><time>2026-05-23T20:14:28.000Z</time></trkpt>
        <trkpt lat="29.3501678" lon="103.0216097"><ele>3167.36</ele><time>2026-05-23T20:17:10.000Z</time></trkpt>
        <trkpt lat="29.3501305" lon="103.0215154"><ele>3166.66</ele><time>2026-05-23T20:18:47.000Z</time></trkpt>
        <trkpt lat="29.3500961" lon="103.0214112"><ele>3166.96</ele><time>2026-05-23T20:18:57.000Z</time></trkpt>
        <trkpt lat="29.3500484" lon="103.0213159"><ele>3167.41</ele><time>2026-05-23T20:19:26.000Z</time></trkpt>
        <trkpt lat="29.3500426" lon="103.0212152"><ele>3168.22</ele><time>2026-05-23T20:19:38.000Z</time></trkpt>
        <trkpt lat="29.3501083" lon="103.0211533"><ele>3168.17</ele><time>2026-05-23T20:19:52.000Z</time></trkpt>
        <trkpt lat="29.3501782" lon="103.021061"><ele>3167.56</ele><time>2026-05-23T20:20:08.000Z</time></trkpt>
        <trkpt lat="29.3502389" lon="103.0209533"><ele>3167.42</ele><time>2026-05-23T20:20:18.000Z</time></trkpt>
        <trkpt lat="29.3502897" lon="103.0208408"><ele>3166.43</ele><time>2026-05-23T20:20:30.000Z</time></trkpt>
        <trkpt lat="29.350353" lon="103.0207424"><ele>3166.5</ele><time>2026-05-23T20:20:40.000Z</time></trkpt>
        <trkpt lat="29.3504294" lon="103.0206808"><ele>3165.48</ele><time>2026-05-23T20:20:50.000Z</time></trkpt>
        <trkpt lat="29.3505083" lon="103.0206251"><ele>3164.85</ele><time>2026-05-23T20:21:00.000Z</time></trkpt>
        <trkpt lat="29.3505873" lon="103.0205611"><ele>3165.03</ele><time>2026-05-23T20:21:12.000Z</time></trkpt>
        <trkpt lat="29.3506542" lon="103.0204792"><ele>3164.93</ele><time>2026-05-23T20:21:24.000Z</time></trkpt>
        <trkpt lat="29.3507245" lon="103.0203922"><ele>3164.09</ele><time>2026-05-23T20:21:36.000Z</time></trkpt>
        <trkpt lat="29.3507746" lon="103.0202973"><ele>3165.09</ele><time>2026-05-23T20:21:44.000Z</time></trkpt>
        <trkpt lat="29.3508343" lon="103.0202067"><ele>3166.58</ele><time>2026-05-23T20:21:56.000Z</time></trkpt>
        <trkpt lat="29.3509186" lon="103.0201571"><ele>3166.88</ele><time>2026-05-23T20:22:08.000Z</time></trkpt>
        <trkpt lat="29.3510091" lon="103.0201094"><ele>3168.15</ele><time>2026-05-23T20:22:18.000Z</time></trkpt>
        <trkpt lat="29.3510909" lon="103.0200504"><ele>3168.3</ele><time>2026-05-23T20:22:30.000Z</time></trkpt>
        <trkpt lat="29.3511525" lon="103.0199618"><ele>3168.45</ele><time>2026-05-23T20:22:40.000Z</time></trkpt>
        <trkpt lat="29.3512253" lon="103.0198678"><ele>3167.46</ele><time>2026-05-23T20:22:52.000Z</time></trkpt>
        <trkpt lat="29.3513092" lon="103.0198038"><ele>3166.34</ele><time>2026-05-23T20:23:04.000Z</time></trkpt>
        <trkpt lat="29.3513973" lon="103.0197617"><ele>3166.34</ele><time>2026-05-23T20:23:14.000Z</time></trkpt>
        <trkpt lat="29.3514856" lon="103.0197328"><ele>3167.11</ele><time>2026-05-23T20:23:24.000Z</time></trkpt>
        <trkpt lat="29.3515527" lon="103.0196743"><ele>3168.18</ele><time>2026-05-23T20:23:36.000Z</time></trkpt>
        <trkpt lat="29.3516306" lon="103.0196894"><ele>3167.56</ele><time>2026-05-23T20:24:10.000Z</time></trkpt>
        <trkpt lat="29.3516519" lon="103.019709"><ele>3167.85</ele><time>2026-05-23T20:24:14.000Z</time></trkpt>
        <trkpt lat="29.3517206" lon="103.0197122"><ele>3168.61</ele><time>2026-05-23T20:24:40.000Z</time></trkpt>
        <trkpt lat="29.351816" lon="103.0197264"><ele>3169.15</ele><time>2026-05-23T20:24:50.000Z</time></trkpt>
        <trkpt lat="29.3519042" lon="103.0196777"><ele>3172.7</ele><time>2026-05-23T20:25:06.000Z</time></trkpt>
        <trkpt lat="29.3520007" lon="103.0196221"><ele>3172.08</ele><time>2026-05-23T20:25:20.000Z</time></trkpt>
        <trkpt lat="29.352095" lon="103.0195611"><ele>3169.38</ele><time>2026-05-23T20:25:34.000Z</time></trkpt>
        <trkpt lat="29.3521415" lon="103.0195423"><ele>3166.41</ele><time>2026-05-23T20:25:40.000Z</time></trkpt>
        <trkpt lat="29.3522091" lon="103.019507"><ele>3163.33</ele><time>2026-05-23T20:25:50.000Z</time></trkpt>
        <trkpt lat="29.3522927" lon="103.0194638"><ele>3161.28</ele><time>2026-05-23T20:26:02.000Z</time></trkpt>
        <trkpt lat="29.3523587" lon="103.0193776"><ele>3158.51</ele><time>2026-05-23T20:26:14.000Z</time></trkpt>
        <trkpt lat="29.3523477" lon="103.0193293"><ele>3157.13</ele><time>2026-05-23T20:26:24.000Z</time></trkpt>
        <trkpt lat="29.3523926" lon="103.01927"><ele>3154.9</ele><time>2026-05-23T20:27:36.000Z</time></trkpt>
        <trkpt lat="29.3524836" lon="103.0192495"><ele>3151.41</ele><time>2026-05-23T20:27:56.000Z</time></trkpt>
        <trkpt lat="29.3525618" lon="103.0193087"><ele>3148.34</ele><time>2026-05-23T20:28:14.000Z</time></trkpt>
        <trkpt lat="29.3526038" lon="103.0193348"><ele>3147.17</ele><time>2026-05-23T20:28:24.000Z</time></trkpt>
        <trkpt lat="29.3526288" lon="103.0192411"><ele>3144.26</ele><time>2026-05-23T20:37:25.000Z</time></trkpt>
        <trkpt lat="29.3527171" lon="103.019214"><ele>3135.96</ele><time>2026-05-23T20:39:43.000Z</time></trkpt>
        <trkpt lat="29.3527815" lon="103.0192895"><ele>3127.9</ele><time>2026-05-23T20:41:59.000Z</time></trkpt>
        <trkpt lat="29.3528715" lon="103.0192751"><ele>3121.15</ele><time>2026-05-23T20:42:39.000Z</time></trkpt>
        <trkpt lat="29.3529056" lon="103.0193029"><ele>3113.58</ele><time>2026-05-23T20:42:53.000Z</time></trkpt>
        <trkpt lat="29.352983" lon="103.0193387"><ele>3107.97</ele><time>2026-05-23T20:43:21.000Z</time></trkpt>
        <trkpt lat="29.3530593" lon="103.0194009"><ele>3101.41</ele><time>2026-05-23T20:43:45.000Z</time></trkpt>
        <trkpt lat="29.3530807" lon="103.0194146"><ele>3096.49</ele><time>2026-05-23T20:43:47.000Z</time></trkpt>
        <trkpt lat="29.3530339" lon="103.0194757"><ele>3094.22</ele><time>2026-05-23T20:44:17.000Z</time></trkpt>
        <trkpt lat="29.3530077" lon="103.019498"><ele>3087.57</ele><time>2026-05-23T20:44:29.000Z</time></trkpt>
        <trkpt lat="29.3530446" lon="103.0195583"><ele>3083.05</ele><time>2026-05-23T20:45:15.000Z</time></trkpt>
        <trkpt lat="29.3531248" lon="103.019597"><ele>3076.28</ele><time>2026-05-23T20:46:15.000Z</time></trkpt>
        <trkpt lat="29.3532207" lon="103.019585"><ele>3069.46</ele><time>2026-05-23T20:46:29.000Z</time></trkpt>
        <trkpt lat="29.3533025" lon="103.0194882"><ele>3064.31</ele><time>2026-05-23T21:00:17.000Z</time></trkpt>
        <trkpt lat="29.3533579" lon="103.019571"><ele>3059.42</ele><time>2026-05-23T21:00:45.000Z</time></trkpt>
        <trkpt lat="29.3533728" lon="103.0196222"><ele>3053.64</ele><time>2026-05-23T21:00:53.000Z</time></trkpt>
        <trkpt lat="29.3534529" lon="103.0196642"><ele>3049.99</ele><time>2026-05-23T21:03:43.000Z</time></trkpt>
        <trkpt lat="29.3534701" lon="103.0197701"><ele>3044.76</ele><time>2026-05-23T21:04:13.000Z</time></trkpt>
        <trkpt lat="29.3534874" lon="103.0198735"><ele>3039.72</ele><time>2026-05-23T21:04:45.000Z</time></trkpt>
        <trkpt lat="29.3535598" lon="103.0198775"><ele>3034.19</ele><time>2026-05-23T21:04:57.000Z</time></trkpt>
        <trkpt lat="29.3536178" lon="103.0198426"><ele>3029.36</ele><time>2026-05-23T21:05:09.000Z</time></trkpt>
        <trkpt lat="29.3536838" lon="103.0198758"><ele>3024.94</ele><time>2026-05-23T21:05:31.000Z</time></trkpt>
        <trkpt lat="29.3537548" lon="103.0199453"><ele>3021.13</ele><time>2026-05-23T21:05:55.000Z</time></trkpt>
        <trkpt lat="29.353848" lon="103.0199824"><ele>3016.97</ele><time>2026-05-23T21:06:43.000Z</time></trkpt>
        <trkpt lat="29.3539233" lon="103.0200491"><ele>3010.68</ele><time>2026-05-23T21:06:51.000Z</time></trkpt>
        <trkpt lat="29.3539742" lon="103.0201471"><ele>3006.82</ele><time>2026-05-23T21:07:07.000Z</time></trkpt>
        <trkpt lat="29.3540579" lon="103.0201982"><ele>3004.4</ele><time>2026-05-23T21:07:27.000Z</time></trkpt>
        <trkpt lat="29.3541148" lon="103.0202599"><ele>3003.64</ele><time>2026-05-23T21:07:41.000Z</time></trkpt>
        <trkpt lat="29.3541951" lon="103.0202703"><ele>3001.88</ele><time>2026-05-23T21:08:13.000Z</time></trkpt>
        <trkpt lat="29.3542893" lon="103.0202522"><ele>3000.26</ele><time>2026-05-23T21:08:37.000Z</time></trkpt>
        <trkpt lat="29.354386" lon="103.0202476"><ele>2997.57</ele><time>2026-05-23T21:11:07.000Z</time></trkpt>
        <trkpt lat="29.3544622" lon="103.0203247"><ele>2991.07</ele><time>2026-05-23T21:12:07.000Z</time></trkpt>
        <trkpt lat="29.3543709" lon="103.0202901"><ele>2986.07</ele><time>2026-05-23T21:13:07.000Z</time></trkpt>
        <trkpt lat="29.3544154" lon="103.020222"><ele>2983.42</ele><time>2026-05-23T21:13:31.000Z</time></trkpt>
        <trkpt lat="29.3545017" lon="103.0202245"><ele>2981.39</ele><time>2026-05-23T21:13:47.000Z</time></trkpt>
        <trkpt lat="29.3545017" lon="103.0202245"><ele>2981.39</ele><time>2026-05-23T21:13:47.000Z</time></trkpt>
        <trkpt lat="29.3546817" lon="103.0202644"><ele>2984.92</ele><time>2026-05-23T21:21:14.000Z</time></trkpt>
        <trkpt lat="29.3546817" lon="103.0202644"><ele>2984.92</ele><time>2026-05-23T21:21:14.000Z</time></trkpt>
        <trkpt lat="29.3547767" lon="103.0202813"><ele>2984.92</ele><time>2026-05-23T21:25:59.000Z</time></trkpt>
        <trkpt lat="29.3548671" lon="103.020284"><ele>2982.38</ele><time>2026-05-23T21:28:19.000Z</time></trkpt>
        <trkpt lat="29.3549291" lon="103.0202762"><ele>2978.62</ele><time>2026-05-23T21:28:39.000Z</time></trkpt>
        <trkpt lat="29.355031" lon="103.0203198"><ele>2975.81</ele><time>2026-05-23T21:29:45.000Z</time></trkpt>
        <trkpt lat="29.3551314" lon="103.0203199"><ele>2971.67</ele><time>2026-05-23T21:29:57.000Z</time></trkpt>
        <trkpt lat="29.3552304" lon="103.0203072"><ele>2970.11</ele><time>2026-05-23T21:30:13.000Z</time></trkpt>
        <trkpt lat="29.3553268" lon="103.0203269"><ele>2970.48</ele><time>2026-05-23T21:30:33.000Z</time></trkpt>
        <trkpt lat="29.3554198" lon="103.0203441"><ele>2971.5</ele><time>2026-05-23T21:30:45.000Z</time></trkpt>
        <trkpt lat="29.3555126" lon="103.0203657"><ele>2971.39</ele><time>2026-05-23T21:30:57.000Z</time></trkpt>
        <trkpt lat="29.3555975" lon="103.020331"><ele>2972</ele><time>2026-05-23T21:31:13.000Z</time></trkpt>
        <trkpt lat="29.355686" lon="103.0203077"><ele>2971.17</ele><time>2026-05-23T21:31:31.000Z</time></trkpt>
        <trkpt lat="29.3557652" lon="103.0202368"><ele>2969.02</ele><time>2026-05-23T21:31:51.000Z</time></trkpt>
        <trkpt lat="29.3558451" lon="103.0201768"><ele>2965.36</ele><time>2026-05-23T21:32:07.000Z</time></trkpt>
        <trkpt lat="29.3559315" lon="103.0201762"><ele>2961.05</ele><time>2026-05-23T21:32:15.000Z</time></trkpt>
        <trkpt lat="29.3560148" lon="103.0201357"><ele>2957.83</ele><time>2026-05-23T21:32:23.000Z</time></trkpt>
        <trkpt lat="29.3560977" lon="103.020073"><ele>2955.46</ele><time>2026-05-23T21:32:33.000Z</time></trkpt>
        <trkpt lat="29.3562007" lon="103.020043"><ele>2955.1</ele><time>2026-05-23T21:32:45.000Z</time></trkpt>
        <trkpt lat="29.3562929" lon="103.0200096"><ele>2955.62</ele><time>2026-05-23T21:32:55.000Z</time></trkpt>
        <trkpt lat="29.3563871" lon="103.0199667"><ele>2955.44</ele><time>2026-05-23T21:33:15.000Z</time></trkpt>
        <trkpt lat="29.3564377" lon="103.0199415"><ele>2953.91</ele><time>2026-05-23T21:33:23.000Z</time></trkpt>
        <trkpt lat="29.3564875" lon="103.0198693"><ele>2952.98</ele><time>2026-05-23T21:34:23.000Z</time></trkpt>
        <trkpt lat="29.3565397" lon="103.0197804"><ele>2950.38</ele><time>2026-05-23T21:35:19.000Z</time></trkpt>
        <trkpt lat="29.3565884" lon="103.0196912"><ele>2945.96</ele><time>2026-05-23T21:35:27.000Z</time></trkpt>
        <trkpt lat="29.3566058" lon="103.0196429"><ele>2943.23</ele><time>2026-05-23T21:35:35.000Z</time></trkpt>
        <trkpt lat="29.3566447" lon="103.0195659"><ele>2941.23</ele><time>2026-05-23T21:36:03.000Z</time></trkpt>
        <trkpt lat="29.3566888" lon="103.019469"><ele>2940.28</ele><time>2026-05-23T21:36:15.000Z</time></trkpt>
        <trkpt lat="29.356729" lon="103.0193682"><ele>2936.68</ele><time>2026-05-23T21:36:27.000Z</time></trkpt>
        <trkpt lat="29.3567793" lon="103.0192748"><ele>2934.15</ele><time>2026-05-23T21:36:41.000Z</time></trkpt>
        <trkpt lat="29.356856" lon="103.0192142"><ele>2931.79</ele><time>2026-05-23T21:36:53.000Z</time></trkpt>
        <trkpt lat="29.356924" lon="103.0191385"><ele>2929.11</ele><time>2026-05-23T21:37:05.000Z</time></trkpt>
        <trkpt lat="29.3569859" lon="103.0190824"><ele>2925.35</ele><time>2026-05-23T21:37:19.000Z</time></trkpt>
        <trkpt lat="29.3570331" lon="103.0190001"><ele>2922.75</ele><time>2026-05-23T21:38:23.000Z</time></trkpt>
        <trkpt lat="29.3569878" lon="103.0188943"><ele>2920.14</ele><time>2026-05-23T21:38:31.000Z</time></trkpt>
        <trkpt lat="29.357007" lon="103.0188233"><ele>2914.52</ele><time>2026-05-23T21:38:41.000Z</time></trkpt>
        <trkpt lat="29.3570883" lon="103.0188074"><ele>2916.79</ele><time>2026-05-23T21:39:21.000Z</time></trkpt>
        <trkpt lat="29.3571397" lon="103.0187316"><ele>2914.18</ele><time>2026-05-23T21:40:15.000Z</time></trkpt>
        <trkpt lat="29.3572141" lon="103.0186601"><ele>2909.46</ele><time>2026-05-23T21:40:33.000Z</time></trkpt>
        <trkpt lat="29.3572899" lon="103.0185967"><ele>2904.5</ele><time>2026-05-23T21:40:57.000Z</time></trkpt>
        <trkpt lat="29.3573809" lon="103.018579"><ele>2898.69</ele><time>2026-05-23T21:41:19.000Z</time></trkpt>
        <trkpt lat="29.3574686" lon="103.0185478"><ele>2892.1</ele><time>2026-05-23T21:42:15.000Z</time></trkpt>
        <trkpt lat="29.3575736" lon="103.0185673"><ele>2880.71</ele><time>2026-05-23T21:42:51.000Z</time></trkpt>
        <trkpt lat="29.3576692" lon="103.0186329"><ele>2871.04</ele><time>2026-05-23T21:45:03.000Z</time></trkpt>
        <trkpt lat="29.3576961" lon="103.0185693"><ele>2859.98</ele><time>2026-05-23T21:45:25.000Z</time></trkpt>
        <trkpt lat="29.3577721" lon="103.0185298"><ele>2852.08</ele><time>2026-05-23T21:45:53.000Z</time></trkpt>
        <trkpt lat="29.357802" lon="103.0186102"><ele>2845.89</ele><time>2026-05-23T21:46:03.000Z</time></trkpt>
        <trkpt lat="29.3577944" lon="103.0186849"><ele>2841.34</ele><time>2026-05-23T21:46:15.000Z</time></trkpt>
        <trkpt lat="29.3578488" lon="103.0186744"><ele>2838.35</ele><time>2026-05-23T21:47:09.000Z</time></trkpt>
        <trkpt lat="29.3579347" lon="103.0186564"><ele>2830.9</ele><time>2026-05-23T21:47:51.000Z</time></trkpt>
        <trkpt lat="29.3579601" lon="103.018643"><ele>2825.27</ele><time>2026-05-23T21:47:53.000Z</time></trkpt>
        <trkpt lat="29.3580274" lon="103.0186166"><ele>2821.9</ele><time>2026-05-23T21:48:43.000Z</time></trkpt>
        <trkpt lat="29.3580538" lon="103.018601"><ele>2818.54</ele><time>2026-05-23T21:48:47.000Z</time></trkpt>
        <trkpt lat="29.3580987" lon="103.0185327"><ele>2816.1</ele><time>2026-05-23T21:49:21.000Z</time></trkpt>
        <trkpt lat="29.358119" lon="103.018517"><ele>2811.65</ele><time>2026-05-23T21:49:25.000Z</time></trkpt>
        <trkpt lat="29.3582135" lon="103.0185231"><ele>2809.32</ele><time>2026-05-23T21:53:53.000Z</time></trkpt>
        <trkpt lat="29.3582299" lon="103.0184678"><ele>2802.32</ele><time>2026-05-23T21:54:03.000Z</time></trkpt>
        <trkpt lat="29.3583094" lon="103.0184736"><ele>2796.47</ele><time>2026-05-23T21:54:39.000Z</time></trkpt>
        <trkpt lat="29.3583773" lon="103.0185674"><ele>2790.92</ele><time>2026-05-23T21:56:33.000Z</time></trkpt>
        <trkpt lat="29.3583706" lon="103.0186707"><ele>2784.03</ele><time>2026-05-23T21:56:53.000Z</time></trkpt>
        <trkpt lat="29.3583596" lon="103.0187777"><ele>2778.43</ele><time>2026-05-23T21:57:13.000Z</time></trkpt>
        <trkpt lat="29.358295" lon="103.0188543"><ele>2774.52</ele><time>2026-05-23T21:57:47.000Z</time></trkpt>
        <trkpt lat="29.3582303" lon="103.0189353"><ele>2769.79</ele><time>2026-05-23T21:58:41.000Z</time></trkpt>
        <trkpt lat="29.3581778" lon="103.0189935"><ele>2764.99</ele><time>2026-05-23T21:58:51.000Z</time></trkpt>
        <trkpt lat="29.3582398" lon="103.0190575"><ele>2761.04</ele><time>2026-05-23T22:00:37.000Z</time></trkpt>
        <trkpt lat="29.3583223" lon="103.0190992"><ele>2754.96</ele><time>2026-05-23T22:01:03.000Z</time></trkpt>
        <trkpt lat="29.3584145" lon="103.0191346"><ele>2749.11</ele><time>2026-05-23T22:01:37.000Z</time></trkpt>
        <trkpt lat="29.3584462" lon="103.0192346"><ele>2743.8</ele><time>2026-05-23T22:02:11.000Z</time></trkpt>
        <trkpt lat="29.3585082" lon="103.0193076"><ele>2736.78</ele><time>2026-05-23T22:02:39.000Z</time></trkpt>
        <trkpt lat="29.3585876" lon="103.0192926"><ele>2728.15</ele><time>2026-05-23T22:03:23.000Z</time></trkpt>
        <trkpt lat="29.3586125" lon="103.0192666"><ele>2720.55</ele><time>2026-05-23T22:03:27.000Z</time></trkpt>
        <trkpt lat="29.3586446" lon="103.0193263"><ele>2715.43</ele><time>2026-05-23T22:04:25.000Z</time></trkpt>
        <trkpt lat="29.3586269" lon="103.0194224"><ele>2707.72</ele><time>2026-05-23T22:04:41.000Z</time></trkpt>
        <trkpt lat="29.3585436" lon="103.0194841"><ele>2701.93</ele><time>2026-05-23T22:04:57.000Z</time></trkpt>
        <trkpt lat="29.3584382" lon="103.0194962"><ele>2698.8</ele><time>2026-05-23T22:05:09.000Z</time></trkpt>
        <trkpt lat="29.3583689" lon="103.019569"><ele>2696.72</ele><time>2026-05-23T22:05:29.000Z</time></trkpt>
        <trkpt lat="29.3582897" lon="103.0196349"><ele>2695.29</ele><time>2026-05-23T22:06:31.000Z</time></trkpt>
        <trkpt lat="29.3583381" lon="103.0197272"><ele>2692.15</ele><time>2026-05-23T22:07:37.000Z</time></trkpt>
        <trkpt lat="29.3582909" lon="103.0197643"><ele>2690.36</ele><time>2026-05-23T22:07:51.000Z</time></trkpt>
        <trkpt lat="29.358246" lon="103.0198527"><ele>2686.22</ele><time>2026-05-23T22:08:23.000Z</time></trkpt>
        <trkpt lat="29.358249" lon="103.019955"><ele>2680.81</ele><time>2026-05-23T22:09:09.000Z</time></trkpt>
        <trkpt lat="29.3583298" lon="103.0199612"><ele>2673.96</ele><time>2026-05-23T22:09:37.000Z</time></trkpt>
        <trkpt lat="29.3584276" lon="103.0199228"><ele>2667.82</ele><time>2026-05-23T22:10:01.000Z</time></trkpt>
        <trkpt lat="29.3585315" lon="103.0199239"><ele>2661.23</ele><time>2026-05-23T22:10:33.000Z</time></trkpt>
        <trkpt lat="29.3586254" lon="103.0198697"><ele>2653.87</ele><time>2026-05-23T22:10:47.000Z</time></trkpt>
        <trkpt lat="29.3586918" lon="103.0198277"><ele>2647.91</ele><time>2026-05-23T22:11:03.000Z</time></trkpt>
        <trkpt lat="29.3587794" lon="103.0198073"><ele>2643.69</ele><time>2026-05-23T22:13:05.000Z</time></trkpt>
        <trkpt lat="29.3588593" lon="103.0197516"><ele>2637.45</ele><time>2026-05-23T22:13:31.000Z</time></trkpt>
        <trkpt lat="29.3589476" lon="103.0197307"><ele>2630.9</ele><time>2026-05-23T22:14:07.000Z</time></trkpt>
        <trkpt lat="29.3590415" lon="103.0197232"><ele>2624.72</ele><time>2026-05-23T22:14:43.000Z</time></trkpt>
        <trkpt lat="29.3591311" lon="103.0197038"><ele>2619.56</ele><time>2026-05-23T22:15:19.000Z</time></trkpt>
        <trkpt lat="29.3592188" lon="103.0196673"><ele>2613.72</ele><time>2026-05-23T22:16:35.000Z</time></trkpt>
        <trkpt lat="29.3592958" lon="103.01973"><ele>2607.66</ele><time>2026-05-23T22:17:13.000Z</time></trkpt>
        <trkpt lat="29.3593579" lon="103.019809"><ele>2601.82</ele><time>2026-05-23T22:17:49.000Z</time></trkpt>
        <trkpt lat="29.3594288" lon="103.0198749"><ele>2596.33</ele><time>2026-05-23T22:18:37.000Z</time></trkpt>
        <trkpt lat="29.3595229" lon="103.0199011"><ele>2590.82</ele><time>2026-05-23T22:19:31.000Z</time></trkpt>
        <trkpt lat="29.3595931" lon="103.0198423"><ele>2585.31</ele><time>2026-05-23T22:19:47.000Z</time></trkpt>
        <trkpt lat="29.3596659" lon="103.0197726"><ele>2579.55</ele><time>2026-05-23T22:20:27.000Z</time></trkpt>
        <trkpt lat="29.3597381" lon="103.0196891"><ele>2574.74</ele><time>2026-05-23T22:21:35.000Z</time></trkpt>
        <trkpt lat="29.3598053" lon="103.019608"><ele>2570.1</ele><time>2026-05-23T22:22:11.000Z</time></trkpt>
        <trkpt lat="29.3598891" lon="103.0195693"><ele>2564.03</ele><time>2026-05-23T22:23:39.000Z</time></trkpt>
        <trkpt lat="29.3599836" lon="103.019563"><ele>2558.81</ele><time>2026-05-23T22:24:21.000Z</time></trkpt>
        <trkpt lat="29.3600723" lon="103.0195223"><ele>2554.69</ele><time>2026-05-23T22:25:09.000Z</time></trkpt>
        <trkpt lat="29.3601626" lon="103.0195105"><ele>2548.72</ele><time>2026-05-23T22:25:55.000Z</time></trkpt>
        <trkpt lat="29.3602486" lon="103.0195464"><ele>2543.41</ele><time>2026-05-23T22:26:29.000Z</time></trkpt>
        <trkpt lat="29.3603296" lon="103.0195976"><ele>2537.42</ele><time>2026-05-23T22:26:49.000Z</time></trkpt>
        <trkpt lat="29.3604171" lon="103.0196557"><ele>2533.11</ele><time>2026-05-23T22:27:41.000Z</time></trkpt>
        <trkpt lat="29.3605078" lon="103.0196507"><ele>2528.3</ele><time>2026-05-23T22:27:59.000Z</time></trkpt>
        <trkpt lat="29.3605826" lon="103.0195832"><ele>2525.08</ele><time>2026-05-23T22:28:17.000Z</time></trkpt>
        <trkpt lat="29.360652" lon="103.0195049"><ele>2520.06</ele><time>2026-05-23T22:28:43.000Z</time></trkpt>
        <trkpt lat="29.3607354" lon="103.0194479"><ele>2516.28</ele><time>2026-05-23T22:29:01.000Z</time></trkpt>
        <trkpt lat="29.3607932" lon="103.0194313"><ele>2513.84</ele><time>2026-05-23T22:29:17.000Z</time></trkpt>
        <trkpt lat="29.3608742" lon="103.0194077"><ele>2511.05</ele><time>2026-05-23T22:29:59.000Z</time></trkpt>
        <trkpt lat="29.3609506" lon="103.0193517"><ele>2506.49</ele><time>2026-05-23T22:30:19.000Z</time></trkpt>
        <trkpt lat="29.3610397" lon="103.0193028"><ele>2500.82</ele><time>2026-05-23T22:30:37.000Z</time></trkpt>
        <trkpt lat="29.3611234" lon="103.019285"><ele>2497.34</ele><time>2026-05-23T22:31:05.000Z</time></trkpt>
        <trkpt lat="29.3612127" lon="103.0192733"><ele>2495.13</ele><time>2026-05-23T22:31:47.000Z</time></trkpt>
        <trkpt lat="29.3612981" lon="103.0192393"><ele>2490.09</ele><time>2026-05-23T22:32:19.000Z</time></trkpt>
        <trkpt lat="29.3613581" lon="103.0192904"><ele>2485.38</ele><time>2026-05-23T22:32:35.000Z</time></trkpt>
        <trkpt lat="29.3614376" lon="103.0193125"><ele>2482.96</ele><time>2026-05-23T22:33:05.000Z</time></trkpt>
        <trkpt lat="29.361517" lon="103.0192813"><ele>2480.72</ele><time>2026-05-23T22:33:41.000Z</time></trkpt>
        <trkpt lat="29.3616039" lon="103.019247"><ele>2475.33</ele><time>2026-05-23T22:33:57.000Z</time></trkpt>
        <trkpt lat="29.3616962" lon="103.0192599"><ele>2471.96</ele><time>2026-05-23T22:34:15.000Z</time></trkpt>
        <trkpt lat="29.3617888" lon="103.0192836"><ele>2471.57</ele><time>2026-05-23T22:34:37.000Z</time></trkpt>
        <trkpt lat="29.3618204" lon="103.0193046"><ele>2470.03</ele><time>2026-05-23T22:34:45.000Z</time></trkpt>
        <trkpt lat="29.361891" lon="103.0193074"><ele>2468.02</ele><time>2026-05-23T22:35:05.000Z</time></trkpt>
        <trkpt lat="29.3619773" lon="103.0193387"><ele>2466.56</ele><time>2026-05-23T22:35:31.000Z</time></trkpt>
        <trkpt lat="29.3620629" lon="103.0192965"><ele>2463.55</ele><time>2026-05-23T22:35:53.000Z</time></trkpt>
        <trkpt lat="29.3621565" lon="103.0192466"><ele>2458.04</ele><time>2026-05-23T22:36:17.000Z</time></trkpt>
        <trkpt lat="29.3622406" lon="103.0191901"><ele>2451.84</ele><time>2026-05-23T22:36:41.000Z</time></trkpt>
        <trkpt lat="29.3623287" lon="103.0191685"><ele>2447.43</ele><time>2026-05-23T22:37:11.000Z</time></trkpt>
        <trkpt lat="29.3624232" lon="103.0191343"><ele>2443.98</ele><time>2026-05-23T22:37:29.000Z</time></trkpt>
        <trkpt lat="29.3625188" lon="103.01913"><ele>2442.62</ele><time>2026-05-23T22:37:49.000Z</time></trkpt>
        <trkpt lat="29.3626168" lon="103.0191004"><ele>2442.78</ele><time>2026-05-23T22:38:11.000Z</time></trkpt>
        <trkpt lat="29.3626789" lon="103.0190203"><ele>2443.33</ele><time>2026-05-23T22:38:25.000Z</time></trkpt>
        <trkpt lat="29.3627605" lon="103.0189867"><ele>2444.54</ele><time>2026-05-23T22:38:49.000Z</time></trkpt>
        <trkpt lat="29.3628023" lon="103.0190122"><ele>2444.43</ele><time>2026-05-23T22:39:05.000Z</time></trkpt>
        <trkpt lat="29.3628851" lon="103.0190011"><ele>2444.22</ele><time>2026-05-23T22:39:45.000Z</time></trkpt>
        <trkpt lat="29.3629394" lon="103.0189974"><ele>2444.42</ele><time>2026-05-23T22:40:03.000Z</time></trkpt>
        <trkpt lat="29.3630134" lon="103.0189539"><ele>2444.41</ele><time>2026-05-23T22:40:19.000Z</time></trkpt>
        <trkpt lat="29.3631039" lon="103.0189588"><ele>2443.87</ele><time>2026-05-23T22:40:29.000Z</time></trkpt>
        <trkpt lat="29.3631582" lon="103.0190383"><ele>2443.46</ele><time>2026-05-23T22:40:39.000Z</time></trkpt>
        <trkpt lat="29.3631908" lon="103.0191426"><ele>2442.93</ele><time>2026-05-23T22:40:51.000Z</time></trkpt>
        <trkpt lat="29.3632028" lon="103.0192782"><ele>2442.52</ele><time>2026-05-23T22:42:35.000Z</time></trkpt>
        <trkpt lat="29.3631894" lon="103.019387"><ele>2441.63</ele><time>2026-05-23T22:43:21.000Z</time></trkpt>
        <trkpt lat="29.3631757" lon="103.0194961"><ele>2441</ele><time>2026-05-23T22:43:51.000Z</time></trkpt>
        <trkpt lat="29.3631698" lon="103.0196129"><ele>2440.29</ele><time>2026-05-23T22:44:01.000Z</time></trkpt>
        <trkpt lat="29.3632008" lon="103.0197124"><ele>2439.66</ele><time>2026-05-23T22:44:09.000Z</time></trkpt>
        <trkpt lat="29.3632832" lon="103.0197795"><ele>2439.18</ele><time>2026-05-23T22:44:19.000Z</time></trkpt>
        <trkpt lat="29.3633443" lon="103.0197762"><ele>2438.67</ele><time>2026-05-23T22:44:33.000Z</time></trkpt>
        <trkpt lat="29.3634336" lon="103.0197892"><ele>2437.29</ele><time>2026-05-23T22:45:01.000Z</time></trkpt>
        <trkpt lat="29.3635399" lon="103.0197462"><ele>2437.43</ele><time>2026-05-23T22:45:09.000Z</time></trkpt>
        <trkpt lat="29.36363" lon="103.0196604"><ele>2437.34</ele><time>2026-05-23T22:45:17.000Z</time></trkpt>
        <trkpt lat="29.3637046" lon="103.0195555"><ele>2436.95</ele><time>2026-05-23T22:45:25.000Z</time></trkpt>
        <trkpt lat="29.3637617" lon="103.0194399"><ele>2436.62</ele><time>2026-05-23T22:45:33.000Z</time></trkpt>
        <trkpt lat="29.3638086" lon="103.0193229"><ele>2436.49</ele><time>2026-05-23T22:45:41.000Z</time></trkpt>
        <trkpt lat="29.3638297" lon="103.0192093"><ele>2436.47</ele><time>2026-05-23T22:45:51.000Z</time></trkpt>
        <trkpt lat="29.3638601" lon="103.0191069"><ele>2436.13</ele><time>2026-05-23T22:46:05.000Z</time></trkpt>
        <trkpt lat="29.3638933" lon="103.0190018"><ele>2436.37</ele><time>2026-05-23T22:46:27.000Z</time></trkpt>
        <trkpt lat="29.3639024" lon="103.0188856"><ele>2435.79</ele><time>2026-05-23T22:46:37.000Z</time></trkpt>
        <trkpt lat="29.3639257" lon="103.0187629"><ele>2435.65</ele><time>2026-05-23T22:46:47.000Z</time></trkpt>
        <trkpt lat="29.3639654" lon="103.0186432"><ele>2435.7</ele><time>2026-05-23T22:46:57.000Z</time></trkpt>
        <trkpt lat="29.3639912" lon="103.0185224"><ele>2435.52</ele><time>2026-05-23T22:47:07.000Z</time></trkpt>
        <trkpt lat="29.3640133" lon="103.0184113"><ele>2435.32</ele><time>2026-05-23T22:47:19.000Z</time></trkpt>
        <trkpt lat="29.3640347" lon="103.0182907"><ele>2434.6</ele><time>2026-05-23T22:47:29.000Z</time></trkpt>
        <trkpt lat="29.3640859" lon="103.0182019"><ele>2434</ele><time>2026-05-23T22:47:37.000Z</time></trkpt>
        <trkpt lat="29.3641415" lon="103.0181152"><ele>2433.39</ele><time>2026-05-23T22:47:43.000Z</time></trkpt>
        <trkpt lat="29.3642132" lon="103.0180341"><ele>2433.5</ele><time>2026-05-23T22:47:51.000Z</time></trkpt>
        <trkpt lat="29.3642925" lon="103.0179593"><ele>2433.04</ele><time>2026-05-23T22:47:59.000Z</time></trkpt>
        <trkpt lat="29.3643593" lon="103.0179119"><ele>2432.26</ele><time>2026-05-23T22:48:05.000Z</time></trkpt>
        <trkpt lat="29.3644347" lon="103.0178648"><ele>2431.36</ele><time>2026-05-23T22:48:47.000Z</time></trkpt>
        <trkpt lat="29.3644836" lon="103.0177712"><ele>2432.86</ele><time>2026-05-23T22:48:55.000Z</time></trkpt>
        <trkpt lat="29.3645541" lon="103.0176893"><ele>2432.71</ele><time>2026-05-23T22:49:05.000Z</time></trkpt>
        <trkpt lat="29.3646393" lon="103.0176201"><ele>2432.22</ele><time>2026-05-23T22:49:15.000Z</time></trkpt>
        <trkpt lat="29.3647356" lon="103.0175585"><ele>2431.02</ele><time>2026-05-23T22:49:25.000Z</time></trkpt>
        <trkpt lat="29.3647444" lon="103.0174828"><ele>2429.79</ele><time>2026-05-23T22:49:37.000Z</time></trkpt>
        <trkpt lat="29.3648111" lon="103.0174447"><ele>2427.57</ele><time>2026-05-23T22:49:49.000Z</time></trkpt>
        <trkpt lat="29.3648817" lon="103.0173659"><ele>2426.08</ele><time>2026-05-23T22:49:59.000Z</time></trkpt>
        <trkpt lat="29.3649466" lon="103.0172843"><ele>2424.23</ele><time>2026-05-23T22:50:07.000Z</time></trkpt>
        <trkpt lat="29.365004" lon="103.0171928"><ele>2422.77</ele><time>2026-05-23T22:50:15.000Z</time></trkpt>
        <trkpt lat="29.3650593" lon="103.0170956"><ele>2421.2</ele><time>2026-05-23T22:50:23.000Z</time></trkpt>
        <trkpt lat="29.3651275" lon="103.0170065"><ele>2420.08</ele><time>2026-05-23T22:50:31.000Z</time></trkpt>
        <trkpt lat="29.3651884" lon="103.0169105"><ele>2418.98</ele><time>2026-05-23T22:50:39.000Z</time></trkpt>
        <trkpt lat="29.3652397" lon="103.0168076"><ele>2417.87</ele><time>2026-05-23T22:50:47.000Z</time></trkpt>
        <trkpt lat="29.3652964" lon="103.0167067"><ele>2417.18</ele><time>2026-05-23T22:50:55.000Z</time></trkpt>
        <trkpt lat="29.365367" lon="103.0166188"><ele>2416.72</ele><time>2026-05-23T22:51:03.000Z</time></trkpt>
        <trkpt lat="29.3654524" lon="103.0165443"><ele>2416.31</ele><time>2026-05-23T22:51:11.000Z</time></trkpt>
        <trkpt lat="29.3655442" lon="103.0164829"><ele>2415.87</ele><time>2026-05-23T22:51:19.000Z</time></trkpt>
        <trkpt lat="29.3656355" lon="103.0164277"><ele>2415.27</ele><time>2026-05-23T22:51:27.000Z</time></trkpt>
        <trkpt lat="29.3656662" lon="103.0164144"><ele>2414.24</ele><time>2026-05-23T22:51:33.000Z</time></trkpt>
        <trkpt lat="29.3657369" lon="103.0163651"><ele>2413.76</ele><time>2026-05-23T22:51:45.000Z</time></trkpt>
        <trkpt lat="29.3658175" lon="103.0162917"><ele>2412.5</ele><time>2026-05-23T22:51:51.000Z</time></trkpt>
        <trkpt lat="29.3658945" lon="103.0162119"><ele>2411.04</ele><time>2026-05-23T22:51:57.000Z</time></trkpt>
        <trkpt lat="29.3659828" lon="103.0161456"><ele>2409.38</ele><time>2026-05-23T22:52:05.000Z</time></trkpt>
        <trkpt lat="29.3660666" lon="103.0160898"><ele>2407.83</ele><time>2026-05-23T22:52:13.000Z</time></trkpt>
        <trkpt lat="29.3661457" lon="103.0160351"><ele>2406.57</ele><time>2026-05-23T22:52:21.000Z</time></trkpt>
        <trkpt lat="29.366231" lon="103.0159943"><ele>2405.3</ele><time>2026-05-23T22:52:29.000Z</time></trkpt>
        <trkpt lat="29.3663268" lon="103.0159481"><ele>2404.34</ele><time>2026-05-23T22:52:39.000Z</time></trkpt>
        <trkpt lat="29.3664184" lon="103.0159108"><ele>2403.74</ele><time>2026-05-23T22:52:47.000Z</time></trkpt>
        <trkpt lat="29.3665184" lon="103.0158964"><ele>2404.11</ele><time>2026-05-23T22:52:57.000Z</time></trkpt>
        <trkpt lat="29.3666241" lon="103.0158934"><ele>2405.59</ele><time>2026-05-23T22:53:07.000Z</time></trkpt>
        <trkpt lat="29.3667342" lon="103.015891"><ele>2406.06</ele><time>2026-05-23T22:53:17.000Z</time></trkpt>
        <trkpt lat="29.3668055" lon="103.0159181"><ele>2406.11</ele><time>2026-05-23T22:53:25.000Z</time></trkpt>
        <trkpt lat="29.3668738" lon="103.0158809"><ele>2406.77</ele><time>2026-05-23T22:53:55.000Z</time></trkpt>
        <trkpt lat="29.3669642" lon="103.0158759"><ele>2404.84</ele><time>2026-05-23T22:54:03.000Z</time></trkpt>
        <trkpt lat="29.3670635" lon="103.0158889"><ele>2403.94</ele><time>2026-05-23T22:54:11.000Z</time></trkpt>
        <trkpt lat="29.3671659" lon="103.0159192"><ele>2403.78</ele><time>2026-05-23T22:54:21.000Z</time></trkpt>
        <trkpt lat="29.3672203" lon="103.0159414"><ele>2403.9</ele><time>2026-05-23T22:54:29.000Z</time></trkpt>
        <trkpt lat="29.36721" lon="103.016034"><ele>2404.16</ele><time>2026-05-23T22:54:45.000Z</time></trkpt>
        <trkpt lat="29.3671481" lon="103.0161254"><ele>2403.06</ele><time>2026-05-23T22:55:09.000Z</time></trkpt>
        <trkpt lat="29.3671026" lon="103.0162304"><ele>2399.91</ele><time>2026-05-23T22:55:33.000Z</time></trkpt>
        <trkpt lat="29.3670378" lon="103.0163292"><ele>2394.25</ele><time>2026-05-23T22:55:47.000Z</time></trkpt>
        <trkpt lat="29.3670131" lon="103.016433"><ele>2389.16</ele><time>2026-05-23T22:56:05.000Z</time></trkpt>
        <trkpt lat="29.3670154" lon="103.0165385"><ele>2383.66</ele><time>2026-05-23T22:56:23.000Z</time></trkpt>
        <trkpt lat="29.3669716" lon="103.016628"><ele>2378.33</ele><time>2026-05-23T22:56:41.000Z</time></trkpt>
        <trkpt lat="29.3668874" lon="103.0166828"><ele>2372.9</ele><time>2026-05-23T22:57:11.000Z</time></trkpt>
        <trkpt lat="29.3668046" lon="103.0167451"><ele>2365.36</ele><time>2026-05-23T22:57:45.000Z</time></trkpt>
        <trkpt lat="29.3667203" lon="103.0167956"><ele>2358.04</ele><time>2026-05-23T22:58:27.000Z</time></trkpt>
        <trkpt lat="29.3666627" lon="103.0168731"><ele>2352.56</ele><time>2026-05-23T22:58:49.000Z</time></trkpt>
        <trkpt lat="29.3666021" lon="103.0169642"><ele>2346.72</ele><time>2026-05-23T22:59:09.000Z</time></trkpt>
        <trkpt lat="29.3665067" lon="103.0170032"><ele>2340.77</ele><time>2026-05-23T22:59:19.000Z</time></trkpt>
        <trkpt lat="29.3664486" lon="103.0170632"><ele>2337</ele><time>2026-05-23T22:59:29.000Z</time></trkpt>
        <trkpt lat="29.3663485" lon="103.0170742"><ele>2336.46</ele><time>2026-05-23T23:02:13.000Z</time></trkpt>
        <trkpt lat="29.3662543" lon="103.0171399"><ele>2333.64</ele><time>2026-05-23T23:02:23.000Z</time></trkpt>
        <trkpt lat="29.36618" lon="103.0172082"><ele>2331.44</ele><time>2026-05-23T23:02:31.000Z</time></trkpt>
        <trkpt lat="29.3661222" lon="103.017294"><ele>2329.83</ele><time>2026-05-23T23:02:39.000Z</time></trkpt>
        <trkpt lat="29.3660645" lon="103.0173872"><ele>2328.59</ele><time>2026-05-23T23:02:47.000Z</time></trkpt>
        <trkpt lat="29.3660099" lon="103.0174784"><ele>2327.36</ele><time>2026-05-23T23:02:55.000Z</time></trkpt>
        <trkpt lat="29.3659506" lon="103.017558"><ele>2326.53</ele><time>2026-05-23T23:03:03.000Z</time></trkpt>
        <trkpt lat="29.3659062" lon="103.0176088"><ele>2325.92</ele><time>2026-05-23T23:03:11.000Z</time></trkpt>
        <trkpt lat="29.3658334" lon="103.0176716"><ele>2325.23</ele><time>2026-05-23T23:03:21.000Z</time></trkpt>
        <trkpt lat="29.3657646" lon="103.017743"><ele>2325.03</ele><time>2026-05-23T23:03:29.000Z</time></trkpt>
        <trkpt lat="29.3656967" lon="103.0178137"><ele>2324.47</ele><time>2026-05-23T23:03:37.000Z</time></trkpt>
        <trkpt lat="29.3656244" lon="103.0178844"><ele>2323.75</ele><time>2026-05-23T23:03:45.000Z</time></trkpt>
        <trkpt lat="29.3655513" lon="103.0179502"><ele>2322.97</ele><time>2026-05-23T23:03:53.000Z</time></trkpt>
        <trkpt lat="29.3654783" lon="103.018025"><ele>2322.3</ele><time>2026-05-23T23:04:03.000Z</time></trkpt>
        <trkpt lat="29.3654169" lon="103.0181068"><ele>2322.06</ele><time>2026-05-23T23:04:13.000Z</time></trkpt>
        <trkpt lat="29.3653996" lon="103.0181787"><ele>2321.59</ele><time>2026-05-23T23:04:19.000Z</time></trkpt>
        <trkpt lat="29.3654321" lon="103.0180637"><ele>2321.42</ele><time>2026-05-23T23:05:27.000Z</time></trkpt>
        <trkpt lat="29.3655022" lon="103.0179982"><ele>2322.21</ele><time>2026-05-23T23:05:35.000Z</time></trkpt>
        <trkpt lat="29.3655739" lon="103.0179229"><ele>2322.5</ele><time>2026-05-23T23:05:45.000Z</time></trkpt>
        <trkpt lat="29.3656488" lon="103.0178603"><ele>2322.42</ele><time>2026-05-23T23:05:53.000Z</time></trkpt>
        <trkpt lat="29.3657189" lon="103.017792"><ele>2322.8</ele><time>2026-05-23T23:06:01.000Z</time></trkpt>
        <trkpt lat="29.365787" lon="103.0177205"><ele>2323.5</ele><time>2026-05-23T23:06:09.000Z</time></trkpt>
        <trkpt lat="29.3658543" lon="103.0176493"><ele>2324.14</ele><time>2026-05-23T23:06:17.000Z</time></trkpt>
        <trkpt lat="29.365924" lon="103.0175775"><ele>2324.95</ele><time>2026-05-23T23:06:27.000Z</time></trkpt>
        <trkpt lat="29.3659933" lon="103.0175024"><ele>2325.39</ele><time>2026-05-23T23:06:35.000Z</time></trkpt>
        <trkpt lat="29.366057" lon="103.0174178"><ele>2325.78</ele><time>2026-05-23T23:06:43.000Z</time></trkpt>
        <trkpt lat="29.3661167" lon="103.0173293"><ele>2326.17</ele><time>2026-05-23T23:06:51.000Z</time></trkpt>
        <trkpt lat="29.366168" lon="103.0172342"><ele>2326.66</ele><time>2026-05-23T23:06:59.000Z</time></trkpt>
        <trkpt lat="29.3662381" lon="103.0171549"><ele>2326.98</ele><time>2026-05-23T23:07:07.000Z</time></trkpt>
        <trkpt lat="29.3663174" lon="103.0170924"><ele>2327.69</ele><time>2026-05-23T23:07:15.000Z</time></trkpt>
        <trkpt lat="29.3663976" lon="103.0170384"><ele>2328.48</ele><time>2026-05-23T23:07:23.000Z</time></trkpt>
        <trkpt lat="29.3664931" lon="103.0169977"><ele>2329.27</ele><time>2026-05-23T23:07:33.000Z</time></trkpt>
        <trkpt lat="29.3665866" lon="103.0169824"><ele>2329.78</ele><time>2026-05-23T23:07:41.000Z</time></trkpt>
        <trkpt lat="29.3666696" lon="103.0170067"><ele>2330.34</ele><time>2026-05-23T23:07:53.000Z</time></trkpt>
        <trkpt lat="29.3666293" lon="103.0171421"><ele>2331.22</ele><time>2026-05-23T23:10:37.000Z</time></trkpt>
        <trkpt lat="29.3665668" lon="103.0172262"><ele>2328.74</ele><time>2026-05-23T23:11:23.000Z</time></trkpt>
        <trkpt lat="29.3665817" lon="103.0173275"><ele>2323.11</ele><time>2026-05-23T23:11:53.000Z</time></trkpt>
        <trkpt lat="29.3665509" lon="103.0174189"><ele>2317.01</ele><time>2026-05-23T23:12:21.000Z</time></trkpt>
        <trkpt lat="29.3665338" lon="103.0175253"><ele>2310.34</ele><time>2026-05-23T23:12:55.000Z</time></trkpt>
        <trkpt lat="29.3665092" lon="103.0176364"><ele>2303.19</ele><time>2026-05-23T23:13:17.000Z</time></trkpt>
        <trkpt lat="29.3665768" lon="103.0176681"><ele>2297.31</ele><time>2026-05-23T23:14:03.000Z</time></trkpt>
        <trkpt lat="29.3665431" lon="103.0176683"><ele>2293.6</ele><time>2026-05-23T23:14:39.000Z</time></trkpt>
        <trkpt lat="29.3666184" lon="103.0176324"><ele>2292.15</ele><time>2026-05-23T23:22:45.000Z</time></trkpt>
        <trkpt lat="29.3667139" lon="103.017674"><ele>2290.36</ele><time>2026-05-23T23:22:51.000Z</time></trkpt>
        <trkpt lat="29.3668247" lon="103.0176838"><ele>2289.15</ele><time>2026-05-23T23:22:59.000Z</time></trkpt>
        <trkpt lat="29.3669176" lon="103.0177169"><ele>2288.6</ele><time>2026-05-23T23:23:07.000Z</time></trkpt>
        <trkpt lat="29.3670143" lon="103.0177561"><ele>2287.55</ele><time>2026-05-23T23:23:15.000Z</time></trkpt>
        <trkpt lat="29.367108" lon="103.0178011"><ele>2286.48</ele><time>2026-05-23T23:23:23.000Z</time></trkpt>
        <trkpt lat="29.3671861" lon="103.0178627"><ele>2285.15</ele><time>2026-05-23T23:23:31.000Z</time></trkpt>
        <trkpt lat="29.3672774" lon="103.017926"><ele>2283.61</ele><time>2026-05-23T23:23:41.000Z</time></trkpt>
        <trkpt lat="29.3673606" lon="103.0179948"><ele>2281.7</ele><time>2026-05-23T23:23:49.000Z</time></trkpt>
        <trkpt lat="29.3674445" lon="103.0180646"><ele>2280.24</ele><time>2026-05-23T23:23:57.000Z</time></trkpt>
        <trkpt lat="29.3675238" lon="103.0181497"><ele>2278.8</ele><time>2026-05-23T23:24:05.000Z</time></trkpt>
        <trkpt lat="29.3676174" lon="103.0182161"><ele>2278.09</ele><time>2026-05-23T23:24:13.000Z</time></trkpt>
        <trkpt lat="29.3676956" lon="103.0182941"><ele>2277.43</ele><time>2026-05-23T23:24:21.000Z</time></trkpt>
        <trkpt lat="29.3677855" lon="103.0183528"><ele>2277.38</ele><time>2026-05-23T23:24:29.000Z</time></trkpt>
        <trkpt lat="29.367888" lon="103.0183941"><ele>2277.06</ele><time>2026-05-23T23:24:37.000Z</time></trkpt>
        <trkpt lat="29.3679924" lon="103.0183698"><ele>2276.17</ele><time>2026-05-23T23:24:45.000Z</time></trkpt>
        <trkpt lat="29.3680727" lon="103.0182876"><ele>2275.12</ele><time>2026-05-23T23:24:53.000Z</time></trkpt>
        <trkpt lat="29.3681534" lon="103.0181962"><ele>2273.89</ele><time>2026-05-23T23:25:01.000Z</time></trkpt>
        <trkpt lat="29.3682425" lon="103.0181647"><ele>2272.62</ele><time>2026-05-23T23:25:13.000Z</time></trkpt>
        <trkpt lat="29.3683004" lon="103.01808"><ele>2273.07</ele><time>2026-05-23T23:25:25.000Z</time></trkpt>
        <trkpt lat="29.3683837" lon="103.0180048"><ele>2270.82</ele><time>2026-05-23T23:25:35.000Z</time></trkpt>
        <trkpt lat="29.3684814" lon="103.0179956"><ele>2269.72</ele><time>2026-05-23T23:25:43.000Z</time></trkpt>
        <trkpt lat="29.3685834" lon="103.0180147"><ele>2268.06</ele><time>2026-05-23T23:25:51.000Z</time></trkpt>
        <trkpt lat="29.3686802" lon="103.01803"><ele>2267.51</ele><time>2026-05-23T23:25:59.000Z</time></trkpt>
        <trkpt lat="29.3687863" lon="103.0180636"><ele>2267.61</ele><time>2026-05-23T23:26:09.000Z</time></trkpt>
        <trkpt lat="29.3688861" lon="103.0180771"><ele>2267.78</ele><time>2026-05-23T23:26:17.000Z</time></trkpt>
        <trkpt lat="29.3689716" lon="103.0181184"><ele>2267.73</ele><time>2026-05-23T23:26:25.000Z</time></trkpt>
        <trkpt lat="29.3690706" lon="103.0181646"><ele>2268.07</ele><time>2026-05-23T23:26:35.000Z</time></trkpt>
        <trkpt lat="29.3691283" lon="103.0182108"><ele>2267.24</ele><time>2026-05-23T23:26:41.000Z</time></trkpt>
        <trkpt lat="29.3691871" lon="103.018289"><ele>2267.81</ele><time>2026-05-23T23:26:53.000Z</time></trkpt>
        <trkpt lat="29.3692386" lon="103.0183918"><ele>2269.25</ele><time>2026-05-23T23:27:03.000Z</time></trkpt>
        <trkpt lat="29.3692609" lon="103.0185066"><ele>2268.33</ele><time>2026-05-23T23:27:11.000Z</time></trkpt>
        <trkpt lat="29.3692992" lon="103.0186134"><ele>2267.49</ele><time>2026-05-23T23:27:19.000Z</time></trkpt>
        <trkpt lat="29.3693445" lon="103.0187092"><ele>2266.19</ele><time>2026-05-23T23:27:27.000Z</time></trkpt>
        <trkpt lat="29.369414" lon="103.0188035"><ele>2266.03</ele><time>2026-05-23T23:27:37.000Z</time></trkpt>
        <trkpt lat="29.3694984" lon="103.0188623"><ele>2264.71</ele><time>2026-05-23T23:27:45.000Z</time></trkpt>
        <trkpt lat="29.3696001" lon="103.0189088"><ele>2263.1</ele><time>2026-05-23T23:27:55.000Z</time></trkpt>
        <trkpt lat="29.3696955" lon="103.0189399"><ele>2261.69</ele><time>2026-05-23T23:28:03.000Z</time></trkpt>
        <trkpt lat="29.369781" lon="103.0188991"><ele>2261.82</ele><time>2026-05-23T23:28:11.000Z</time></trkpt>
        <trkpt lat="29.369871" lon="103.0188545"><ele>2260.73</ele><time>2026-05-23T23:28:19.000Z</time></trkpt>
        <trkpt lat="29.3699633" lon="103.0188152"><ele>2259.74</ele><time>2026-05-23T23:28:27.000Z</time></trkpt>
        <trkpt lat="29.3700591" lon="103.0187795"><ele>2260.4</ele><time>2026-05-23T23:28:35.000Z</time></trkpt>
        <trkpt lat="29.3701485" lon="103.0188144"><ele>2260.29</ele><time>2026-05-23T23:28:45.000Z</time></trkpt>
        <trkpt lat="29.37022" lon="103.0188956"><ele>2259.47</ele><time>2026-05-23T23:28:57.000Z</time></trkpt>
        <trkpt lat="29.3702781" lon="103.0189855"><ele>2258.04</ele><time>2026-05-23T23:29:05.000Z</time></trkpt>
        <trkpt lat="29.3703439" lon="103.0190636"><ele>2256.95</ele><time>2026-05-23T23:29:13.000Z</time></trkpt>
        <trkpt lat="29.3704207" lon="103.0191266"><ele>2256.03</ele><time>2026-05-23T23:29:21.000Z</time></trkpt>
        <trkpt lat="29.3705075" lon="103.0191807"><ele>2254.45</ele><time>2026-05-23T23:29:29.000Z</time></trkpt>
        <trkpt lat="29.3705877" lon="103.0192485"><ele>2252.9</ele><time>2026-05-23T23:29:37.000Z</time></trkpt>
        <trkpt lat="29.3706762" lon="103.0193172"><ele>2251.69</ele><time>2026-05-23T23:29:47.000Z</time></trkpt>
        <trkpt lat="29.370763" lon="103.0193632"><ele>2250.65</ele><time>2026-05-23T23:29:55.000Z</time></trkpt>
        <trkpt lat="29.3708508" lon="103.0193935"><ele>2248.98</ele><time>2026-05-23T23:30:03.000Z</time></trkpt>
        <trkpt lat="29.3708573" lon="103.0194842"><ele>2247.53</ele><time>2026-05-23T23:30:13.000Z</time></trkpt>
        <trkpt lat="29.3707819" lon="103.0195105"><ele>2245.84</ele><time>2026-05-23T23:30:21.000Z</time></trkpt>
        <trkpt lat="29.3706863" lon="103.0194778"><ele>2244.5</ele><time>2026-05-23T23:30:31.000Z</time></trkpt>
        <trkpt lat="29.3705822" lon="103.0194069"><ele>2243.78</ele><time>2026-05-23T23:30:41.000Z</time></trkpt>
        <trkpt lat="29.3704905" lon="103.0193214"><ele>2243.6</ele><time>2026-05-23T23:30:51.000Z</time></trkpt>
        <trkpt lat="29.3703985" lon="103.0192537"><ele>2244.37</ele><time>2026-05-23T23:31:01.000Z</time></trkpt>
        <trkpt lat="29.3703066" lon="103.0192016"><ele>2244.96</ele><time>2026-05-23T23:31:17.000Z</time></trkpt>
        <trkpt lat="29.3702102" lon="103.0191682"><ele>2244.27</ele><time>2026-05-23T23:31:27.000Z</time></trkpt>
        <trkpt lat="29.3701448" lon="103.019077"><ele>2243.47</ele><time>2026-05-23T23:31:37.000Z</time></trkpt>
        <trkpt lat="29.370086" lon="103.0189864"><ele>2243.77</ele><time>2026-05-23T23:31:47.000Z</time></trkpt>
        <trkpt lat="29.3699994" lon="103.018958"><ele>2244.16</ele><time>2026-05-23T23:31:57.000Z</time></trkpt>
        <trkpt lat="29.369904" lon="103.0189988"><ele>2244.41</ele><time>2026-05-23T23:32:07.000Z</time></trkpt>
        <trkpt lat="29.369811" lon="103.0190424"><ele>2244.76</ele><time>2026-05-23T23:32:17.000Z</time></trkpt>
        <trkpt lat="29.3697079" lon="103.0190888"><ele>2245.04</ele><time>2026-05-23T23:32:27.000Z</time></trkpt>
        <trkpt lat="29.3696078" lon="103.0191426"><ele>2245.08</ele><time>2026-05-23T23:32:37.000Z</time></trkpt>
        <trkpt lat="29.369527" lon="103.0192067"><ele>2244.18</ele><time>2026-05-23T23:32:45.000Z</time></trkpt>
        <trkpt lat="29.3694241" lon="103.0192357"><ele>2243.55</ele><time>2026-05-23T23:32:55.000Z</time></trkpt>
        <trkpt lat="29.3693269" lon="103.019233"><ele>2242.6</ele><time>2026-05-23T23:33:03.000Z</time></trkpt>
        <trkpt lat="29.3692373" lon="103.0192035"><ele>2241.35</ele><time>2026-05-23T23:33:11.000Z</time></trkpt>
        <trkpt lat="29.3691491" lon="103.0191535"><ele>2240.13</ele><time>2026-05-23T23:33:19.000Z</time></trkpt>
        <trkpt lat="29.3690745" lon="103.0190741"><ele>2239.16</ele><time>2026-05-23T23:33:27.000Z</time></trkpt>
        <trkpt lat="29.369017" lon="103.0189734"><ele>2237.65</ele><time>2026-05-23T23:33:35.000Z</time></trkpt>
        <trkpt lat="29.3689584" lon="103.0188758"><ele>2236.64</ele><time>2026-05-23T23:33:43.000Z</time></trkpt>
        <trkpt lat="29.3689112" lon="103.0187789"><ele>2236.42</ele><time>2026-05-23T23:33:51.000Z</time></trkpt>
        <trkpt lat="29.3688471" lon="103.0186802"><ele>2236.12</ele><time>2026-05-23T23:34:01.000Z</time></trkpt>
        <trkpt lat="29.3687661" lon="103.0186231"><ele>2235.98</ele><time>2026-05-23T23:34:13.000Z</time></trkpt>
        <trkpt lat="29.3686718" lon="103.0186239"><ele>2234.71</ele><time>2026-05-23T23:34:23.000Z</time></trkpt>
        <trkpt lat="29.3685786" lon="103.0186455"><ele>2233.95</ele><time>2026-05-23T23:34:33.000Z</time></trkpt>
        <trkpt lat="29.3684732" lon="103.018647"><ele>2233.72</ele><time>2026-05-23T23:34:43.000Z</time></trkpt>
        <trkpt lat="29.3683733" lon="103.0186734"><ele>2234.03</ele><time>2026-05-23T23:34:51.000Z</time></trkpt>
        <trkpt lat="29.3682918" lon="103.0187402"><ele>2233.35</ele><time>2026-05-23T23:34:59.000Z</time></trkpt>
        <trkpt lat="29.3682293" lon="103.0188263"><ele>2232.83</ele><time>2026-05-23T23:35:07.000Z</time></trkpt>
        <trkpt lat="29.368178" lon="103.0189205"><ele>2232.58</ele><time>2026-05-23T23:35:15.000Z</time></trkpt>
        <trkpt lat="29.3681371" lon="103.0190208"><ele>2232.74</ele><time>2026-05-23T23:35:23.000Z</time></trkpt>
        <trkpt lat="29.3680736" lon="103.0191079"><ele>2234.05</ele><time>2026-05-23T23:35:31.000Z</time></trkpt>
        <trkpt lat="29.3679881" lon="103.0191584"><ele>2234.85</ele><time>2026-05-23T23:35:39.000Z</time></trkpt>
        <trkpt lat="29.3678813" lon="103.0191429"><ele>2234.79</ele><time>2026-05-23T23:35:47.000Z</time></trkpt>
        <trkpt lat="29.3677795" lon="103.0190867"><ele>2232.81</ele><time>2026-05-23T23:35:55.000Z</time></trkpt>
        <trkpt lat="29.3676845" lon="103.0190231"><ele>2230.45</ele><time>2026-05-23T23:36:03.000Z</time></trkpt>
        <trkpt lat="29.3675887" lon="103.0189617"><ele>2228.6</ele><time>2026-05-23T23:36:11.000Z</time></trkpt>
        <trkpt lat="29.3674962" lon="103.0189101"><ele>2226.88</ele><time>2026-05-23T23:36:19.000Z</time></trkpt>
        <trkpt lat="29.3674098" lon="103.0188597"><ele>2225.2</ele><time>2026-05-23T23:36:27.000Z</time></trkpt>
        <trkpt lat="29.3673179" lon="103.0188343"><ele>2223.96</ele><time>2026-05-23T23:36:35.000Z</time></trkpt>
        <trkpt lat="29.3672227" lon="103.0188247"><ele>2223.59</ele><time>2026-05-23T23:36:43.000Z</time></trkpt>
        <trkpt lat="29.3671302" lon="103.0188334"><ele>2223.2</ele><time>2026-05-23T23:36:51.000Z</time></trkpt>
        <trkpt lat="29.367037" lon="103.0188519"><ele>2222.69</ele><time>2026-05-23T23:36:59.000Z</time></trkpt>
        <trkpt lat="29.3669385" lon="103.0188502"><ele>2222.39</ele><time>2026-05-23T23:37:07.000Z</time></trkpt>
        <trkpt lat="29.3668565" lon="103.0188979"><ele>2222.38</ele><time>2026-05-23T23:37:17.000Z</time></trkpt>
        <trkpt lat="29.3668525" lon="103.0189305"><ele>2222.34</ele><time>2026-05-23T23:37:21.000Z</time></trkpt>
        <trkpt lat="29.3669006" lon="103.019017"><ele>2222.81</ele><time>2026-05-23T23:38:05.000Z</time></trkpt>
        <trkpt lat="29.3669154" lon="103.0191248"><ele>2219.36</ele><time>2026-05-23T23:38:31.000Z</time></trkpt>
        <trkpt lat="29.3669604" lon="103.0192245"><ele>2214.78</ele><time>2026-05-23T23:38:57.000Z</time></trkpt>
        <trkpt lat="29.3669977" lon="103.0193326"><ele>2208.83</ele><time>2026-05-23T23:39:19.000Z</time></trkpt>
        <trkpt lat="29.3670334" lon="103.0194375"><ele>2203.17</ele><time>2026-05-23T23:39:31.000Z</time></trkpt>
        <trkpt lat="29.3670282" lon="103.0195414"><ele>2198.59</ele><time>2026-05-23T23:39:51.000Z</time></trkpt>
        <trkpt lat="29.3670844" lon="103.0196175"><ele>2194.58</ele><time>2026-05-23T23:40:13.000Z</time></trkpt>
        <trkpt lat="29.3671558" lon="103.0196842"><ele>2190.02</ele><time>2026-05-23T23:40:45.000Z</time></trkpt>
        <trkpt lat="29.3672081" lon="103.0197707"><ele>2184.87</ele><time>2026-05-23T23:41:37.000Z</time></trkpt>
        <trkpt lat="29.3672593" lon="103.0198615"><ele>2180.68</ele><time>2026-05-23T23:42:33.000Z</time></trkpt>
        <trkpt lat="29.367319" lon="103.0199482"><ele>2175.12</ele><time>2026-05-23T23:42:49.000Z</time></trkpt>
        <trkpt lat="29.3673436" lon="103.0199833"><ele>2170.49</ele><time>2026-05-23T23:42:53.000Z</time></trkpt>
        <trkpt lat="29.3673976" lon="103.0200442"><ele>2167.68</ele><time>2026-05-23T23:43:27.000Z</time></trkpt>
        <trkpt lat="29.3674647" lon="103.0201146"><ele>2162.94</ele><time>2026-05-23T23:43:49.000Z</time></trkpt>
        <trkpt lat="29.3675438" lon="103.0201699"><ele>2158.59</ele><time>2026-05-23T23:44:01.000Z</time></trkpt>
        <trkpt lat="29.3675504" lon="103.0202609"><ele>2154.95</ele><time>2026-05-23T23:44:59.000Z</time></trkpt>
        <trkpt lat="29.3675812" lon="103.0203558"><ele>2151.14</ele><time>2026-05-23T23:45:13.000Z</time></trkpt>
        <trkpt lat="29.3676728" lon="103.0204147"><ele>2147.3</ele><time>2026-05-23T23:45:31.000Z</time></trkpt>
        <trkpt lat="29.3677136" lon="103.0204705"><ele>2144.49</ele><time>2026-05-23T23:45:47.000Z</time></trkpt>
        <trkpt lat="29.3677061" lon="103.0205579"><ele>2141.64</ele><time>2026-05-23T23:45:57.000Z</time></trkpt>
        <trkpt lat="29.3677735" lon="103.0205975"><ele>2141.38</ele><time>2026-05-23T23:46:17.000Z</time></trkpt>
        <trkpt lat="29.367873" lon="103.0206021"><ele>2138.73</ele><time>2026-05-23T23:46:37.000Z</time></trkpt>
        <trkpt lat="29.3679616" lon="103.0206484"><ele>2133.9</ele><time>2026-05-23T23:47:01.000Z</time></trkpt>
        <trkpt lat="29.3680131" lon="103.0207359"><ele>2128.94</ele><time>2026-05-23T23:47:19.000Z</time></trkpt>
        <trkpt lat="29.3680573" lon="103.0208327"><ele>2124.02</ele><time>2026-05-23T23:47:39.000Z</time></trkpt>
        <trkpt lat="29.3680604" lon="103.0209387"><ele>2119.98</ele><time>2026-05-23T23:47:59.000Z</time></trkpt>
        <trkpt lat="29.3680741" lon="103.0209915"><ele>2116.55</ele><time>2026-05-23T23:48:09.000Z</time></trkpt>
        <trkpt lat="29.3681107" lon="103.0210692"><ele>2113.24</ele><time>2026-05-23T23:48:43.000Z</time></trkpt>
        <trkpt lat="29.368188" lon="103.0211181"><ele>2108.57</ele><time>2026-05-23T23:49:01.000Z</time></trkpt>
        <trkpt lat="29.3682318" lon="103.0212134"><ele>2105.34</ele><time>2026-05-23T23:49:09.000Z</time></trkpt>
        <trkpt lat="29.3682363" lon="103.0212546"><ele>2105.15</ele><time>2026-05-23T23:49:13.000Z</time></trkpt>
        <trkpt lat="29.3683002" lon="103.0212635"><ele>2104.75</ele><time>2026-05-23T23:49:33.000Z</time></trkpt>
        <trkpt lat="29.3683125" lon="103.0212663"><ele>2101.03</ele><time>2026-05-23T23:49:41.000Z</time></trkpt>
        <trkpt lat="29.3683275" lon="103.0213416"><ele>2098.39</ele><time>2026-05-23T23:50:03.000Z</time></trkpt>
        <trkpt lat="29.3683087" lon="103.0214639"><ele>2093.57</ele><time>2026-05-23T23:52:53.000Z</time></trkpt>
        <trkpt lat="29.3682659" lon="103.0215551"><ele>2087.63</ele><time>2026-05-23T23:53:05.000Z</time></trkpt>
        <trkpt lat="29.3682976" lon="103.0216461"><ele>2085.66</ele><time>2026-05-23T23:53:23.000Z</time></trkpt>
        <trkpt lat="29.3682898" lon="103.0217485"><ele>2081.69</ele><time>2026-05-23T23:53:37.000Z</time></trkpt>
        <trkpt lat="29.3682853" lon="103.0218551"><ele>2077.95</ele><time>2026-05-23T23:53:53.000Z</time></trkpt>
        <trkpt lat="29.3682636" lon="103.0219745"><ele>2073.81</ele><time>2026-05-23T23:54:11.000Z</time></trkpt>
        <trkpt lat="29.3682497" lon="103.0220861"><ele>2069.43</ele><time>2026-05-23T23:54:29.000Z</time></trkpt>
        <trkpt lat="29.3682488" lon="103.0221129"><ele>2064.18</ele><time>2026-05-23T23:54:33.000Z</time></trkpt>
        <trkpt lat="29.3682437" lon="103.0221972"><ele>2060.92</ele><time>2026-05-23T23:55:25.000Z</time></trkpt>
        <trkpt lat="29.3682088" lon="103.022315"><ele>2055.41</ele><time>2026-05-23T23:55:33.000Z</time></trkpt>
        <trkpt lat="29.3681943" lon="103.0224311"><ele>2050.31</ele><time>2026-05-23T23:55:39.000Z</time></trkpt>
        <trkpt lat="29.36824" lon="103.0225261"><ele>2045.82</ele><time>2026-05-23T23:55:47.000Z</time></trkpt>
        <trkpt lat="29.3682964" lon="103.022617"><ele>2041.99</ele><time>2026-05-23T23:55:57.000Z</time></trkpt>
        <trkpt lat="29.3683593" lon="103.0227025"><ele>2037.67</ele><time>2026-05-23T23:56:05.000Z</time></trkpt>
        <trkpt lat="29.3684143" lon="103.0228002"><ele>2033.58</ele><time>2026-05-23T23:56:13.000Z</time></trkpt>
        <trkpt lat="29.3684188" lon="103.0229162"><ele>2029.43</ele><time>2026-05-23T23:56:23.000Z</time></trkpt>
        <trkpt lat="29.3684473" lon="103.0230329"><ele>2025.15</ele><time>2026-05-23T23:56:33.000Z</time></trkpt>
        <trkpt lat="29.3684857" lon="103.0231357"><ele>2020.95</ele><time>2026-05-23T23:56:39.000Z</time></trkpt>
        <trkpt lat="29.3685332" lon="103.0232409"><ele>2017.82</ele><time>2026-05-23T23:56:49.000Z</time></trkpt>
        <trkpt lat="29.3686072" lon="103.0233033"><ele>2014.64</ele><time>2026-05-23T23:57:01.000Z</time></trkpt>
        <trkpt lat="29.3686955" lon="103.0233541"><ele>2011.55</ele><time>2026-05-23T23:57:11.000Z</time></trkpt>
        <trkpt lat="29.3687392" lon="103.0233588"><ele>2009.34</ele><time>2026-05-23T23:57:15.000Z</time></trkpt>
        <trkpt lat="29.3688058" lon="103.0233969"><ele>2007.98</ele><time>2026-05-23T23:57:31.000Z</time></trkpt>
        <trkpt lat="29.368887" lon="103.0234566"><ele>2005.74</ele><time>2026-05-23T23:57:41.000Z</time></trkpt>
        <trkpt lat="29.3689672" lon="103.0235464"><ele>2003.34</ele><time>2026-05-23T23:57:51.000Z</time></trkpt>
        <trkpt lat="29.3690267" lon="103.0236241"><ele>2000.63</ele><time>2026-05-23T23:58:01.000Z</time></trkpt>
        <trkpt lat="29.3690892" lon="103.0237072"><ele>1997.81</ele><time>2026-05-23T23:58:19.000Z</time></trkpt>
        <trkpt lat="29.3691542" lon="103.0237893"><ele>1993.98</ele><time>2026-05-23T23:58:35.000Z</time></trkpt>
        <trkpt lat="29.3691996" lon="103.0238851"><ele>1990.1</ele><time>2026-05-23T23:58:53.000Z</time></trkpt>
        <trkpt lat="29.3692454" lon="103.0239846"><ele>1986.85</ele><time>2026-05-23T23:59:09.000Z</time></trkpt>
        <trkpt lat="29.3692878" lon="103.024081"><ele>1983.53</ele><time>2026-05-23T23:59:25.000Z</time></trkpt>
        <trkpt lat="29.3693381" lon="103.0241709"><ele>1980.57</ele><time>2026-05-23T23:59:43.000Z</time></trkpt>
        <trkpt lat="29.3693873" lon="103.0242627"><ele>1977.26</ele><time>2026-05-23T23:59:59.000Z</time></trkpt>
        <trkpt lat="29.3693817" lon="103.0243694"><ele>1974.95</ele><time>2026-05-24T00:00:42.000Z</time></trkpt>
        <trkpt lat="29.3694093" lon="103.0244645"><ele>1971.78</ele><time>2026-05-24T00:00:54.000Z</time></trkpt>
        <trkpt lat="29.3694834" lon="103.0245406"><ele>1969.02</ele><time>2026-05-24T00:01:10.000Z</time></trkpt>
        <trkpt lat="29.3694877" lon="103.0246363"><ele>1965.37</ele><time>2026-05-24T00:01:18.000Z</time></trkpt>
        <trkpt lat="29.3694049" lon="103.0246806"><ele>1962.91</ele><time>2026-05-24T00:01:26.000Z</time></trkpt>
        <trkpt lat="29.3693135" lon="103.0247457"><ele>1961.91</ele><time>2026-05-24T00:01:36.000Z</time></trkpt>
        <trkpt lat="29.3692298" lon="103.0248302"><ele>1960.89</ele><time>2026-05-24T00:01:46.000Z</time></trkpt>
        <trkpt lat="29.3691728" lon="103.024928"><ele>1959.6</ele><time>2026-05-24T00:01:58.000Z</time></trkpt>
        <trkpt lat="29.3691537" lon="103.0250495"><ele>1958.58</ele><time>2026-05-24T00:02:10.000Z</time></trkpt>
        <trkpt lat="29.3691761" lon="103.0251628"><ele>1957.3</ele><time>2026-05-24T00:02:20.000Z</time></trkpt>
        <trkpt lat="29.3691863" lon="103.0252246"><ele>1956.31</ele><time>2026-05-24T00:02:26.000Z</time></trkpt>
        <trkpt lat="29.3691958" lon="103.0253141"><ele>1955.51</ele><time>2026-05-24T00:02:42.000Z</time></trkpt>
        <trkpt lat="29.36919" lon="103.0254144"><ele>1954.67</ele><time>2026-05-24T00:02:52.000Z</time></trkpt>
        <trkpt lat="29.3690919" lon="103.0254307"><ele>1953.87</ele><time>2026-05-24T00:04:18.000Z</time></trkpt>
        <trkpt lat="29.369121" lon="103.0255347"><ele>1948.75</ele><time>2026-05-24T00:04:24.000Z</time></trkpt>
        <trkpt lat="29.3691755" lon="103.0256425"><ele>1946.68</ele><time>2026-05-24T00:04:30.000Z</time></trkpt>
        <trkpt lat="29.3692078" lon="103.0257626"><ele>1945.72</ele><time>2026-05-24T00:04:38.000Z</time></trkpt>
        <trkpt lat="29.3692329" lon="103.0258852"><ele>1945.57</ele><time>2026-05-24T00:04:46.000Z</time></trkpt>
        <trkpt lat="29.369248" lon="103.026003"><ele>1945.9</ele><time>2026-05-24T00:04:54.000Z</time></trkpt>
        <trkpt lat="29.3692229" lon="103.0261218"><ele>1945.93</ele><time>2026-05-24T00:05:02.000Z</time></trkpt>
        <trkpt lat="29.3691739" lon="103.0262391"><ele>1945.61</ele><time>2026-05-24T00:05:10.000Z</time></trkpt>
        <trkpt lat="29.3691085" lon="103.02634"><ele>1945.64</ele><time>2026-05-24T00:05:18.000Z</time></trkpt>
        <trkpt lat="29.3690417" lon="103.0264299"><ele>1945.79</ele><time>2026-05-24T00:05:26.000Z</time></trkpt>
        <trkpt lat="29.3689968" lon="103.0265334"><ele>1945.42</ele><time>2026-05-24T00:05:34.000Z</time></trkpt>
        <trkpt lat="29.3689576" lon="103.0266425"><ele>1944.74</ele><time>2026-05-24T00:05:42.000Z</time></trkpt>
        <trkpt lat="29.3689137" lon="103.0267462"><ele>1944.36</ele><time>2026-05-24T00:05:50.000Z</time></trkpt>
        <trkpt lat="29.3688473" lon="103.026839"><ele>1943.48</ele><time>2026-05-24T00:05:58.000Z</time></trkpt>
        <trkpt lat="29.368772" lon="103.0269168"><ele>1943.27</ele><time>2026-05-24T00:06:06.000Z</time></trkpt>
        <trkpt lat="29.3686866" lon="103.0269829"><ele>1943</ele><time>2026-05-24T00:06:14.000Z</time></trkpt>
        <trkpt lat="29.3686058" lon="103.0270473"><ele>1942.59</ele><time>2026-05-24T00:06:22.000Z</time></trkpt>
        <trkpt lat="29.3685506" lon="103.027133"><ele>1942.6</ele><time>2026-05-24T00:06:30.000Z</time></trkpt>
        <trkpt lat="29.3684965" lon="103.0272275"><ele>1941.82</ele><time>2026-05-24T00:06:38.000Z</time></trkpt>
        <trkpt lat="29.3684426" lon="103.027326"><ele>1940.96</ele><time>2026-05-24T00:06:46.000Z</time></trkpt>
        <trkpt lat="29.3683847" lon="103.0274203"><ele>1940.13</ele><time>2026-05-24T00:06:54.000Z</time></trkpt>
        <trkpt lat="29.3684117" lon="103.0275238"><ele>1939.13</ele><time>2026-05-24T00:07:04.000Z</time></trkpt>
        <trkpt lat="29.3684578" lon="103.0276297"><ele>1937.94</ele><time>2026-05-24T00:07:16.000Z</time></trkpt>
        <trkpt lat="29.3684816" lon="103.0276819"><ele>1935.66</ele><time>2026-05-24T00:07:22.000Z</time></trkpt>
        <trkpt lat="29.3684986" lon="103.0277791"><ele>1934.16</ele><time>2026-05-24T00:08:00.000Z</time></trkpt>
        <trkpt lat="29.3685023" lon="103.027899"><ele>1932.2</ele><time>2026-05-24T00:08:10.000Z</time></trkpt>
        <trkpt lat="29.3685351" lon="103.0280149"><ele>1930.21</ele><time>2026-05-24T00:08:22.000Z</time></trkpt>
        <trkpt lat="29.3685769" lon="103.0281265"><ele>1927.72</ele><time>2026-05-24T00:08:32.000Z</time></trkpt>
        <trkpt lat="29.3686384" lon="103.0282092"><ele>1925.93</ele><time>2026-05-24T00:08:44.000Z</time></trkpt>
        <trkpt lat="29.3686573" lon="103.0283166"><ele>1924.7</ele><time>2026-05-24T00:08:56.000Z</time></trkpt>
        <trkpt lat="29.3686873" lon="103.0284171"><ele>1923.21</ele><time>2026-05-24T00:09:06.000Z</time></trkpt>
        <trkpt lat="29.3687413" lon="103.0285044"><ele>1921.85</ele><time>2026-05-24T00:09:24.000Z</time></trkpt>
        <trkpt lat="29.3687942" lon="103.0285963"><ele>1919.54</ele><time>2026-05-24T00:09:40.000Z</time></trkpt>
        <trkpt lat="29.3688307" lon="103.0286959"><ele>1917.27</ele><time>2026-05-24T00:09:56.000Z</time></trkpt>
        <trkpt lat="29.3688566" lon="103.0288"><ele>1914.27</ele><time>2026-05-24T00:10:10.000Z</time></trkpt>
        <trkpt lat="29.3688565" lon="103.0289107"><ele>1911.41</ele><time>2026-05-24T00:10:26.000Z</time></trkpt>
        <trkpt lat="29.3688204" lon="103.029009"><ele>1908.8</ele><time>2026-05-24T00:10:42.000Z</time></trkpt>
        <trkpt lat="29.3688116" lon="103.0291228"><ele>1905.53</ele><time>2026-05-24T00:10:52.000Z</time></trkpt>
        <trkpt lat="29.3688733" lon="103.0291961"><ele>1903.12</ele><time>2026-05-24T00:11:02.000Z</time></trkpt>
        <trkpt lat="29.3689663" lon="103.0292266"><ele>1900.93</ele><time>2026-05-24T00:11:12.000Z</time></trkpt>
        <trkpt lat="29.3690116" lon="103.0292536"><ele>1898.39</ele><time>2026-05-24T00:11:22.000Z</time></trkpt>
        <trkpt lat="29.3690531" lon="103.0293325"><ele>1896.05</ele><time>2026-05-24T00:11:40.000Z</time></trkpt>
        <trkpt lat="29.3691138" lon="103.0294291"><ele>1895.71</ele><time>2026-05-24T00:11:50.000Z</time></trkpt>
        <trkpt lat="29.3692013" lon="103.0294503"><ele>1895.99</ele><time>2026-05-24T00:12:00.000Z</time></trkpt>
        <trkpt lat="29.3692679" lon="103.0295083"><ele>1896.81</ele><time>2026-05-24T00:12:14.000Z</time></trkpt>
        <trkpt lat="29.3693397" lon="103.0295774"><ele>1895.77</ele><time>2026-05-24T00:12:24.000Z</time></trkpt>
        <trkpt lat="29.369385" lon="103.0296809"><ele>1894.79</ele><time>2026-05-24T00:12:40.000Z</time></trkpt>
        <trkpt lat="29.3693823" lon="103.0298003"><ele>1892.47</ele><time>2026-05-24T00:12:52.000Z</time></trkpt>
        <trkpt lat="29.3694305" lon="103.0298934"><ele>1891.15</ele><time>2026-05-24T00:13:06.000Z</time></trkpt>
        <trkpt lat="29.3694841" lon="103.0299797"><ele>1889.09</ele><time>2026-05-24T00:13:18.000Z</time></trkpt>
        <trkpt lat="29.3695646" lon="103.0300476"><ele>1887.95</ele><time>2026-05-24T00:13:32.000Z</time></trkpt>
        <trkpt lat="29.3696535" lon="103.0301052"><ele>1887</ele><time>2026-05-24T00:13:44.000Z</time></trkpt>
        <trkpt lat="29.3697103" lon="103.030196"><ele>1884.16</ele><time>2026-05-24T00:14:00.000Z</time></trkpt>
        <trkpt lat="29.3697669" lon="103.030285"><ele>1881.07</ele><time>2026-05-24T00:14:18.000Z</time></trkpt>
        <trkpt lat="29.369805" lon="103.0304002"><ele>1877.98</ele><time>2026-05-24T00:14:30.000Z</time></trkpt>
        <trkpt lat="29.3698795" lon="103.0304584"><ele>1876.51</ele><time>2026-05-24T00:14:42.000Z</time></trkpt>
        <trkpt lat="29.3699557" lon="103.0305197"><ele>1874.82</ele><time>2026-05-24T00:15:00.000Z</time></trkpt>
        <trkpt lat="29.3699812" lon="103.030612"><ele>1872.24</ele><time>2026-05-24T00:15:12.000Z</time></trkpt>
        <trkpt lat="29.3700258" lon="103.0307004"><ele>1869.59</ele><time>2026-05-24T00:15:30.000Z</time></trkpt>
        <trkpt lat="29.3700838" lon="103.0307801"><ele>1867.07</ele><time>2026-05-24T00:15:38.000Z</time></trkpt>
        <trkpt lat="29.3701561" lon="103.0308658"><ele>1865.82</ele><time>2026-05-24T00:15:52.000Z</time></trkpt>
        <trkpt lat="29.3702425" lon="103.0309222"><ele>1863.94</ele><time>2026-05-24T00:16:06.000Z</time></trkpt>
        <trkpt lat="29.370349" lon="103.0309313"><ele>1862.49</ele><time>2026-05-24T00:16:20.000Z</time></trkpt>
        <trkpt lat="29.3704462" lon="103.0309413"><ele>1860.63</ele><time>2026-05-24T00:16:28.000Z</time></trkpt>
        <trkpt lat="29.3705415" lon="103.03094"><ele>1859.81</ele><time>2026-05-24T00:16:36.000Z</time></trkpt>
        <trkpt lat="29.3706373" lon="103.0309492"><ele>1858.47</ele><time>2026-05-24T00:16:46.000Z</time></trkpt>
        <trkpt lat="29.3707194" lon="103.0309921"><ele>1857.5</ele><time>2026-05-24T00:16:54.000Z</time></trkpt>
        <trkpt lat="29.3708184" lon="103.0310387"><ele>1854.73</ele><time>2026-05-24T00:17:04.000Z</time></trkpt>
        <trkpt lat="29.3709184" lon="103.0310816"><ele>1853.15</ele><time>2026-05-24T00:17:14.000Z</time></trkpt>
        <trkpt lat="29.3710121" lon="103.0311131"><ele>1853.13</ele><time>2026-05-24T00:17:22.000Z</time></trkpt>
        <trkpt lat="29.3711022" lon="103.031162"><ele>1853.5</ele><time>2026-05-24T00:17:30.000Z</time></trkpt>
        <trkpt lat="29.3711843" lon="103.0312248"><ele>1853.05</ele><time>2026-05-24T00:17:38.000Z</time></trkpt>
        <trkpt lat="29.3712611" lon="103.0312882"><ele>1852.7</ele><time>2026-05-24T00:17:48.000Z</time></trkpt>
        <trkpt lat="29.3713359" lon="103.0313527"><ele>1850.92</ele><time>2026-05-24T00:17:56.000Z</time></trkpt>
        <trkpt lat="29.3714236" lon="103.0314232"><ele>1849.3</ele><time>2026-05-24T00:18:04.000Z</time></trkpt>
        <trkpt lat="29.3715046" lon="103.031484"><ele>1848.99</ele><time>2026-05-24T00:18:10.000Z</time></trkpt>
        <trkpt lat="29.3715724" lon="103.0315783"><ele>1849.37</ele><time>2026-05-24T00:18:20.000Z</time></trkpt>
        <trkpt lat="29.371614" lon="103.031687"><ele>1849.68</ele><time>2026-05-24T00:18:28.000Z</time></trkpt>
        <trkpt lat="29.3716743" lon="103.0317707"><ele>1848.4</ele><time>2026-05-24T00:18:36.000Z</time></trkpt>
        <trkpt lat="29.3717449" lon="103.0318529"><ele>1848.17</ele><time>2026-05-24T00:18:46.000Z</time></trkpt>
        <trkpt lat="29.3718425" lon="103.0318835"><ele>1848.14</ele><time>2026-05-24T00:18:56.000Z</time></trkpt>
        <trkpt lat="29.371945" lon="103.0318655"><ele>1847.05</ele><time>2026-05-24T00:19:04.000Z</time></trkpt>
        <trkpt lat="29.3720498" lon="103.0318284"><ele>1847.25</ele><time>2026-05-24T00:19:14.000Z</time></trkpt>
        <trkpt lat="29.3721482" lon="103.0317652"><ele>1846.66</ele><time>2026-05-24T00:19:24.000Z</time></trkpt>
        <trkpt lat="29.3722404" lon="103.031688"><ele>1845.17</ele><time>2026-05-24T00:19:34.000Z</time></trkpt>
        <trkpt lat="29.3723285" lon="103.0316131"><ele>1843.85</ele><time>2026-05-24T00:19:44.000Z</time></trkpt>
        <trkpt lat="29.3724259" lon="103.0315551"><ele>1843.01</ele><time>2026-05-24T00:19:54.000Z</time></trkpt>
        <trkpt lat="29.3725245" lon="103.0315157"><ele>1842.53</ele><time>2026-05-24T00:20:04.000Z</time></trkpt>
        <trkpt lat="29.3726289" lon="103.031509"><ele>1841.81</ele><time>2026-05-24T00:20:12.000Z</time></trkpt>
        <trkpt lat="29.3726946" lon="103.0315095"><ele>1841.3</ele><time>2026-05-24T00:20:25.000Z</time></trkpt>
        <trkpt lat="29.3727634" lon="103.0315569"><ele>1839.79</ele><time>2026-05-24T00:21:12.000Z</time></trkpt>
        <trkpt lat="29.3728425" lon="103.0316335"><ele>1837.96</ele><time>2026-05-24T00:21:30.000Z</time></trkpt>
        <trkpt lat="29.3729169" lon="103.0317123"><ele>1836.76</ele><time>2026-05-24T00:21:48.000Z</time></trkpt>
        <trkpt lat="29.3729945" lon="103.0317745"><ele>1836.52</ele><time>2026-05-24T00:22:04.000Z</time></trkpt>
        <trkpt lat="29.3730636" lon="103.0318493"><ele>1836.38</ele><time>2026-05-24T00:22:14.000Z</time></trkpt>
        <trkpt lat="29.3731216" lon="103.0319323"><ele>1836.36</ele><time>2026-05-24T00:22:22.000Z</time></trkpt>
        <trkpt lat="29.3731523" lon="103.0320301"><ele>1835.85</ele><time>2026-05-24T00:22:30.000Z</time></trkpt>
        <trkpt lat="29.3731655" lon="103.0321461"><ele>1835.4</ele><time>2026-05-24T00:22:38.000Z</time></trkpt>
        <trkpt lat="29.3731594" lon="103.0322623"><ele>1835.39</ele><time>2026-05-24T00:22:46.000Z</time></trkpt>
        <trkpt lat="29.3731646" lon="103.0323828"><ele>1834.98</ele><time>2026-05-24T00:22:56.000Z</time></trkpt>
        <trkpt lat="29.3731839" lon="103.0324918"><ele>1834.59</ele><time>2026-05-24T00:23:06.000Z</time></trkpt>
        <trkpt lat="29.3732194" lon="103.0325925"><ele>1834.59</ele><time>2026-05-24T00:23:14.000Z</time></trkpt>
        <trkpt lat="29.3732768" lon="103.0326899"><ele>1834.93</ele><time>2026-05-24T00:23:22.000Z</time></trkpt>
        <trkpt lat="29.3733341" lon="103.0327802"><ele>1835.01</ele><time>2026-05-24T00:23:30.000Z</time></trkpt>
        <trkpt lat="29.3733961" lon="103.0328699"><ele>1834.77</ele><time>2026-05-24T00:23:38.000Z</time></trkpt>
        <trkpt lat="29.373483" lon="103.0328854"><ele>1836.4</ele><time>2026-05-24T00:23:46.000Z</time></trkpt>
        <trkpt lat="29.3735335" lon="103.0328767"><ele>1837.65</ele><time>2026-05-24T00:23:52.000Z</time></trkpt>
        <trkpt lat="29.3734476" lon="103.0328047"><ele>1838.35</ele><time>2026-05-24T00:24:54.000Z</time></trkpt>
        <trkpt lat="29.3734315" lon="103.0329145"><ele>1839.23</ele><time>2026-05-24T00:27:26.000Z</time></trkpt>
        <trkpt lat="29.3734237" lon="103.0330288"><ele>1841.83</ele><time>2026-05-24T00:30:42.000Z</time></trkpt>
        <trkpt lat="29.3734237" lon="103.0330288"><ele>1841.83</ele><time>2026-05-24T00:35:10.000Z</time></trkpt>
      </trkseg>
  </trk>
</gpx>